Time,TemperatureF,DewpointF,PressureIn,WindDirection,WindDirectionDegrees,WindSpeedMPH,WindSpeedGustMPH,Humidity,HourlyPrecipIn,Conditions,Clouds,dailyrainin,SolarRadiationWatts/m^2,SoftwareType,DateUTC
2013-03-11 00:00:00,57.5,24.1,29.65,NNW,335,2.1,3.0,27,-99.99,,,0.00,0,rob ver 1A,2013-03-11 07:00:00,
2013-03-11 00:01:00,60.2,25.8,29.53,NE,40,5.3,6.2,26,-99.99,,,0.00,0,rob ver 1B,2013-03-11 07:01:00,
2013-03-11 00:02:00,60.2,25.9,29.53,NE,38,5.1,6.0,26,-99.99,,,0.00,0,rob ver 1B,2013-03-11 07:02:00,
2013-03-11 00:03:00,60.2,25.9,29.50,NE,43,3.7,4.8,26,-99.99,,,0.00,0,rob ver 1B,2013-03-11 07:03:00,
2013-03-11 00:04:00,60.0,25.9,29.53,NE,38,3.7,4.9,26,-99.99,,,0.00,0,rob ver 1B,2013-03-11 07:04:00,
2013-03-11 00:05:00,60.0,25.9,29.53,NNE,26,4.7,5.6,26,-99.99,,,0.00,0,rob ver 1B,2013-03-11 07:05:00,
2013-03-11 00:06:00,57.8,24.1,29.65,NNW,347,3.1,3.4,26,-99.99,,,0.00,0,rob ver 1A,2013-03-11 07:06:00,
2013-03-11 00:07:00,60.1,25.9,29.50,NNE,31,4.1,4.7,26,-99.99,,,0.00,0,rob ver 1B,2013-03-11 07:07:00,
2013-03-11 00:08:00,60.0,25.9,29.50,NNE,32,4.0,4.4,27,-99.99,,,0.00,0,rob ver 1B,2013-03-11 07:08:00,
2013-03-11 00:09:00,59.8,25.9,29.53,NNE,27,3.8,4.2,27,-99.99,,,0.00,0,rob ver 1B,2013-03-11 07:09:00,
2013-03-11 00:10:00,59.6,25.9,29.53,NNE,27,3.7,4.3,27,-99.99,,,0.00,0,rob ver 1B,2013-03-11 07:10:00,
2013-03-11 00:11:00,58.6,23.5,29.62,NW,324,4.0,4.3,25,-99.99,,,0.00,0,rob ver 1A,2013-03-11 07:11:00,
2013-03-11 00:12:00,59.5,25.9,29.50,NNE,30,3.5,3.8,27,-99.99,,,0.00,0,rob ver 1B,2013-03-11 07:12:00,
2013-03-11 00:13:00,59.5,25.8,29.50,NNE,33,3.5,3.8,27,-99.99,,,0.00,0,rob ver 1B,2013-03-11 07:13:00,
2013-03-11 00:14:00,59.5,25.8,29.53,NNE,27,3.5,4.2,27,-99.99,,,0.00,0,rob ver 1B,2013-03-11 07:14:00,
2013-03-11 00:15:00,59.4,25.8,29.53,NNE,22,3.3,3.9,27,-99.99,,,0.00,0,rob ver 1B,2013-03-11 07:15:00,
2013-03-11 00:16:00,58.1,23.4,29.62,NNW,328,4.9,5.3,26,-99.99,,,0.00,0,rob ver 1A,2013-03-11 07:16:00,
2013-03-11 00:17:00,59.3,25.8,29.50,NNE,18,3.9,4.4,27,-99.99,,,0.00,0,rob ver 1B,2013-03-11 07:17:00,
2013-03-11 00:18:00,59.3,25.8,29.50,NNE,20,3.7,4.2,27,-99.99,,,0.00,0,rob ver 1B,2013-03-11 07:18:00,
2013-03-11 00:19:00,59.2,25.8,29.53,NNE,21,3.8,4.4,27,-99.99,,,0.00,0,rob ver 1B,2013-03-11 07:19:00,
2013-03-11 00:20:00,59.1,25.9,29.50,NNE,20,4.3,4.6,27,-99.99,,,0.00,0,rob ver 1B,2013-03-11 07:20:00,
2013-03-11 00:21:00,57.8,23.2,29.62,NW,326,3.8,4.8,26,-99.99,,,0.00,0,rob ver 1A,2013-03-11 07:21:00,
2013-03-11 00:22:00,59.0,26.0,29.50,NNE,16,4.7,5.0,27,-99.99,,,0.00,0,rob ver 1B,2013-03-11 07:22:00,
2013-03-11 00:23:00,59.1,26.0,29.50,NNE,12,4.9,5.2,27,-99.99,,,0.00,0,rob ver 1B,2013-03-11 07:23:00,
2013-03-11 00:24:00,59.2,26.1,29.53,North,8,5.0,5.4,27,-99.99,,,0.00,0,rob ver 1B,2013-03-11 07:24:00,
2013-03-11 00:25:00,59.2,26.1,29.50,North,8,4.3,4.8,27,-99.99,,,0.00,0,rob ver 1B,2013-03-11 07:25:00,
2013-03-11 00:26:00,57.5,23.1,29.62,NW,325,2.3,2.7,26,-99.99,,,0.00,0,rob ver 1A,2013-03-11 07:26:00,
2013-03-11 00:27:00,59.1,26.2,29.50,North,5,4.7,5.0,28,-99.99,,,0.00,0,rob ver 1B,2013-03-11 07:27:00,
2013-03-11 00:28:00,59.2,26.2,29.50,North,3,4.4,4.7,28,-99.99,,,0.00,0,rob ver 1B,2013-03-11 07:28:00,
2013-03-11 00:29:00,59.2,26.2,29.50,North,6,4.2,4.5,28,-99.99,,,0.00,0,rob ver 1B,2013-03-11 07:29:00,
2013-03-11 00:30:00,59.2,26.2,29.50,North,8,3.9,4.2,28,-99.99,,,0.00,0,rob ver 1B,2013-03-11 07:30:00,
2013-03-11 00:31:00,57.1,23.8,29.62,SSW,212,4.2,5.5,27,-99.99,,,0.00,0,rob ver 1A,2013-03-11 07:31:00,
2013-03-11 00:32:00,59.0,26.2,29.50,North,9,3.9,4.2,28,-99.99,,,0.00,0,rob ver 1B,2013-03-11 07:32:00,
2013-03-11 00:33:00,58.9,26.2,29.50,North,7,4.0,4.3,28,-99.99,,,0.00,0,rob ver 1B,2013-03-11 07:33:00,
2013-03-11 00:34:00,58.9,26.2,29.50,NNE,12,4.2,4.4,28,-99.99,,,0.00,0,rob ver 1B,2013-03-11 07:34:00,
2013-03-11 00:35:00,58.9,26.2,29.50,North,10,4.0,4.3,28,-99.99,,,0.00,0,rob ver 1B,2013-03-11 07:35:00,
2013-03-11 00:36:00,55.3,23.3,29.62,West,273,3.5,3.7,28,-99.99,,,0.00,0,rob ver 1A,2013-03-11 07:36:00,
2013-03-11 00:37:00,58.7,26.1,29.50,NNE,17,3.1,3.4,28,-99.99,,,0.00,0,rob ver 1B,2013-03-11 07:37:00,
2013-03-11 00:38:00,58.5,26.1,29.50,NNE,15,2.9,3.4,28,-99.99,,,0.00,0,rob ver 1B,2013-03-11 07:38:00,
2013-03-11 00:39:00,58.3,26.1,29.50,NNE,20,2.9,3.4,28,-99.99,,,0.00,0,rob ver 1B,2013-03-11 07:39:00,
2013-03-11 00:40:00,58.3,26.1,29.50,NNE,24,3.2,3.6,28,-99.99,,,0.00,0,rob ver 1B,2013-03-11 07:40:00,
2013-03-11 00:41:00,56.0,23.3,29.62,NW,306,3.6,3.9,27,-99.99,,,0.00,0,rob ver 1A,2013-03-11 07:41:00,
2013-03-11 00:42:00,58.4,26.1,29.50,NNE,24,3.4,3.8,28,-99.99,,,0.00,0,rob ver 1B,2013-03-11 07:42:00,
2013-03-11 00:43:00,58.5,26.2,29.50,NNE,29,2.9,3.4,28,-99.99,,,0.00,0,rob ver 1B,2013-03-11 07:43:00,
2013-03-11 00:44:00,58.7,26.2,29.50,NNE,30,3.1,3.5,28,-99.99,,,0.00,0,rob ver 1B,2013-03-11 07:44:00,
2013-03-11 00:45:00,58.9,26.1,29.50,NNE,32,3.8,4.4,27,-99.99,,,0.00,0,rob ver 1B,2013-03-11 07:45:00,
2013-03-11 00:46:00,55.8,23.3,29.62,NNW,337,2.8,3.4,28,-99.99,,,0.00,0,rob ver 1A,2013-03-11 07:46:00,
2013-03-11 00:47:00,59.5,26.1,29.50,NE,38,3.4,4.1,27,-99.99,,,0.00,0,rob ver 1B,2013-03-11 07:47:00,
2013-03-11 00:48:00,59.4,26.1,29.50,NE,37,3.8,4.5,27,-99.99,,,0.00,0,rob ver 1B,2013-03-11 07:48:00,
2013-03-11 00:49:00,59.2,26.0,29.50,NE,37,4.4,5.0,27,-99.99,,,0.00,0,rob ver 1B,2013-03-11 07:49:00,
2013-03-11 00:50:00,59.0,26.0,29.50,NE,36,4.5,4.9,28,-99.99,,,0.00,0,rob ver 1B,2013-03-11 07:50:00,
2013-03-11 00:51:00,55.6,23.6,29.62,North,349,2.9,3.3,28,-99.99,,,0.00,0,rob ver 1A,2013-03-11 07:51:00,
2013-03-11 00:52:00,58.8,26.1,29.50,NE,34,4.3,4.6,28,-99.99,,,0.00,0,rob ver 1B,2013-03-11 07:52:00,
2013-03-11 00:53:00,58.7,26.2,29.50,NE,35,4.5,4.8,28,-99.99,,,0.00,0,rob ver 1B,2013-03-11 07:53:00,
2013-03-11 00:54:00,58.5,26.3,29.50,NE,35,4.3,4.6,29,-99.99,,,0.00,0,rob ver 1B,2013-03-11 07:54:00,
2013-03-11 00:55:00,58.2,26.2,29.50,NNE,30,4.0,4.5,29,-99.99,,,0.00,0,rob ver 1B,2013-03-11 07:55:00,
2013-03-11 00:56:00,55.9,23.0,29.62,NW,325,4.6,5.5,27,-99.99,,,0.00,0,rob ver 1A,2013-03-11 07:56:00,
2013-03-11 00:57:00,57.8,26.1,29.50,NNE,21,4.2,4.7,29,-99.99,,,0.00,0,rob ver 1B,2013-03-11 07:57:00,
2013-03-11 00:58:00,57.9,26.1,29.50,NNE,19,4.6,4.9,29,-99.99,,,0.00,0,rob ver 1B,2013-03-11 07:58:00,
2013-03-11 00:59:00,58.1,26.1,29.50,NNE,20,4.7,5.0,28,-99.99,,,0.00,0,rob ver 1B,2013-03-11 07:59:00,
2013-03-11 01:00:00,58.3,26.1,29.50,NNE,24,4.5,5.2,28,-99.99,,,0.00,0,rob ver 1B,2013-03-11 08:00:00,
2013-03-11 01:01:00,58.3,26.1,29.50,NNE,27,3.7,4.3,28,-99.99,,,0.00,0,rob ver 1B,2013-03-11 08:01:00,
2013-03-11 01:02:00,56.5,22.7,29.62,NW,321,4.5,5.8,26,-99.99,,,0.00,0,rob ver 1A,2013-03-11 08:02:00,
2013-03-11 01:03:00,58.1,26.1,29.50,NNE,21,4.2,4.7,28,-99.99,,,0.00,0,rob ver 1B,2013-03-11 08:03:00,
2013-03-11 01:04:00,58.2,26.0,29.50,NNE,25,3.2,3.8,28,-99.99,,,0.00,0,rob ver 1B,2013-03-11 08:04:00,
2013-03-11 01:05:00,58.1,26.0,29.50,NE,36,2.8,3.3,28,-99.99,,,0.00,0,rob ver 1B,2013-03-11 08:05:00,
2013-03-11 01:06:00,58.1,26.0,29.50,NE,35,3.6,4.3,28,-99.99,,,0.00,0,rob ver 1B,2013-03-11 08:06:00,
2013-03-11 01:07:00,55.8,22.4,29.62,West,265,4.5,5.0,27,-99.99,,,0.00,0,rob ver 1A,2013-03-11 08:07:00,
2013-03-11 01:08:00,58.6,26.1,29.50,NE,37,4.0,4.4,28,-99.99,,,0.00,0,rob ver 1B,2013-03-11 08:08:00,
2013-03-11 01:09:00,58.6,26.2,29.50,NE,40,3.8,4.4,28,-99.99,,,0.00,0,rob ver 1B,2013-03-11 08:09:00,
2013-03-11 01:10:00,58.6,26.4,29.50,NE,38,4.3,4.7,29,-99.99,,,0.00,0,rob ver 1B,2013-03-11 08:10:00,
2013-03-11 01:11:00,58.5,26.6,29.50,NNE,33,4.2,4.7,29,-99.99,,,0.00,0,rob ver 1B,2013-03-11 08:11:00,
2013-03-11 01:12:00,56.2,22.3,29.62,NW,307,5.9,6.7,26,-99.99,,,0.00,0,rob ver 1A,2013-03-11 08:12:00,
2013-03-11 01:13:00,58.2,26.8,29.50,NE,39,4.5,4.7,29,-99.99,,,0.00,0,rob ver 1B,2013-03-11 08:13:00,
2013-03-11 01:14:00,58.1,26.9,29.50,NE,38,4.5,4.8,30,-99.99,,,0.00,0,rob ver 1B,2013-03-11 08:14:00,
2013-03-11 01:15:00,57.8,26.9,29.50,NE,37,4.6,5.1,30,-99.99,,,0.00,0,rob ver 1B,2013-03-11 08:15:00,
2013-03-11 01:16:00,57.6,27.0,29.50,NE,36,4.2,4.7,30,-99.99,,,0.00,0,rob ver 1B,2013-03-11 08:16:00,
2013-03-11 01:17:00,55.8,22.5,29.62,NW,315,7.0,7.6,27,-99.99,,,0.00,0,rob ver 1A,2013-03-11 08:17:00,
2013-03-11 01:18:00,57.2,27.0,29.50,NE,34,4.4,4.7,31,-99.99,,,0.00,0,rob ver 1B,2013-03-11 08:18:00,
2013-03-11 01:19:00,57.1,27.0,29.50,NNE,33,4.6,4.7,31,-99.99,,,0.00,0,rob ver 1B,2013-03-11 08:19:00,
2013-03-11 01:20:00,57.1,27.0,29.50,NE,34,4.4,4.7,31,-99.99,,,0.00,0,rob ver 1B,2013-03-11 08:20:00,
2013-03-11 01:21:00,57.1,27.1,29.50,NE,36,4.4,4.6,31,-99.99,,,0.00,0,rob ver 1B,2013-03-11 08:21:00,
2013-03-11 01:22:00,56.6,22.2,29.62,NW,324,5.7,6.9,25,-99.99,,,0.00,0,rob ver 1A,2013-03-11 08:22:00,
2013-03-11 01:23:00,57.2,27.1,29.50,NE,36,4.1,4.4,31,-99.99,,,0.00,0,rob ver 1B,2013-03-11 08:23:00,
2013-03-11 01:24:00,57.1,27.1,29.50,NE,35,4.4,4.7,31,-99.99,,,0.00,0,rob ver 1B,2013-03-11 08:24:00,
2013-03-11 01:25:00,57.1,27.1,29.50,NNE,27,4.0,4.4,31,-99.99,,,0.00,0,rob ver 1B,2013-03-11 08:25:00,
2013-03-11 01:26:00,57.0,27.0,29.50,NNE,22,3.7,4.3,31,-99.99,,,0.00,0,rob ver 1B,2013-03-11 08:26:00,
2013-03-11 01:27:00,56.9,21.9,29.62,NW,326,5.6,6.6,25,-99.99,,,0.00,0,rob ver 1A,2013-03-11 08:27:00,
2013-03-11 01:28:00,56.8,26.8,29.50,North,5,2.5,3.2,31,-99.99,,,0.00,0,rob ver 1B,2013-03-11 08:28:00,
2013-03-11 01:29:00,56.7,26.8,29.50,North,2,3.2,3.7,31,-99.99,,,0.00,0,rob ver 1B,2013-03-11 08:29:00,
2013-03-11 01:30:00,56.9,26.5,29.50,North,1,3.6,3.9,30,-99.99,,,0.00,0,rob ver 1B,2013-03-11 08:30:00,
2013-03-11 01:31:00,57.2,26.4,29.50,North,2,3.7,4.0,30,-99.99,,,0.00,0,rob ver 1B,2013-03-11 08:31:00,
2013-03-11 01:32:00,56.2,22.6,29.62,NNW,332,5.7,6.9,26,-99.99,,,0.00,0,rob ver 1A,2013-03-11 08:32:00,
2013-03-11 01:33:00,57.8,26.5,29.50,North,4,4.3,4.6,29,-99.99,,,0.00,0,rob ver 1B,2013-03-11 08:33:00,
2013-03-11 01:34:00,57.9,26.6,29.50,North,5,4.4,4.6,29,-99.99,,,0.00,0,rob ver 1B,2013-03-11 08:34:00,
2013-03-11 01:35:00,57.9,26.6,29.50,North,5,4.6,4.8,29,-99.99,,,0.00,0,rob ver 1B,2013-03-11 08:35:00,
2013-03-11 01:36:00,58.0,26.7,29.50,North,4,4.9,5.1,29,-99.99,,,0.00,0,rob ver 1B,2013-03-11 08:36:00,
2013-03-11 01:37:00,56.2,22.7,29.62,NNW,334,6.6,7.7,26,-99.99,,,0.00,0,rob ver 1A,2013-03-11 08:37:00,
2013-03-11 01:38:00,58.1,26.7,29.50,North,5,4.9,5.1,29,-99.99,,,0.00,0,rob ver 1B,2013-03-11 08:38:00,
2013-03-11 01:39:00,58.0,26.7,29.50,North,3,4.6,4.9,29,-99.99,,,0.00,0,rob ver 1B,2013-03-11 08:39:00,
2013-03-11 01:40:00,57.9,26.7,29.50,North,1,4.1,4.6,30,-99.99,,,0.00,0,rob ver 1B,2013-03-11 08:40:00,
2013-03-11 01:41:00,57.7,26.7,29.50,North,1,4.0,4.5,30,-99.99,,,0.00,0,rob ver 1B,2013-03-11 08:41:00,
2013-03-11 01:42:00,57.0,22.5,29.62,NNW,332,5.6,6.8,26,-99.99,,,0.00,0,rob ver 1A,2013-03-11 08:42:00,
2013-03-11 01:43:00,57.5,26.7,29.50,North,5,4.8,5.0,30,-99.99,,,0.00,0,rob ver 1B,2013-03-11 08:43:00,
2013-03-11 01:44:00,57.5,26.7,29.50,North,6,4.5,4.7,30,-99.99,,,0.00,0,rob ver 1B,2013-03-11 08:44:00,
2013-03-11 01:45:00,57.5,26.7,29.50,North,5,4.1,4.4,30,-99.99,,,0.00,0,rob ver 1B,2013-03-11 08:45:00,
2013-03-11 01:46:00,57.5,26.8,29.50,North,9,4.2,4.6,30,-99.99,,,0.00,0,rob ver 1B,2013-03-11 08:46:00,
2013-03-11 01:47:00,56.7,22.5,29.62,NW,323,4.6,5.6,26,-99.99,,,0.00,0,rob ver 1A,2013-03-11 08:47:00,
2013-03-11 01:48:00,57.1,26.5,29.50,NNE,25,3.6,4.1,30,-99.99,,,0.00,0,rob ver 1B,2013-03-11 08:48:00,
2013-03-11 01:49:00,56.8,26.6,29.50,NNE,22,4.3,5.0,31,-99.99,,,0.00,0,rob ver 1B,2013-03-11 08:49:00,
2013-03-11 01:50:00,56.8,26.6,29.50,NNE,27,4.5,5.0,31,-99.99,,,0.00,0,rob ver 1B,2013-03-11 08:50:00,
2013-03-11 01:51:00,56.8,26.6,29.50,NE,45,3.7,4.3,31,-99.99,,,0.00,0,rob ver 1B,2013-03-11 08:51:00,
2013-03-11 01:52:00,56.5,23.1,29.62,SW,224,1.2,1.6,27,-99.99,,,0.00,0,rob ver 1A,2013-03-11 08:52:00,
2013-03-11 01:53:00,57.2,26.5,29.50,NNE,32,4.7,5.0,30,-99.99,,,0.00,0,rob ver 1B,2013-03-11 08:53:00,
2013-03-11 01:54:00,57.4,26.6,29.50,NE,36,4.7,5.2,30,-99.99,,,0.00,0,rob ver 1B,2013-03-11 08:54:00,
2013-03-11 01:55:00,57.5,26.6,29.50,NE,36,4.2,4.5,30,-99.99,,,0.00,0,rob ver 1B,2013-03-11 08:55:00,
2013-03-11 01:56:00,57.4,26.6,29.50,NE,37,4.0,4.3,30,-99.99,,,0.00,0,rob ver 1B,2013-03-11 08:56:00,
2013-03-11 01:57:00,54.7,22.5,29.62,WNW,286,2.7,3.5,28,-99.99,,,0.00,0,rob ver 1A,2013-03-11 08:57:00,
2013-03-11 01:58:00,57.3,26.6,29.50,NNE,20,3.5,4.1,30,-99.99,,,0.00,0,rob ver 1B,2013-03-11 08:58:00,
2013-03-11 01:59:00,57.2,26.5,29.50,North,9,2.6,3.1,30,-99.99,,,0.00,0,rob ver 1B,2013-03-11 08:59:00,
2013-03-11 02:00:00,57.1,26.5,29.50,North,6,3.4,4.3,30,-99.99,,,0.00,0,rob ver 1B,2013-03-11 09:00:00,
2013-03-11 02:01:00,56.9,26.5,29.50,North,7,4.2,4.5,30,-99.99,,,0.00,0,rob ver 1B,2013-03-11 09:01:00,
2013-03-11 02:02:00,56.9,26.5,29.50,North,8,4.8,5.1,30,-99.99,,,0.00,0,rob ver 1B,2013-03-11 09:02:00,
2013-03-11 02:03:00,55.2,22.7,29.62,SW,226,1.8,2.3,28,-99.99,,,0.00,0,rob ver 1A,2013-03-11 09:03:00,
2013-03-11 02:04:00,57.2,26.6,29.50,North,10,5.1,5.8,30,-99.99,,,0.00,0,rob ver 1B,2013-03-11 09:04:00,
2013-03-11 02:05:00,57.2,26.7,29.50,North,9,5.5,5.9,30,-99.99,,,0.00,0,rob ver 1B,2013-03-11 09:05:00,
2013-03-11 02:06:00,57.1,26.7,29.50,North,6,5.6,5.8,30,-99.99,,,0.00,0,rob ver 1B,2013-03-11 09:06:00,
2013-03-11 02:07:00,57.1,26.7,29.50,North,6,5.3,5.8,30,-99.99,,,0.00,0,rob ver 1B,2013-03-11 09:07:00,
2013-03-11 02:08:00,55.1,22.3,29.62,SW,226,2.3,2.9,27,-99.99,,,0.00,0,rob ver 1A,2013-03-11 09:08:00,
2013-03-11 02:09:00,57.1,26.6,29.50,North,3,5.1,5.5,30,-99.99,,,0.00,0,rob ver 1B,2013-03-11 09:09:00,
2013-03-11 02:10:00,57.1,26.6,29.50,North,359,4.7,5.0,30,-99.99,,,0.00,0,rob ver 1B,2013-03-11 09:10:00,
2013-03-11 02:11:00,57.1,26.6,29.50,North,359,4.8,5.1,30,-99.99,,,0.00,0,rob ver 1B,2013-03-11 09:11:00,
2013-03-11 02:12:00,57.2,26.6,29.50,North,358,4.7,5.0,30,-99.99,,,0.00,0,rob ver 1B,2013-03-11 09:12:00,
2013-03-11 02:13:00,56.3,22.0,29.62,WNW,299,3.2,4.0,26,-99.99,,,0.00,0,rob ver 1A,2013-03-11 09:13:00,
2013-03-11 02:14:00,57.2,26.6,29.50,North,354,4.5,4.7,30,-99.99,,,0.00,0,rob ver 1B,2013-03-11 09:14:00,
2013-03-11 02:15:00,57.2,26.6,29.50,North,351,4.6,4.7,30,-99.99,,,0.00,0,rob ver 1B,2013-03-11 09:15:00,
2013-03-11 02:16:00,57.1,26.7,29.50,NNW,344,4.2,4.5,30,-99.99,,,0.00,0,rob ver 1B,2013-03-11 09:16:00,
2013-03-11 02:17:00,57.1,26.5,29.50,NNW,339,4.3,4.7,30,-99.99,,,0.00,0,rob ver 1B,2013-03-11 09:17:00,
2013-03-11 02:18:00,56.6,21.8,29.62,WNW,297,3.7,4.1,25,-99.99,,,0.00,0,rob ver 1A,2013-03-11 09:18:00,
2013-03-11 02:19:00,57.3,26.1,29.50,NNW,329,4.8,5.3,29,-99.99,,,0.00,0,rob ver 1B,2013-03-11 09:19:00,
2013-03-11 02:20:00,57.7,25.9,29.50,NNW,329,5.0,5.8,29,-99.99,,,0.00,0,rob ver 1B,2013-03-11 09:20:00,
2013-03-11 02:21:00,58.2,25.9,29.50,NNW,329,5.0,5.5,28,-99.99,,,0.00,0,rob ver 1B,2013-03-11 09:21:00,
2013-03-11 02:22:00,58.6,25.9,29.50,NNW,328,4.9,5.7,28,-99.99,,,0.00,0,rob ver 1B,2013-03-11 09:22:00,
2013-03-11 02:23:00,56.5,21.8,29.62,NW,317,3.2,3.5,26,-99.99,,,0.00,0,rob ver 1A,2013-03-11 09:23:00,
2013-03-11 02:24:00,58.9,25.8,29.50,NNW,327,4.7,5.3,27,-99.99,,,0.00,0,rob ver 1B,2013-03-11 09:24:00,
2013-03-11 02:25:00,59.0,25.8,29.50,NNW,329,4.5,5.1,27,-99.99,,,0.00,0,rob ver 1B,2013-03-11 09:25:00,
2013-03-11 02:26:00,59.2,25.8,29.50,NNW,328,4.7,5.3,27,-99.99,,,0.00,0,rob ver 1B,2013-03-11 09:26:00,
2013-03-11 02:27:00,59.3,25.8,29.50,NNW,328,4.6,5.3,27,-99.99,,,0.00,0,rob ver 1B,2013-03-11 09:27:00,
2013-03-11 02:28:00,56.1,21.6,29.62,NW,325,3.6,4.3,26,-99.99,,,0.00,0,rob ver 1A,2013-03-11 09:28:00,
2013-03-11 02:29:00,59.3,25.8,29.50,NNW,335,4.6,5.2,27,-99.99,,,0.00,0,rob ver 1B,2013-03-11 09:29:00,
2013-03-11 02:30:00,59.2,25.8,29.50,NNW,334,5.0,5.3,27,-99.99,,,0.00,0,rob ver 1B,2013-03-11 09:30:00,
2013-03-11 02:31:00,59.2,25.8,29.50,NNW,334,4.8,5.2,27,-99.99,,,0.00,0,rob ver 1B,2013-03-11 09:31:00,
2013-03-11 02:32:00,59.1,25.8,29.50,NNW,337,4.3,4.8,27,-99.99,,,0.00,0,rob ver 1B,2013-03-11 09:32:00,
2013-03-11 02:33:00,55.0,22.4,29.62,SW,226,2.4,3.1,27,-99.99,,,0.00,0,rob ver 1A,2013-03-11 09:33:00,
2013-03-11 02:34:00,59.1,25.9,29.50,NNW,340,3.9,4.4,27,-99.99,,,0.00,0,rob ver 1B,2013-03-11 09:34:00,
2013-03-11 02:35:00,59.0,25.9,29.50,NNW,341,4.1,4.6,28,-99.99,,,0.00,0,rob ver 1B,2013-03-11 09:35:00,
2013-03-11 02:36:00,58.9,25.9,29.50,NNW,343,4.2,4.5,28,-99.99,,,0.00,0,rob ver 1B,2013-03-11 09:36:00,
2013-03-11 02:37:00,58.6,25.9,29.50,NNW,347,4.0,4.4,28,-99.99,,,0.00,0,rob ver 1B,2013-03-11 09:37:00,
2013-03-11 02:38:00,53.9,22.6,29.62,West,268,3.9,4.2,29,-99.99,,,0.00,0,rob ver 1A,2013-03-11 09:38:00,
2013-03-11 02:39:00,58.2,26.0,29.50,NNW,345,4.7,5.2,28,-99.99,,,0.00,0,rob ver 1B,2013-03-11 09:39:00,
2013-03-11 02:40:00,58.1,26.0,29.50,NNW,345,5.5,6.0,28,-99.99,,,0.00,0,rob ver 1B,2013-03-11 09:40:00,
2013-03-11 02:41:00,58.2,26.0,29.50,NNW,341,5.4,5.9,28,-99.99,,,0.00,0,rob ver 1B,2013-03-11 09:41:00,
2013-03-11 02:42:00,58.2,25.9,29.50,NNW,338,4.9,5.4,28,-99.99,,,0.00,0,rob ver 1B,2013-03-11 09:42:00,
2013-03-11 02:43:00,54.3,22.1,29.62,NW,309,4.4,4.7,28,-99.99,,,0.00,0,rob ver 1A,2013-03-11 09:43:00,
2013-03-11 02:44:00,58.5,25.9,29.50,NW,325,5.5,6.3,28,-99.99,,,0.00,0,rob ver 1B,2013-03-11 09:44:00,
2013-03-11 02:45:00,59.0,26.0,29.50,NW,322,4.6,5.8,27,-99.99,,,0.00,0,rob ver 1B,2013-03-11 09:45:00,
2013-03-11 02:46:00,59.3,26.0,29.50,NW,320,5.0,5.5,27,-99.99,,,0.00,0,rob ver 1B,2013-03-11 09:46:00,
2013-03-11 02:47:00,59.4,26.0,29.50,NW,317,5.2,5.5,27,-99.99,,,0.00,0,rob ver 1B,2013-03-11 09:47:00,
2013-03-11 02:48:00,54.1,22.7,29.62,SW,228,1.1,1.9,29,-99.99,,,0.00,0,rob ver 1A,2013-03-11 09:48:00,
2013-03-11 02:49:00,59.1,26.1,29.50,NW,315,4.7,5.2,28,-99.99,,,0.00,0,rob ver 1B,2013-03-11 09:49:00,
2013-03-11 02:50:00,59.0,26.1,29.50,NW,313,4.4,4.7,28,-99.99,,,0.00,0,rob ver 1B,2013-03-11 09:50:00,
2013-03-11 02:51:00,58.8,26.2,29.50,NW,314,4.3,4.6,28,-99.99,,,0.00,0,rob ver 1B,2013-03-11 09:51:00,
2013-03-11 02:52:00,58.7,26.1,29.50,NW,316,3.9,4.2,28,-99.99,,,0.00,0,rob ver 1B,2013-03-11 09:52:00,
2013-03-11 02:53:00,53.0,23.0,29.62,South,188,2.1,2.5,31,-99.99,,,0.00,0,rob ver 1A,2013-03-11 09:53:00,
2013-03-11 02:54:00,58.5,26.1,29.50,NW,309,3.2,3.4,28,-99.99,,,0.00,0,rob ver 1B,2013-03-11 09:54:00,
2013-03-11 02:55:00,58.4,26.1,29.50,WNW,298,2.6,3.0,28,-99.99,,,0.00,0,rob ver 1B,2013-03-11 09:55:00,
2013-03-11 02:56:00,58.2,26.0,29.50,WNW,291,1.7,2.6,28,-99.99,,,0.00,0,rob ver 1B,2013-03-11 09:56:00,
2013-03-11 02:57:00,57.6,25.8,29.50,WSW,252,1.8,2.5,29,-99.99,,,0.00,0,rob ver 1B,2013-03-11 09:57:00,
2013-03-11 02:58:00,51.7,23.4,29.59,South,171,2.1,2.9,32,-99.99,,,0.00,0,rob ver 1A,2013-03-11 09:58:00,
2013-03-11 02:59:00,56.2,25.7,29.50,West,259,2.1,2.7,30,-99.99,,,0.00,0,rob ver 1B,2013-03-11 09:59:00,
2013-03-11 03:00:00,56.0,25.8,29.50,West,270,2.1,2.6,31,-99.99,,,0.00,0,rob ver 1B,2013-03-11 10:00:00,
2013-03-11 03:01:00,56.0,25.9,29.50,West,275,2.1,2.4,31,-99.99,,,0.00,0,rob ver 1B,2013-03-11 10:01:00,
2013-03-11 03:02:00,55.9,25.9,29.50,West,271,1.9,2.1,31,-99.99,,,0.00,0,rob ver 1B,2013-03-11 10:02:00,
2013-03-11 03:03:00,52.7,23.5,29.59,SSE,149,4.1,4.7,31,-99.99,,,0.00,0,rob ver 1A,2013-03-11 10:03:00,
2013-03-11 03:04:00,55.4,25.7,29.50,West,262,2.2,2.3,31,-99.99,,,0.00,0,rob ver 1B,2013-03-11 10:04:00,
2013-03-11 03:05:00,55.1,25.7,29.50,West,263,2.2,2.4,31,-99.99,,,0.00,0,rob ver 1B,2013-03-11 10:05:00,
2013-03-11 03:06:00,54.9,25.6,29.50,West,260,1.7,2.0,32,-99.99,,,0.00,0,rob ver 1B,2013-03-11 10:06:00,
2013-03-11 03:07:00,54.4,25.5,29.50,SW,229,1.1,1.4,32,-99.99,,,0.00,0,rob ver 1B,2013-03-11 10:07:00,
2013-03-11 03:08:00,52.5,24.0,29.59,SSE,154,5.6,9.1,33,-99.99,,,0.00,0,rob ver 1A,2013-03-11 10:08:00,
2013-03-11 03:09:00,53.6,25.5,29.50,SE,124,1.8,2.5,33,-99.99,,,0.00,0,rob ver 1B,2013-03-11 10:09:00,
2013-03-11 03:10:00,53.2,25.6,29.50,SE,132,2.5,3.2,34,-99.99,,,0.00,0,rob ver 1B,2013-03-11 10:10:00,
2013-03-11 03:11:00,53.1,25.7,29.50,SE,145,1.4,2.1,34,-99.99,,,0.00,0,rob ver 1B,2013-03-11 10:11:00,
2013-03-11 03:12:00,53.2,25.8,29.50,SE,132,1.4,1.8,34,-99.99,,,0.00,0,rob ver 1B,2013-03-11 10:12:00,
2013-03-11 03:13:00,53.7,22.6,29.59,West,280,1.9,3.2,29,-99.99,,,0.00,0,rob ver 1A,2013-03-11 10:13:00,
2013-03-11 03:14:00,53.5,25.9,29.50,SE,139,0.7,0.9,33,-99.99,,,0.00,0,rob ver 1B,2013-03-11 10:14:00,
2013-03-11 03:15:00,53.5,25.9,29.50,South,169,0.7,0.9,34,-99.99,,,0.00,0,rob ver 1B,2013-03-11 10:15:00,
2013-03-11 03:16:00,53.5,25.9,29.50,South,172,0.6,0.9,34,-99.99,,,0.00,0,rob ver 1B,2013-03-11 10:16:00,
2013-03-11 03:17:00,53.4,25.9,29.50,SSE,159,0.7,1.0,34,-99.99,,,0.00,0,rob ver 1B,2013-03-11 10:17:00,
2013-03-11 03:18:00,53.4,25.9,29.50,SE,127,0.6,0.7,34,-99.99,,,0.00,0,rob ver 1B,2013-03-11 10:18:00,
2013-03-11 03:19:00,54.4,22.9,29.59,SSW,207,2.8,3.4,29,-99.99,,,0.00,0,rob ver 1A,2013-03-11 10:19:00,
2013-03-11 03:20:00,53.3,25.9,29.47,South,183,0.8,1.0,34,-99.99,,,0.00,0,rob ver 1B,2013-03-11 10:20:00,
2013-03-11 03:21:00,53.3,25.9,29.47,South,190,0.9,1.1,34,-99.99,,,0.00,0,rob ver 1B,2013-03-11 10:21:00,
2013-03-11 03:22:00,53.3,25.9,29.47,South,187,0.8,0.9,34,-99.99,,,0.00,0,rob ver 1B,2013-03-11 10:22:00,
2013-03-11 03:23:00,53.2,26.0,29.47,South,176,0.8,0.9,34,-99.99,,,0.00,0,rob ver 1B,2013-03-11 10:23:00,
2013-03-11 03:24:00,52.6,24.1,29.62,ESE,119,3.9,4.3,32,-99.99,,,0.00,0,rob ver 1A,2013-03-11 10:24:00,
2013-03-11 03:25:00,53.3,26.0,29.47,SSE,147,0.6,0.7,34,-99.99,,,0.00,0,rob ver 1B,2013-03-11 10:25:00,
2013-03-11 03:26:00,53.3,26.1,29.47,ESE,115,0.6,0.7,34,-99.99,,,0.00,0,rob ver 1B,2013-03-11 10:26:00,
2013-03-11 03:27:00,53.4,26.1,29.47,East,87,0.6,0.8,34,-99.99,,,0.00,0,rob ver 1B,2013-03-11 10:27:00,
2013-03-11 03:28:00,53.6,26.1,29.47,ENE,74,0.8,0.9,34,-99.99,,,0.00,0,rob ver 1B,2013-03-11 10:28:00,
2013-03-11 03:29:00,51.4,24.1,29.59,ENE,72,1.7,2.4,34,-99.99,,,0.00,0,rob ver 1A,2013-03-11 10:29:00,
2013-03-11 03:30:00,53.8,26.1,29.47,ESE,102,1.1,1.3,33,-99.99,,,0.00,0,rob ver 1B,2013-03-11 10:30:00,
2013-03-11 03:31:00,53.7,26.0,29.47,ESE,108,1.0,1.2,33,-99.99,,,0.00,0,rob ver 1B,2013-03-11 10:31:00,
2013-03-11 03:32:00,53.6,26.0,29.47,ESE,103,1.1,1.3,34,-99.99,,,0.00,0,rob ver 1B,2013-03-11 10:32:00,
2013-03-11 03:33:00,53.5,26.0,29.47,ESE,104,1.1,1.3,34,-99.99,,,0.00,0,rob ver 1B,2013-03-11 10:33:00,
2013-03-11 03:34:00,52.1,23.8,29.59,NW,321,0.9,1.3,33,-99.99,,,0.00,0,rob ver 1A,2013-03-11 10:34:00,
2013-03-11 03:35:00,53.6,26.0,29.47,East,82,1.6,1.7,34,-99.99,,,0.00,0,rob ver 1B,2013-03-11 10:35:00,
2013-03-11 03:36:00,53.7,26.0,29.47,NE,56,1.4,1.7,33,-99.99,,,0.00,0,rob ver 1B,2013-03-11 10:36:00,
2013-03-11 03:37:00,54.1,26.1,29.47,ENE,64,1.7,2.0,33,-99.99,,,0.00,0,rob ver 1B,2013-03-11 10:37:00,
2013-03-11 03:38:00,54.4,26.1,29.47,ENE,72,2.1,2.4,33,-99.99,,,0.00,0,rob ver 1B,2013-03-11 10:38:00,
2013-03-11 03:39:00,51.6,23.4,29.59,ESE,107,0.8,1.0,32,-99.99,,,0.00,0,rob ver 1A,2013-03-11 10:39:00,
2013-03-11 03:40:00,55.0,26.2,29.47,East,86,2.9,3.2,32,-99.99,,,0.00,0,rob ver 1B,2013-03-11 10:40:00,
2013-03-11 03:41:00,55.1,26.3,29.47,East,88,3.3,3.4,32,-99.99,,,0.00,0,rob ver 1B,2013-03-11 10:41:00,
2013-03-11 03:42:00,55.0,26.2,29.47,East,84,2.7,3.3,32,-99.99,,,0.00,0,rob ver 1B,2013-03-11 10:42:00,
2013-03-11 03:43:00,54.8,26.3,29.47,East,92,2.9,3.1,33,-99.99,,,0.00,0,rob ver 1B,2013-03-11 10:43:00,
2013-03-11 03:44:00,51.4,24.3,29.59,NNE,32,1.4,1.9,34,-99.99,,,0.00,0,rob ver 1A,2013-03-11 10:44:00,
2013-03-11 03:45:00,54.5,26.4,29.47,ESE,105,3.6,3.7,33,-99.99,,,0.00,0,rob ver 1B,2013-03-11 10:45:00,
2013-03-11 03:46:00,54.4,26.4,29.47,ESE,113,3.4,3.8,33,-99.99,,,0.00,0,rob ver 1B,2013-03-11 10:46:00,
2013-03-11 03:47:00,54.0,26.3,29.47,ESE,123,3.4,3.6,34,-99.99,,,0.00,0,rob ver 1B,2013-03-11 10:47:00,
2013-03-11 03:48:00,53.7,26.3,29.47,ESE,123,3.6,4.0,34,-99.99,,,0.00,0,rob ver 1B,2013-03-11 10:48:00,
2013-03-11 03:49:00,51.3,24.2,29.59,ENE,63,2.1,2.5,34,-99.99,,,0.00,0,rob ver 1A,2013-03-11 10:49:00,
2013-03-11 03:50:00,53.3,26.6,29.47,ESE,105,3.1,3.7,35,-99.99,,,0.00,0,rob ver 1B,2013-03-11 10:50:00,
2013-03-11 03:51:00,53.0,26.9,29.47,ESE,102,2.3,2.7,36,-99.99,,,0.00,0,rob ver 1B,2013-03-11 10:51:00,
2013-03-11 03:52:00,52.9,27.2,29.47,East,92,2.3,2.6,37,-99.99,,,0.00,0,rob ver 1B,2013-03-11 10:52:00,
2013-03-11 03:53:00,52.8,27.4,29.47,East,80,2.1,2.5,37,-99.99,,,0.00,0,rob ver 1B,2013-03-11 10:53:00,
2013-03-11 03:54:00,51.4,24.2,29.59,ENE,60,4.1,4.5,34,-99.99,,,0.00,0,rob ver 1A,2013-03-11 10:54:00,
2013-03-11 03:55:00,52.8,27.4,29.47,ENE,59,3.0,3.4,37,-99.99,,,0.00,0,rob ver 1B,2013-03-11 10:55:00,
2013-03-11 03:56:00,52.9,27.4,29.47,NE,46,3.3,3.8,36,-99.99,,,0.00,0,rob ver 1B,2013-03-11 10:56:00,
2013-03-11 03:57:00,53.0,27.3,29.47,NE,40,3.4,3.7,36,-99.99,,,0.00,0,rob ver 1B,2013-03-11 10:57:00,
2013-03-11 03:58:00,53.1,27.1,29.47,NE,35,3.7,3.9,36,-99.99,,,0.00,0,rob ver 1B,2013-03-11 10:58:00,
2013-03-11 03:59:00,52.2,24.2,29.59,ENE,63,2.1,2.8,33,-99.99,,,0.00,0,rob ver 1A,2013-03-11 10:59:00,
2013-03-11 04:00:00,53.2,26.7,29.47,NNE,17,3.8,4.0,35,-99.99,,,0.00,0,rob ver 1B,2013-03-11 11:00:00,
2013-03-11 04:01:00,53.5,26.4,29.47,NNE,12,3.5,3.7,34,-99.99,,,0.00,0,rob ver 1B,2013-03-11 11:01:00,
2013-03-11 04:02:00,54.2,26.6,29.47,North,11,3.5,3.9,34,-99.99,,,0.00,0,rob ver 1B,2013-03-11 11:02:00,
2013-03-11 04:03:00,54.4,26.6,29.47,North,4,3.6,3.8,33,-99.99,,,0.00,0,rob ver 1B,2013-03-11 11:03:00,
2013-03-11 04:04:00,51.7,23.8,29.59,NNE,27,3.7,4.2,33,-99.99,,,0.00,0,rob ver 1A,2013-03-11 11:04:00,
2013-03-11 04:05:00,54.6,26.6,29.47,North,1,3.8,4.2,33,-99.99,,,0.00,0,rob ver 1B,2013-03-11 11:05:00,
2013-03-11 04:06:00,54.6,26.7,29.47,North,355,3.5,4.0,33,-99.99,,,0.00,0,rob ver 1B,2013-03-11 11:06:00,
2013-03-11 04:07:00,54.5,26.6,29.47,North,354,3.4,3.7,33,-99.99,,,0.00,0,rob ver 1B,2013-03-11 11:07:00,
2013-03-11 04:08:00,54.3,26.6,29.47,NNW,342,3.1,3.4,34,-99.99,,,0.00,0,rob ver 1B,2013-03-11 11:08:00,
2013-03-11 04:09:00,54.1,26.4,29.47,NNW,335,2.9,3.5,33,-99.99,,,0.00,0,rob ver 1B,2013-03-11 11:09:00,
2013-03-11 04:10:00,52.4,24.2,29.59,North,351,2.0,2.3,33,-99.99,,,0.00,0,rob ver 1A,2013-03-11 11:10:00,
2013-03-11 04:11:00,53.9,26.3,29.47,NW,326,2.3,2.8,34,-99.99,,,0.00,0,rob ver 1B,2013-03-11 11:11:00,
2013-03-11 04:12:00,53.7,26.2,29.47,NW,323,2.1,2.6,34,-99.99,,,0.00,0,rob ver 1B,2013-03-11 11:12:00,
2013-03-11 04:13:00,53.7,26.2,29.47,NW,309,1.6,2.1,34,-99.99,,,0.00,0,rob ver 1B,2013-03-11 11:13:00,
2013-03-11 04:14:00,53.5,26.1,29.47,WNW,292,1.2,1.5,34,-99.99,,,0.00,0,rob ver 1B,2013-03-11 11:14:00,
2013-03-11 04:15:00,51.7,24.0,29.59,North,350,1.3,1.6,33,-99.99,,,0.00,0,rob ver 1A,2013-03-11 11:15:00,
2013-03-11 04:16:00,53.0,26.3,29.47,West,266,1.8,1.9,35,-99.99,,,0.00,0,rob ver 1B,2013-03-11 11:16:00,
2013-03-11 04:17:00,52.7,26.4,29.47,WSW,254,1.9,2.0,36,-99.99,,,0.00,0,rob ver 1B,2013-03-11 11:17:00,
2013-03-11 04:18:00,52.5,26.5,29.47,West,261,1.8,2.0,36,-99.99,,,0.00,0,rob ver 1B,2013-03-11 11:18:00,
2013-03-11 04:19:00,52.5,26.6,29.47,WSW,256,2.1,2.2,36,-99.99,,,0.00,0,rob ver 1B,2013-03-11 11:19:00,
2013-03-11 04:20:00,52.5,23.2,29.59,WNW,292,3.5,4.3,31,-99.99,,,0.00,0,rob ver 1A,2013-03-11 11:20:00,
2013-03-11 04:21:00,52.8,26.5,29.47,WSW,254,2.6,2.8,35,-99.99,,,0.00,0,rob ver 1B,2013-03-11 11:21:00,
2013-03-11 04:22:00,53.0,26.4,29.47,WSW,255,2.9,3.2,35,-99.99,,,0.00,0,rob ver 1B,2013-03-11 11:22:00,
2013-03-11 04:23:00,53.2,26.3,29.47,WSW,258,3.6,4.1,34,-99.99,,,0.00,0,rob ver 1B,2013-03-11 11:23:00,
2013-03-11 04:24:00,53.4,26.1,29.47,West,260,3.8,4.1,34,-99.99,,,0.00,0,rob ver 1B,2013-03-11 11:24:00,
2013-03-11 04:25:00,52.9,22.9,29.59,NW,316,4.3,4.6,30,-99.99,,,0.00,0,rob ver 1A,2013-03-11 11:25:00,
2013-03-11 04:26:00,53.4,26.0,29.47,WSW,255,4.0,4.3,34,-99.99,,,0.00,0,rob ver 1B,2013-03-11 11:26:00,
2013-03-11 04:27:00,53.0,26.3,29.47,West,260,3.8,4.0,35,-99.99,,,0.00,0,rob ver 1B,2013-03-11 11:27:00,
2013-03-11 04:28:00,52.6,26.4,29.47,West,260,3.7,3.9,36,-99.99,,,0.00,0,rob ver 1B,2013-03-11 11:28:00,
2013-03-11 04:29:00,52.3,26.5,29.47,WSW,252,3.8,4.2,36,-99.99,,,0.00,0,rob ver 1B,2013-03-11 11:29:00,
2013-03-11 04:30:00,52.3,23.0,29.59,West,276,4.1,4.2,31,-99.99,,,0.00,0,rob ver 1A,2013-03-11 11:30:00,
2013-03-11 04:31:00,51.9,26.6,29.47,West,265,3.4,3.7,37,-99.99,,,0.00,0,rob ver 1B,2013-03-11 11:31:00,
2013-03-11 04:32:00,51.8,26.5,29.47,West,265,3.2,3.6,37,-99.99,,,0.00,0,rob ver 1B,2013-03-11 11:32:00,
2013-03-11 04:33:00,51.7,26.5,29.47,West,272,3.3,3.6,37,-99.99,,,0.00,0,rob ver 1B,2013-03-11 11:33:00,
2013-03-11 04:34:00,51.7,26.5,29.47,West,275,3.1,3.5,37,-99.99,,,0.00,0,rob ver 1B,2013-03-11 11:34:00,
2013-03-11 04:35:00,51.6,23.0,29.59,WNW,293,4.2,4.6,32,-99.99,,,0.00,0,rob ver 1A,2013-03-11 11:35:00,
2013-03-11 04:36:00,51.6,26.5,29.47,WNW,283,2.6,2.7,37,-99.99,,,0.00,0,rob ver 1B,2013-03-11 11:36:00,
2013-03-11 04:37:00,51.6,26.5,29.47,WNW,288,2.3,2.5,37,-99.99,,,0.00,0,rob ver 1B,2013-03-11 11:37:00,
2013-03-11 04:38:00,51.6,26.4,29.47,WNW,285,2.6,2.9,37,-99.99,,,0.00,0,rob ver 1B,2013-03-11 11:38:00,
2013-03-11 04:39:00,51.7,26.5,29.47,WNW,284,2.8,3.1,37,-99.99,,,0.00,0,rob ver 1B,2013-03-11 11:39:00,
2013-03-11 04:40:00,51.0,23.0,29.59,NNW,327,3.4,3.8,33,-99.99,,,0.00,0,rob ver 1A,2013-03-11 11:40:00,
2013-03-11 04:41:00,52.2,26.3,29.47,WNW,287,2.5,2.7,36,-99.99,,,0.00,0,rob ver 1B,2013-03-11 11:41:00,
2013-03-11 04:42:00,52.3,26.2,29.47,WNW,289,2.4,2.6,36,-99.99,,,0.00,0,rob ver 1B,2013-03-11 11:42:00,
2013-03-11 04:43:00,52.4,26.2,29.47,WNW,292,2.2,2.4,35,-99.99,,,0.00,0,rob ver 1B,2013-03-11 11:43:00,
2013-03-11 04:44:00,52.4,26.2,29.47,WNW,300,2.1,2.3,35,-99.99,,,0.00,0,rob ver 1B,2013-03-11 11:44:00,
2013-03-11 04:45:00,50.6,22.9,29.59,West,272,1.8,2.2,33,-99.99,,,0.00,0,rob ver 1A,2013-03-11 11:45:00,
2013-03-11 04:46:00,52.5,26.1,29.47,NW,306,2.2,2.4,35,-99.99,,,0.00,0,rob ver 1B,2013-03-11 11:46:00,
2013-03-11 04:47:00,52.4,26.1,29.47,NW,312,2.4,2.6,35,-99.99,,,0.00,0,rob ver 1B,2013-03-11 11:47:00,
2013-03-11 04:48:00,52.5,26.1,29.47,NW,313,2.6,3.0,35,-99.99,,,0.00,0,rob ver 1B,2013-03-11 11:48:00,
2013-03-11 04:49:00,52.4,26.2,29.47,NW,312,2.8,3.0,35,-99.99,,,0.00,0,rob ver 1B,2013-03-11 11:49:00,
2013-03-11 04:50:00,49.0,24.5,29.59,SSE,151,5.3,5.8,38,-99.99,,,0.00,0,rob ver 1A,2013-03-11 11:50:00,
2013-03-11 04:51:00,52.4,26.3,29.47,NW,317,2.9,3.2,36,-99.99,,,0.00,0,rob ver 1B,2013-03-11 11:51:00,
2013-03-11 04:52:00,52.3,26.2,29.47,NW,326,2.8,3.3,35,-99.99,,,0.00,0,rob ver 1B,2013-03-11 11:52:00,
2013-03-11 04:53:00,52.3,26.1,29.47,NNW,329,2.7,3.2,35,-99.99,,,0.00,0,rob ver 1B,2013-03-11 11:53:00,
2013-03-11 04:54:00,52.3,26.2,29.47,NNW,332,3.0,3.3,36,-99.99,,,0.00,0,rob ver 1B,2013-03-11 11:54:00,
2013-03-11 04:55:00,49.5,24.4,29.59,ESE,117,3.1,3.7,36,-99.99,,,0.00,0,rob ver 1A,2013-03-11 11:55:00,
2013-03-11 04:56:00,52.3,26.2,29.47,NNW,336,2.9,3.1,36,-99.99,,,0.00,0,rob ver 1B,2013-03-11 11:56:00,
2013-03-11 04:57:00,52.4,26.2,29.47,NNW,337,2.9,3.0,35,-99.99,,,0.00,0,rob ver 1B,2013-03-11 11:57:00,
2013-03-11 04:58:00,52.5,26.1,29.47,NNW,343,2.8,3.0,35,-99.99,,,0.00,0,rob ver 1B,2013-03-11 11:58:00,
2013-03-11 04:59:00,52.6,25.9,29.47,North,349,3.0,3.1,34,-99.99,,,0.00,0,rob ver 1B,2013-03-11 11:59:00,
2013-03-11 05:00:00,50.4,23.6,29.59,SE,130,1.5,1.9,34,-99.99,,,0.00,0,rob ver 1A,2013-03-11 12:00:00,
2013-03-11 05:01:00,52.9,25.7,29.47,North,351,2.7,2.9,34,-99.99,,,0.00,0,rob ver 1B,2013-03-11 12:01:00,
2013-03-11 05:02:00,53.1,25.8,29.47,North,353,2.5,2.8,34,-99.99,,,0.00,0,rob ver 1B,2013-03-11 12:02:00,
2013-03-11 05:03:00,53.2,25.8,29.47,North,351,2.7,3.0,34,-99.99,,,0.00,0,rob ver 1B,2013-03-11 12:03:00,
2013-03-11 05:04:00,53.3,25.8,29.47,North,352,3.1,3.7,34,-99.99,,,0.00,0,rob ver 1B,2013-03-11 12:04:00,
2013-03-11 05:05:00,50.8,23.9,29.59,SE,129,1.1,1.4,34,-99.99,,,0.00,0,rob ver 1A,2013-03-11 12:05:00,
2013-03-11 05:06:00,53.7,25.7,29.47,North,6,3.8,4.0,33,-99.99,,,0.00,0,rob ver 1B,2013-03-11 12:06:00,
2013-03-11 05:07:00,53.9,25.7,29.47,North,9,3.8,4.1,33,-99.99,,,0.00,0,rob ver 1B,2013-03-11 12:07:00,
2013-03-11 05:08:00,54.2,25.7,29.47,North,8,3.7,3.9,32,-99.99,,,0.00,0,rob ver 1B,2013-03-11 12:08:00,
2013-03-11 05:09:00,54.4,25.7,29.47,North,8,4.0,4.1,32,-99.99,,,0.00,0,rob ver 1B,2013-03-11 12:09:00,
2013-03-11 05:10:00,54.7,25.7,29.47,North,7,3.6,3.9,32,-99.99,,,0.00,0,rob ver 1B,2013-03-11 12:10:00,
2013-03-11 05:11:00,51.0,23.1,29.59,NNE,18,2.0,2.2,33,-99.99,,,0.00,0,rob ver 1A,2013-03-11 12:11:00,
2013-03-11 05:12:00,55.1,25.7,29.47,North,2,3.1,3.4,31,-99.99,,,0.00,0,rob ver 1B,2013-03-11 12:12:00,
2013-03-11 05:13:00,55.2,25.7,29.47,North,355,2.5,2.6,31,-99.99,,,0.00,0,rob ver 1B,2013-03-11 12:13:00,
2013-03-11 05:14:00,55.2,25.6,29.47,North,351,2.4,2.6,31,-99.99,,,0.00,0,rob ver 1B,2013-03-11 12:14:00,
2013-03-11 05:15:00,55.4,25.7,29.47,North,351,2.2,2.6,31,-99.99,,,0.00,0,rob ver 1B,2013-03-11 12:15:00,
2013-03-11 05:16:00,51.8,23.1,29.59,North,349,3.1,3.3,32,-99.99,,,0.00,0,rob ver 1A,2013-03-11 12:16:00,
2013-03-11 05:17:00,55.6,25.7,29.47,NNW,344,2.0,2.0,31,-99.99,,,0.00,0,rob ver 1B,2013-03-11 12:17:00,
2013-03-11 05:18:00,55.6,25.6,29.47,NNW,346,2.0,2.1,31,-99.99,,,0.00,0,rob ver 1B,2013-03-11 12:18:00,
2013-03-11 05:19:00,55.8,25.6,29.47,NNW,341,2.0,2.1,31,-99.99,,,0.00,0,rob ver 1B,2013-03-11 12:19:00,
2013-03-11 05:20:00,55.9,25.6,29.47,NNW,335,1.9,2.1,30,-99.99,,,0.00,0,rob ver 1B,2013-03-11 12:20:00,
2013-03-11 05:21:00,51.5,23.0,29.59,NW,322,2.6,2.8,32,-99.99,,,0.00,0,rob ver 1A,2013-03-11 12:21:00,
2013-03-11 05:22:00,56.1,25.7,29.47,NW,325,2.1,2.2,30,-99.99,,,0.00,0,rob ver 1B,2013-03-11 12:22:00,
2013-03-11 05:23:00,56.2,25.7,29.50,NW,317,2.2,2.5,30,-99.99,,,0.00,0,rob ver 1B,2013-03-11 12:23:00,
2013-03-11 05:24:00,56.3,25.7,29.50,NW,317,2.3,2.7,30,-99.99,,,0.00,0,rob ver 1B,2013-03-11 12:24:00,
2013-03-11 05:25:00,56.3,25.7,29.50,NW,313,2.6,3.0,30,-99.99,,,0.00,0,rob ver 1B,2013-03-11 12:25:00,
2013-03-11 05:26:00,50.8,23.9,29.59,NW,318,2.4,2.9,34,-99.99,,,0.00,0,rob ver 1A,2013-03-11 12:26:00,
2013-03-11 05:27:00,56.2,25.8,29.50,WNW,286,2.5,3.0,30,-99.99,,,0.00,0,rob ver 1B,2013-03-11 12:27:00,
2013-03-11 05:28:00,55.4,25.6,29.50,WNW,287,2.5,3.2,31,-99.99,,,0.00,0,rob ver 1B,2013-03-11 12:28:00,
2013-03-11 05:29:00,54.6,25.5,29.50,WNW,292,2.4,2.7,32,-99.99,,,0.00,0,rob ver 1B,2013-03-11 12:29:00,
2013-03-11 05:30:00,54.1,25.5,29.47,WNW,286,2.7,3.1,33,-99.99,,,0.00,0,rob ver 1B,2013-03-11 12:30:00,
2013-03-11 05:31:00,51.0,22.5,29.59,NW,314,3.5,3.7,32,-99.99,,,0.00,0,rob ver 1A,2013-03-11 12:31:00,
2013-03-11 05:32:00,53.7,25.6,29.50,WNW,284,3.0,3.3,33,-99.99,,,0.00,0,rob ver 1B,2013-03-11 12:32:00,
2013-03-11 05:33:00,53.7,25.6,29.50,WNW,282,3.2,3.4,33,-99.99,,,0.00,0,rob ver 1B,2013-03-11 12:33:00,
2013-03-11 05:34:00,53.8,25.6,29.47,WNW,286,3.2,3.6,33,-99.99,,,0.00,0,rob ver 1B,2013-03-11 12:34:00,
2013-03-11 05:35:00,53.9,25.8,29.50,WNW,286,3.6,3.8,33,-99.99,,,0.00,0,rob ver 1B,2013-03-11 12:35:00,
2013-03-11 05:36:00,51.8,22.5,29.59,NW,323,2.7,3.2,31,-99.99,,,0.00,0,rob ver 1A,2013-03-11 12:36:00,
2013-03-11 05:37:00,54.2,26.1,29.50,WNW,291,3.6,3.9,33,-99.99,,,0.00,0,rob ver 1B,2013-03-11 12:37:00,
2013-03-11 05:38:00,54.2,26.3,29.47,WNW,290,3.7,3.9,33,-99.99,,,0.00,0,rob ver 1B,2013-03-11 12:38:00,
2013-03-11 05:39:00,54.2,26.1,29.50,WNW,289,3.6,3.8,33,-99.99,,,0.00,0,rob ver 1B,2013-03-11 12:39:00,
2013-03-11 05:40:00,54.2,26.1,29.50,WNW,287,3.3,3.5,33,-99.99,,,0.00,0,rob ver 1B,2013-03-11 12:40:00,
2013-03-11 05:41:00,52.0,22.4,29.59,NW,313,2.2,2.9,31,-99.99,,,0.00,0,rob ver 1A,2013-03-11 12:41:00,
2013-03-11 05:42:00,54.0,26.3,29.47,WNW,290,3.6,3.8,34,-99.99,,,0.00,0,rob ver 1B,2013-03-11 12:42:00,
2013-03-11 05:43:00,54.0,26.3,29.47,WNW,291,3.6,4.0,33,-99.99,,,0.00,0,rob ver 1B,2013-03-11 12:43:00,
2013-03-11 05:44:00,53.9,26.4,29.50,WNW,291,3.9,4.5,34,-99.99,,,0.00,0,rob ver 1B,2013-03-11 12:44:00,
2013-03-11 05:45:00,53.8,26.5,29.50,WNW,294,4.0,4.5,34,-99.99,,,0.00,0,rob ver 1B,2013-03-11 12:45:00,
2013-03-11 05:46:00,52.1,22.4,29.59,WNW,297,2.6,3.0,30,-99.99,,,0.00,0,rob ver 1A,2013-03-11 12:46:00,
2013-03-11 05:47:00,53.7,26.4,29.47,WNW,298,4.3,4.8,35,-99.99,,,0.00,0,rob ver 1B,2013-03-11 12:47:00,
2013-03-11 05:48:00,53.6,26.4,29.47,WNW,300,4.5,4.7,34,-99.99,,,0.00,0,rob ver 1B,2013-03-11 12:48:00,
2013-03-11 05:49:00,53.4,26.6,29.50,WNW,302,4.5,4.8,35,-99.99,,,0.00,0,rob ver 1B,2013-03-11 12:49:00,
2013-03-11 05:50:00,53.2,26.9,29.47,WNW,303,4.7,4.9,36,-99.99,,,0.00,0,rob ver 1B,2013-03-11 12:50:00,
2013-03-11 05:51:00,52.1,22.3,29.59,NNE,17,2.6,3.1,30,-99.99,,,0.00,0,rob ver 1A,2013-03-11 12:51:00,
2013-03-11 05:52:00,52.7,27.3,29.50,NW,307,4.6,4.9,37,-99.99,,,0.00,0,rob ver 1B,2013-03-11 12:52:00,
2013-03-11 05:53:00,52.4,27.5,29.50,NW,309,4.5,4.9,38,-99.99,,,0.00,0,rob ver 1B,2013-03-11 12:53:00,
2013-03-11 05:54:00,52.2,27.7,29.50,NW,311,4.5,4.9,38,-99.99,,,0.00,0,rob ver 1B,2013-03-11 12:54:00,
2013-03-11 05:55:00,52.1,27.9,29.50,NW,311,4.5,4.9,39,-99.99,,,0.00,0,rob ver 1B,2013-03-11 12:55:00,
2013-03-11 05:56:00,52.1,28.0,29.50,NW,310,4.4,4.8,39,-99.99,,,0.00,0,rob ver 1B,2013-03-11 12:56:00,
2013-03-11 05:57:00,51.9,22.5,29.62,NE,43,2.6,3.3,31,-99.99,,,0.00,0,rob ver 1A,2013-03-11 12:57:00,
2013-03-11 05:58:00,52.1,28.1,29.50,NW,309,3.9,4.3,39,-99.99,,,0.00,0,rob ver 1B,2013-03-11 12:58:00,
2013-03-11 05:59:00,52.1,28.1,29.50,NW,313,3.6,3.8,39,-99.99,,,0.00,0,rob ver 1B,2013-03-11 12:59:00,
2013-03-11 06:00:00,52.1,28.2,29.50,NW,319,3.3,3.5,39,-99.99,,,0.00,0,rob ver 1B,2013-03-11 13:00:00,
2013-03-11 06:01:00,52.2,28.3,29.50,NW,326,2.8,3.2,39,-99.99,,,0.00,0,rob ver 1B,2013-03-11 13:01:00,
2013-03-11 06:02:00,52.7,22.5,29.62,NNE,25,2.2,2.8,30,-99.99,,,0.00,0,rob ver 1A,2013-03-11 13:02:00,
2013-03-11 06:03:00,52.3,28.3,29.50,NNW,338,2.0,2.3,39,-99.99,,,0.00,0,rob ver 1B,2013-03-11 13:03:00,
2013-03-11 06:04:00,52.3,28.3,29.50,NNW,337,1.8,2.2,39,-99.99,,,0.00,0,rob ver 1B,2013-03-11 13:04:00,
2013-03-11 06:05:00,52.3,28.3,29.50,NNW,336,1.8,2.0,39,-99.99,,,0.00,0,rob ver 1B,2013-03-11 13:05:00,
2013-03-11 06:06:00,52.3,28.3,29.50,NNW,343,1.8,2.1,39,-99.99,,,0.00,0,rob ver 1B,2013-03-11 13:06:00,
2013-03-11 06:07:00,51.2,22.7,29.62,ESE,114,1.8,2.4,32,-99.99,,,0.00,0,rob ver 1A,2013-03-11 13:07:00,
2013-03-11 06:08:00,52.5,28.4,29.50,North,353,1.8,1.9,39,-99.99,,,0.00,0,rob ver 1B,2013-03-11 13:08:00,
2013-03-11 06:09:00,52.6,28.4,29.50,North,351,1.6,1.9,39,-99.99,,,0.00,0,rob ver 1B,2013-03-11 13:09:00,
2013-03-11 06:10:00,52.7,28.4,29.50,NNW,333,1.1,1.5,38,-99.99,,,0.00,0,rob ver 1B,2013-03-11 13:10:00,
2013-03-11 06:11:00,52.8,28.4,29.50,NW,304,0.6,1.1,38,-99.99,,,0.00,0,rob ver 1B,2013-03-11 13:11:00,
2013-03-11 06:12:00,50.7,23.0,29.62,East,92,2.2,2.6,33,-99.99,,,0.00,0,rob ver 1A,2013-03-11 13:12:00,
2013-03-11 06:13:00,52.8,28.4,29.50,SSE,166,0.6,0.9,38,-99.99,,,0.00,0,rob ver 1B,2013-03-11 13:13:00,
2013-03-11 06:14:00,52.8,28.2,29.50,SE,144,1.4,2.2,38,-99.99,,,0.00,0,rob ver 1B,2013-03-11 13:14:00,
2013-03-11 06:15:00,52.3,27.7,29.50,SE,142,4.1,5.2,38,-99.99,,,0.00,0,rob ver 1B,2013-03-11 13:15:00,
2013-03-11 06:16:00,51.4,27.4,29.50,SE,137,5.1,5.4,39,-99.99,,,0.00,0,rob ver 1B,2013-03-11 13:16:00,
2013-03-11 06:17:00,49.9,23.1,29.62,ENE,58,1.0,1.3,34,-99.99,,,0.00,0,rob ver 1A,2013-03-11 13:17:00,
2013-03-11 06:18:00,50.3,27.8,29.50,ESE,119,4.6,5.4,41,-99.99,,,0.00,0,rob ver 1B,2013-03-11 13:18:00,
2013-03-11 06:19:00,50.3,27.9,29.50,ESE,113,4.2,4.7,41,-99.99,,,0.00,0,rob ver 1B,2013-03-11 13:19:00,
2013-03-11 06:20:00,50.3,27.9,29.50,ESE,116,3.8,4.4,41,-99.99,,,0.00,0,rob ver 1B,2013-03-11 13:20:00,
2013-03-11 06:21:00,50.1,27.9,29.50,ESE,115,3.4,3.7,42,-99.99,,,0.00,0,rob ver 1B,2013-03-11 13:21:00,
2013-03-11 06:22:00,49.8,23.8,29.62,NE,42,3.5,4.0,36,-99.99,,,0.00,0,rob ver 1A,2013-03-11 13:22:00,
2013-03-11 06:23:00,50.0,28.0,29.50,SE,131,2.8,3.0,42,-99.99,,,0.00,0,rob ver 1B,2013-03-11 13:23:00,
2013-03-11 06:24:00,50.0,28.0,29.50,SE,141,2.9,3.4,42,-99.99,,,0.00,0,rob ver 1B,2013-03-11 13:24:00,
2013-03-11 06:25:00,50.2,28.0,29.50,SE,133,3.2,3.6,41,-99.99,,,0.00,0,rob ver 1B,2013-03-11 13:25:00,
2013-03-11 06:26:00,50.2,27.9,29.50,SE,130,3.1,3.4,41,-99.99,,,0.00,0,rob ver 1B,2013-03-11 13:26:00,
2013-03-11 06:27:00,49.2,24.2,29.62,NE,43,4.0,4.8,37,-99.99,,,0.00,0,rob ver 1A,2013-03-11 13:27:00,
2013-03-11 06:28:00,50.0,27.8,29.50,ESE,115,3.2,3.7,42,-99.99,,,0.00,0,rob ver 1B,2013-03-11 13:28:00,
2013-03-11 06:29:00,49.8,27.8,29.50,ESE,119,3.3,3.8,42,-99.99,,,0.00,0,rob ver 1B,2013-03-11 13:29:00,
2013-03-11 06:30:00,49.7,27.8,29.50,ESE,121,3.4,3.7,42,-99.99,,,0.00,0,rob ver 1B,2013-03-11 13:30:00,
2013-03-11 06:31:00,49.7,27.8,29.50,SE,127,3.0,3.3,42,-99.99,,,0.00,0,rob ver 1B,2013-03-11 13:31:00,
2013-03-11 06:32:00,50.0,24.2,29.62,NE,48,4.5,6.1,36,-99.99,,,0.00,0,rob ver 1A,2013-03-11 13:32:00,
2013-03-11 06:33:00,49.6,27.9,29.50,SE,128,3.0,3.4,42,-99.99,,,0.00,.164,rob ver 1B,2013-03-11 13:33:00,
2013-03-11 06:34:00,49.8,28.0,29.50,SE,125,2.8,3.0,42,-99.99,,,0.00,.329,rob ver 1B,2013-03-11 13:34:00,
2013-03-11 06:35:00,49.8,27.9,29.50,SE,129,2.3,2.7,42,-99.99,,,0.00,.329,rob ver 1B,2013-03-11 13:35:00,
2013-03-11 06:36:00,49.6,27.7,29.50,SE,127,2.5,3.0,42,-99.99,,,0.00,.329,rob ver 1B,2013-03-11 13:36:00,
2013-03-11 06:37:00,51.3,23.7,29.62,NNE,30,4.6,5.2,33,-99.99,,,0.00,.329,rob ver 1A,2013-03-11 13:37:00,
2013-03-11 06:38:00,49.5,27.7,29.50,SE,137,3.3,3.7,42,-99.99,,,0.00,.329,rob ver 1B,2013-03-11 13:38:00,
2013-03-11 06:39:00,49.6,27.8,29.50,SE,139,3.4,3.6,42,-99.99,,,0.00,.657,rob ver 1B,2013-03-11 13:39:00,
2013-03-11 06:40:00,49.8,27.9,29.50,SE,136,2.7,3.2,42,-99.99,,,0.00,.986,rob ver 1B,2013-03-11 13:40:00,
2013-03-11 06:41:00,50.0,27.9,29.50,SE,128,2.1,2.3,41,-99.99,,,0.00,.986,rob ver 1B,2013-03-11 13:41:00,
2013-03-11 06:42:00,51.4,24.1,29.62,NE,36,2.7,3.6,34,-99.99,,,0.00,1.315,rob ver 1A,2013-03-11 13:42:00,
2013-03-11 06:43:00,50.1,27.8,29.50,ESE,106,1.7,1.9,41,-99.99,,,0.00,1.479,rob ver 1B,2013-03-11 13:43:00,
2013-03-11 06:44:00,50.2,27.8,29.50,East,91,1.5,1.8,41,-99.99,,,0.00,1.643,rob ver 1B,2013-03-11 13:44:00,
2013-03-11 06:45:00,50.2,27.7,29.50,East,90,1.5,1.8,41,-99.99,,,0.00,1.972,rob ver 1B,2013-03-11 13:45:00,
2013-03-11 06:46:00,50.2,27.7,29.50,East,91,1.7,1.8,41,-99.99,,,0.00,2.301,rob ver 1B,2013-03-11 13:46:00,
2013-03-11 06:47:00,50.3,27.8,29.50,East,94,1.5,1.9,41,-99.99,,,0.00,2.958,rob ver 1B,2013-03-11 13:47:00,
2013-03-11 06:48:00,49.0,24.9,29.62,ENE,69,2.9,3.8,38,-99.99,,,0.00,2.959,rob ver 1A,2013-03-11 13:48:00,
2013-03-11 06:49:00,50.2,27.8,29.50,ENE,62,2.9,3.2,41,-99.99,,,0.00,3.615,rob ver 1B,2013-03-11 13:49:00,
2013-03-11 06:50:00,50.2,27.7,29.50,East,81,2.9,3.2,41,-99.99,,,0.00,3.944,rob ver 1B,2013-03-11 13:50:00,
2013-03-11 06:51:00,50.3,27.8,29.50,ENE,77,3.5,3.8,41,-99.99,,,0.00,4.601,rob ver 1B,2013-03-11 13:51:00,
2013-03-11 06:52:00,50.5,27.8,29.50,ENE,76,3.9,4.4,41,-99.99,,,0.00,5.259,rob ver 1B,2013-03-11 13:52:00,
2013-03-11 06:53:00,49.2,24.7,29.62,ENE,58,5.3,5.8,37,-99.99,,,0.00,5.26,rob ver 1A,2013-03-11 13:53:00,
2013-03-11 06:54:00,50.6,27.7,29.50,ENE,65,4.2,4.5,40,-99.99,,,0.00,6.574,rob ver 1B,2013-03-11 13:54:00,
2013-03-11 06:55:00,50.5,27.7,29.50,ENE,63,4.0,4.5,41,-99.99,,,0.00,7.89,rob ver 1B,2013-03-11 13:55:00,
2013-03-11 06:56:00,50.4,27.6,29.50,ENE,70,4.4,4.8,41,-99.99,,,0.00,10.85,rob ver 1B,2013-03-11 13:56:00,
2013-03-11 06:57:00,50.5,27.7,29.50,East,84,4.2,4.7,40,-99.99,,,0.00,13.8,rob ver 1B,2013-03-11 13:57:00,
2013-03-11 06:58:00,49.1,24.7,29.62,NNE,18,5.4,5.8,38,-99.99,,,0.00,13.48,rob ver 1A,2013-03-11 13:58:00,
2013-03-11 06:59:00,51.4,27.7,29.50,East,93,3.4,4.1,39,-99.99,,,0.00,17.75,rob ver 1B,2013-03-11 13:59:00,
2013-03-11 07:00:00,51.8,27.7,29.50,East,86,3.3,3.8,38,-99.99,,,0.00,20.05,rob ver 1B,2013-03-11 14:00:00,
2013-03-11 07:01:00,52.1,27.6,29.50,East,79,3.0,3.5,38,-99.99,,,0.00,21.69,rob ver 1B,2013-03-11 14:01:00,
2013-03-11 07:02:00,52.3,27.5,29.50,ENE,75,2.9,3.4,37,-99.99,,,0.00,23.17,rob ver 1B,2013-03-11 14:02:00,
2013-03-11 07:03:00,50.0,24.8,29.62,ENE,74,3.8,5.7,37,-99.99,,,0.00,26.3,rob ver 1A,2013-03-11 14:03:00,
2013-03-11 07:04:00,52.3,27.3,29.50,ENE,58,2.8,3.2,37,-99.99,,,0.00,26.95,rob ver 1B,2013-03-11 14:04:00,
2013-03-11 07:05:00,52.3,27.3,29.50,ENE,58,3.4,3.9,37,-99.99,,,0.00,28.92,rob ver 1B,2013-03-11 14:05:00,
2013-03-11 07:06:00,52.4,27.3,29.50,ENE,59,3.3,3.8,37,-99.99,,,0.00,31.06,rob ver 1B,2013-03-11 14:06:00,
2013-03-11 07:07:00,52.6,27.3,29.50,ENE,63,3.6,4.0,37,-99.99,,,0.00,33.2,rob ver 1B,2013-03-11 14:07:00,
2013-03-11 07:08:00,48.4,25.4,29.62,ENE,61,5.4,7.3,40,-99.99,,,0.00,37.64,rob ver 1A,2013-03-11 14:08:00,
2013-03-11 07:09:00,52.9,27.2,29.50,East,80,2.8,3.4,36,-99.99,,,0.00,37.96,rob ver 1B,2013-03-11 14:09:00,
2013-03-11 07:10:00,53.2,27.1,29.50,NE,41,1.1,2.5,35,-99.99,,,0.00,40.1,rob ver 1B,2013-03-11 14:10:00,
2013-03-11 07:11:00,53.5,26.8,29.50,NE,48,0.9,1.3,35,-99.99,,,0.00,42.73,rob ver 1B,2013-03-11 14:11:00,
2013-03-11 07:12:00,53.8,26.6,29.50,East,83,1.8,2.5,34,-99.99,,,0.00,45.03,rob ver 1B,2013-03-11 14:12:00,
2013-03-11 07:13:00,49.1,25.1,29.62,NE,39,3.6,4.2,38,-99.99,,,0.00,49.64,rob ver 1A,2013-03-11 14:13:00,
2013-03-11 07:14:00,54.0,26.8,29.50,ENE,67,3.4,4.1,35,-99.99,,,0.00,49.96,rob ver 1B,2013-03-11 14:14:00,
2013-03-11 07:15:00,53.5,27.0,29.50,ENE,69,3.8,4.7,36,-99.99,,,0.00,52.26,rob ver 1B,2013-03-11 14:15:00,
2013-03-11 07:16:00,53.2,27.3,29.50,ENE,63,4.1,4.8,36,-99.99,,,0.00,54.89,rob ver 1B,2013-03-11 14:16:00,
2013-03-11 07:17:00,52.7,27.3,29.50,ENE,74,4.6,5.3,37,-99.99,,,0.00,57.19,rob ver 1B,2013-03-11 14:17:00,
2013-03-11 07:18:00,50.1,25.1,29.62,East,90,3.2,3.8,37,-99.99,,,0.00,63.44,rob ver 1A,2013-03-11 14:18:00,
2013-03-11 07:19:00,52.1,27.4,29.50,East,79,3.6,5.5,38,-99.99,,,0.00,63.44,rob ver 1B,2013-03-11 14:19:00,
2013-03-11 07:20:00,52.0,27.5,29.53,ENE,71,3.0,3.9,38,-99.99,,,0.00,66.39,rob ver 1B,2013-03-11 14:20:00,
2013-03-11 07:21:00,52.1,27.5,29.53,ENE,72,3.2,4.1,38,-99.99,,,0.00,69.02,rob ver 1B,2013-03-11 14:21:00,
2013-03-11 07:22:00,52.1,27.5,29.53,ENE,58,3.7,4.5,38,-99.99,,,0.00,71.5,rob ver 1B,2013-03-11 14:22:00,
2013-03-11 07:23:00,49.2,25.5,29.62,East,79,5.6,6.9,39,-99.99,,,0.00,77.2,rob ver 1A,2013-03-11 14:23:00,
2013-03-11 07:24:00,52.6,27.3,29.53,ENE,78,4.7,6.1,37,-99.99,,,0.00,77.2,rob ver 1B,2013-03-11 14:24:00,
2013-03-11 07:25:00,52.7,27.4,29.53,ENE,75,4.9,5.9,37,-99.99,,,0.00,80.2,rob ver 1B,2013-03-11 14:25:00,
2013-03-11 07:26:00,52.9,27.4,29.53,ENE,64,4.6,5.7,36,-99.99,,,0.00,83,rob ver 1B,2013-03-11 14:26:00,
2013-03-11 07:27:00,53.1,27.3,29.53,ENE,61,4.7,5.9,36,-99.99,,,0.00,86.1,rob ver 1B,2013-03-11 14:27:00,
2013-03-11 07:28:00,53.3,27.1,29.53,ENE,67,4.5,5.7,35,-99.99,,,0.00,89.1,rob ver 1B,2013-03-11 14:28:00,
2013-03-11 07:29:00,49.2,25.5,29.62,ENE,65,4.0,5.0,39,-99.99,,,0.00,91.4,rob ver 1A,2013-03-11 14:29:00,
2013-03-11 07:30:00,54.1,26.5,29.53,NE,51,4.9,6.7,34,-99.99,,,0.00,94.7,rob ver 1B,2013-03-11 14:30:00,
2013-03-11 07:31:00,54.4,26.6,29.53,NE,54,4.9,6.1,33,-99.99,,,0.00,97.9,rob ver 1B,2013-03-11 14:31:00,
2013-03-11 07:32:00,54.4,26.6,29.53,NE,50,4.5,6.2,34,-99.99,,,0.00,101.2,rob ver 1B,2013-03-11 14:32:00,
2013-03-11 07:33:00,54.3,26.6,29.53,NE,51,4.2,5.7,34,-99.99,,,0.00,104.5,rob ver 1B,2013-03-11 14:33:00,
2013-03-11 07:34:00,50.1,25.5,29.62,NE,41,3.1,4.0,37,-99.99,,,0.00,106.5,rob ver 1A,2013-03-11 14:34:00,
2013-03-11 07:35:00,54.3,26.6,29.53,NE,50,3.7,4.8,34,-99.99,,,0.00,110.8,rob ver 1B,2013-03-11 14:35:00,
2013-03-11 07:36:00,54.3,26.7,29.53,NE,49,4.3,4.9,34,-99.99,,,0.00,113.7,rob ver 1B,2013-03-11 14:36:00,
2013-03-11 07:37:00,54.2,26.7,29.53,NE,52,4.1,4.7,34,-99.99,,,0.00,116.7,rob ver 1B,2013-03-11 14:37:00,
2013-03-11 07:38:00,54.2,26.8,29.53,NE,53,4.0,4.9,34,-99.99,,,0.00,119.6,rob ver 1B,2013-03-11 14:38:00,
2013-03-11 07:39:00,50.7,25.8,29.62,NNE,12,3.8,4.5,37,-99.99,,,0.00,122.1,rob ver 1A,2013-03-11 14:39:00,
2013-03-11 07:40:00,54.1,27.0,29.53,NE,38,4.1,5.0,34,-99.99,,,0.00,125.9,rob ver 1B,2013-03-11 14:40:00,
2013-03-11 07:41:00,54.1,27.0,29.53,NE,42,4.8,5.2,34,-99.99,,,0.00,129,rob ver 1B,2013-03-11 14:41:00,
2013-03-11 07:42:00,54.1,27.0,29.53,NE,43,4.5,5.2,35,-99.99,,,0.00,132.3,rob ver 1B,2013-03-11 14:42:00,
2013-03-11 07:43:00,54.2,27.1,29.53,NE,37,3.6,4.5,34,-99.99,,,0.00,135.4,rob ver 1B,2013-03-11 14:43:00,
2013-03-11 07:44:00,52.7,25.5,29.62,NE,38,1.9,2.3,34,-99.99,,,0.00,140.4,rob ver 1A,2013-03-11 14:44:00,
2013-03-11 07:45:00,54.5,27.1,29.53,NNE,33,4.0,4.5,34,-99.99,,,0.00,142.6,rob ver 1B,2013-03-11 14:45:00,
2013-03-11 07:46:00,54.7,27.0,29.53,NE,35,4.3,4.6,34,-99.99,,,0.00,145.6,rob ver 1B,2013-03-11 14:46:00,
2013-03-11 07:47:00,54.8,27.0,29.53,NE,37,4.1,4.7,33,-99.99,,,0.00,148.6,rob ver 1B,2013-03-11 14:47:00,
2013-03-11 07:48:00,55.0,27.1,29.53,NE,35,4.2,4.7,33,-99.99,,,0.00,152,rob ver 1B,2013-03-11 14:48:00,
2013-03-11 07:49:00,52.6,25.5,29.62,South,188,2.2,3.1,34,-99.99,,,0.00,154.2,rob ver 1A,2013-03-11 14:49:00,
2013-03-11 07:50:00,55.3,27.2,29.53,NE,40,4.9,6.2,33,-99.99,,,0.00,159.7,rob ver 1B,2013-03-11 14:50:00,
2013-03-11 07:51:00,55.4,27.0,29.53,NE,40,5.8,6.6,33,-99.99,,,0.00,163,rob ver 1B,2013-03-11 14:51:00,
2013-03-11 07:52:00,55.5,26.8,29.53,ENE,57,5.3,6.6,32,-99.99,,,0.00,166.3,rob ver 1B,2013-03-11 14:52:00,
2013-03-11 07:53:00,55.8,26.4,29.53,ENE,63,6.0,6.9,31,-99.99,,,0.00,170.1,rob ver 1B,2013-03-11 14:53:00,
2013-03-11 07:54:00,53.4,25.4,29.62,North,357,2.8,3.2,33,-99.99,,,0.00,170.9,rob ver 1A,2013-03-11 14:54:00,
2013-03-11 07:55:00,56.9,26.4,29.53,NNE,13,3.9,4.6,30,-99.99,,,0.00,176.8,rob ver 1B,2013-03-11 14:55:00,
2013-03-11 07:56:00,57.4,27.2,29.53,NNW,330,2.6,3.4,31,-99.99,,,0.00,180.1,rob ver 1B,2013-03-11 14:56:00,
2013-03-11 07:57:00,57.6,27.1,29.53,NW,321,2.9,3.4,30,-99.99,,,0.00,184.1,rob ver 1B,2013-03-11 14:57:00,
2013-03-11 07:58:00,57.7,26.9,29.53,NW,326,2.6,3.2,30,-99.99,,,0.00,187.2,rob ver 1B,2013-03-11 14:58:00,
2013-03-11 07:59:00,54.6,26.3,29.65,SSW,197,1.1,1.5,33,-99.99,,,0.00,188.7,rob ver 1A,2013-03-11 14:59:00,
2013-03-11 08:00:00,58.1,27.0,29.53,North,354,2.6,3.2,30,-99.99,,,0.00,194.6,rob ver 1B,2013-03-11 15:00:00,
2013-03-11 08:01:00,58.3,27.1,29.53,NNE,13,1.5,2.1,30,-99.99,,,0.00,198.2,rob ver 1B,2013-03-11 15:01:00,
2013-03-11 08:02:00,58.7,27.0,29.53,North,8,1.9,2.5,29,-99.99,,,0.00,201.8,rob ver 1B,2013-03-11 15:02:00,
2013-03-11 08:03:00,59.0,27.1,29.53,NNW,344,2.7,3.6,29,-99.99,,,0.00,205.7,rob ver 1B,2013-03-11 15:03:00,
2013-03-11 08:04:00,56.0,26.5,29.62,SW,234,1.3,1.6,32,-99.99,,,0.00,205.9,rob ver 1A,2013-03-11 15:04:00,
2013-03-11 08:05:00,59.0,27.0,29.53,North,3,2.5,2.9,29,-99.99,,,0.00,212.5,rob ver 1B,2013-03-11 15:05:00,
2013-03-11 08:06:00,59.2,27.3,29.53,NNW,348,2.1,2.8,29,-99.99,,,0.00,216.1,rob ver 1B,2013-03-11 15:06:00,
2013-03-11 08:07:00,59.4,27.3,29.53,NW,314,3.5,4.1,29,-99.99,,,0.00,219.9,rob ver 1B,2013-03-11 15:07:00,
2013-03-11 08:08:00,59.2,27.5,29.53,NW,314,2.9,3.7,29,-99.99,,,0.00,223.2,rob ver 1B,2013-03-11 15:08:00,
2013-03-11 08:09:00,59.3,27.5,29.53,North,351,1.9,2.5,29,-99.99,,,0.00,226.6,rob ver 1B,2013-03-11 15:09:00,
2013-03-11 08:10:00,55.8,26.6,29.65,WNW,302,1.4,1.9,31,-99.99,,,0.00,224,rob ver 1A,2013-03-11 15:10:00,
2013-03-11 08:11:00,59.7,27.2,29.56,North,359,3.4,3.9,28,-99.99,,,0.00,234,rob ver 1B,2013-03-11 15:11:00,
2013-03-11 08:12:00,59.9,27.5,29.56,NW,326,3.0,3.7,28,-99.99,,,0.00,237.3,rob ver 1B,2013-03-11 15:12:00,
2013-03-11 08:13:00,60.1,27.6,29.56,NW,323,2.8,3.3,28,-99.99,,,0.00,240.6,rob ver 1B,2013-03-11 15:13:00,
2013-03-11 08:14:00,60.2,27.8,29.56,NNW,336,2.3,3.2,29,-99.99,,,0.00,244.2,rob ver 1B,2013-03-11 15:14:00,
2013-03-11 08:15:00,56.4,26.4,29.65,NNW,333,2.6,3.0,30,-99.99,,,0.00,241.9,rob ver 1A,2013-03-11 15:15:00,
2013-03-11 08:16:00,60.8,26.8,29.56,North,5,3.7,4.5,27,-99.99,,,0.00,251.7,rob ver 1B,2013-03-11 15:16:00,
2013-03-11 08:17:00,61.1,26.9,29.56,North,3,3.1,4.3,26,-99.99,,,0.00,255,rob ver 1B,2013-03-11 15:17:00,
2013-03-11 08:18:00,61.4,27.1,29.56,North,7,3.3,4.1,26,-99.99,,,0.00,258.9,rob ver 1B,2013-03-11 15:18:00,
2013-03-11 08:19:00,61.8,26.9,29.56,NNE,18,3.5,4.0,26,-99.99,,,0.00,262.2,rob ver 1B,2013-03-11 15:19:00,
2013-03-11 08:20:00,57.8,26.6,29.65,North,3,1.9,2.3,30,-99.99,,,0.00,260.6,rob ver 1A,2013-03-11 15:20:00,
2013-03-11 08:21:00,62.2,26.9,29.56,NNE,27,4.2,5.3,25,-99.99,,,0.00,269.4,rob ver 1B,2013-03-11 15:21:00,
2013-03-11 08:22:00,62.4,26.9,29.56,NNE,23,4.4,5.3,25,-99.99,,,0.00,273.4,rob ver 1B,2013-03-11 15:22:00,
2013-03-11 08:23:00,62.6,26.7,29.56,NNE,30,5.0,5.6,25,-99.99,,,0.00,276.7,rob ver 1B,2013-03-11 15:23:00,
2013-03-11 08:24:00,62.7,26.8,29.56,NNE,31,4.9,5.7,25,-99.99,,,0.00,280,rob ver 1B,2013-03-11 15:24:00,
2013-03-11 08:25:00,58.0,26.3,29.65,North,355,3.1,4.0,29,-99.99,,,0.00,282.7,rob ver 1A,2013-03-11 15:25:00,
2013-03-11 08:26:00,62.9,26.8,29.56,NNE,32,5.3,6.6,25,-99.99,,,0.00,287.2,rob ver 1B,2013-03-11 15:26:00,
2013-03-11 08:27:00,63.0,26.9,29.56,NNE,28,5.5,6.4,25,-99.99,,,0.00,291.8,rob ver 1B,2013-03-11 15:27:00,
2013-03-11 08:28:00,63.1,26.8,29.56,NNE,30,5.5,6.8,24,-99.99,,,0.00,295.1,rob ver 1B,2013-03-11 15:28:00,
2013-03-11 08:29:00,63.1,26.7,29.56,NNE,29,5.8,6.7,25,-99.99,,,0.00,298.7,rob ver 1B,2013-03-11 15:29:00,
2013-03-11 08:30:00,58.7,25.5,29.65,North,5,4.3,5.3,27,-99.99,,,0.00,299.7,rob ver 1A,2013-03-11 15:30:00,
2013-03-11 08:31:00,63.2,27.0,29.56,NE,35,4.9,6.1,25,-99.99,,,0.00,306.2,rob ver 1B,2013-03-11 15:31:00,
2013-03-11 08:32:00,63.4,27.0,29.56,NNE,33,5.1,5.9,24,-99.99,,,0.00,309.2,rob ver 1B,2013-03-11 15:32:00,
2013-03-11 08:33:00,63.5,26.8,29.56,NE,34,4.9,5.8,24,-99.99,,,0.00,312.8,rob ver 1B,2013-03-11 15:33:00,
2013-03-11 08:34:00,63.6,26.9,29.56,NNE,33,4.3,5.2,24,-99.99,,,0.00,316.7,rob ver 1B,2013-03-11 15:34:00,
2013-03-11 08:35:00,58.6,25.6,29.65,NE,42,4.4,5.2,27,-99.99,,,0.00,317.4,rob ver 1A,2013-03-11 15:35:00,
2013-03-11 08:36:00,63.9,26.8,29.56,NNE,29,5.2,5.9,24,-99.99,,,0.00,323.3,rob ver 1B,2013-03-11 15:36:00,
2013-03-11 08:37:00,63.9,27.0,29.56,NE,35,4.7,5.6,24,-99.99,,,0.00,327.4,rob ver 1B,2013-03-11 15:37:00,
2013-03-11 08:38:00,64.0,27.1,29.56,NNE,25,4.8,6.2,24,-99.99,,,0.00,331.2,rob ver 1B,2013-03-11 15:38:00,
2013-03-11 08:39:00,64.1,27.3,29.56,NNE,21,4.9,5.7,24,-99.99,,,0.00,334.4,rob ver 1B,2013-03-11 15:39:00,
2013-03-11 08:40:00,58.6,25.1,29.65,NE,45,4.6,5.6,27,-99.99,,,0.00,335.2,rob ver 1A,2013-03-11 15:40:00,
2013-03-11 08:41:00,64.2,27.4,29.56,NNE,15,4.7,6.2,24,-99.99,,,0.00,341.7,rob ver 1B,2013-03-11 15:41:00,
2013-03-11 08:42:00,64.4,27.5,29.56,NNE,22,4.9,5.9,24,-99.99,,,0.00,344.9,rob ver 1B,2013-03-11 15:42:00,
2013-03-11 08:43:00,64.5,27.7,29.56,NNE,30,4.4,5.5,24,-99.99,,,0.00,348.2,rob ver 1B,2013-03-11 15:43:00,
2013-03-11 08:44:00,64.7,27.8,29.56,NNE,24,4.2,5.0,24,-99.99,,,0.00,352.2,rob ver 1B,2013-03-11 15:44:00,
2013-03-11 08:45:00,64.8,27.7,29.56,NNE,17,4.7,5.4,24,-99.99,,,0.00,355.6,rob ver 1B,2013-03-11 15:45:00,
2013-03-11 08:46:00,59.0,25.6,29.65,NE,41,3.8,5.0,27,-99.99,,,0.00,353.5,rob ver 1A,2013-03-11 15:46:00,
2013-03-11 08:47:00,65.0,27.6,29.56,NNE,18,4.2,5.0,24,-99.99,,,0.00,363.3,rob ver 1B,2013-03-11 15:47:00,
2013-03-11 08:48:00,65.2,27.9,29.56,NNE,17,3.2,4.2,24,-99.99,,,0.00,366.4,rob ver 1B,2013-03-11 15:48:00,
2013-03-11 08:49:00,65.5,27.7,29.56,NNE,18,4.0,5.1,24,-99.99,,,0.00,369.9,rob ver 1B,2013-03-11 15:49:00,
2013-03-11 08:50:00,65.6,27.9,29.56,NNE,14,3.7,4.2,24,-99.99,,,0.00,373.1,rob ver 1B,2013-03-11 15:50:00,
2013-03-11 08:51:00,59.3,25.5,29.65,NE,38,6.7,7.7,27,-99.99,,,0.00,370.6,rob ver 1A,2013-03-11 15:51:00,
2013-03-11 08:52:00,66.0,27.9,29.56,North,9,3.2,4.3,23,-99.99,,,0.00,380.4,rob ver 1B,2013-03-11 15:52:00,
2013-03-11 08:53:00,66.2,27.7,29.56,North,358,3.3,4.4,23,-99.99,,,0.00,384.3,rob ver 1B,2013-03-11 15:53:00,
2013-03-11 08:54:00,66.3,27.7,29.56,North,352,3.7,4.3,23,-99.99,,,0.00,386.9,rob ver 1B,2013-03-11 15:54:00,
2013-03-11 08:55:00,66.3,27.9,29.56,North,11,3.1,3.9,23,-99.99,,,0.00,390.9,rob ver 1B,2013-03-11 15:55:00,
2013-03-11 08:56:00,59.9,25.9,29.65,NE,45,5.5,6.9,26,-99.99,,,0.00,389,rob ver 1A,2013-03-11 15:56:00,
2013-03-11 08:57:00,66.8,27.8,29.56,North,351,2.9,3.6,22,-99.99,,,0.00,397.4,rob ver 1B,2013-03-11 15:57:00,
2013-03-11 08:58:00,66.9,27.8,29.56,NNW,347,2.5,3.4,23,-99.99,,,0.00,401.3,rob ver 1B,2013-03-11 15:58:00,
2013-03-11 08:59:00,67.0,27.7,29.56,North,350,2.9,3.4,22,-99.99,,,0.00,404.9,rob ver 1B,2013-03-11 15:59:00,
2013-03-11 09:00:00,67.1,27.7,29.56,NNW,345,2.7,3.7,22,-99.99,,,0.00,407.9,rob ver 1B,2013-03-11 16:00:00,
2013-03-11 09:01:00,60.7,26.2,29.65,NE,39,5.2,7.2,26,-99.99,,,0.00,406.7,rob ver 1A,2013-03-11 16:01:00,
2013-03-11 09:02:00,67.1,27.6,29.56,North,353,3.7,4.7,22,-99.99,,,0.00,415.8,rob ver 1B,2013-03-11 16:02:00,
2013-03-11 09:03:00,66.9,27.5,29.56,North,356,3.0,4.1,22,-99.99,,,0.00,419.7,rob ver 1B,2013-03-11 16:03:00,
2013-03-11 09:04:00,67.1,27.7,29.56,North,353,2.5,3.1,22,-99.99,,,0.00,422.3,rob ver 1B,2013-03-11 16:04:00,
2013-03-11 09:05:00,67.3,27.8,29.56,NNW,343,3.1,4.0,22,-99.99,,,0.00,425.8,rob ver 1B,2013-03-11 16:05:00,
2013-03-11 09:06:00,61.1,25.9,29.65,NE,54,5.4,6.7,25,-99.99,,,0.00,423.6,rob ver 1A,2013-03-11 16:06:00,
2013-03-11 09:07:00,67.5,27.6,29.56,North,350,2.1,2.8,22,-99.99,,,0.00,432.8,rob ver 1B,2013-03-11 16:07:00,
2013-03-11 09:08:00,67.7,27.6,29.56,North,359,1.4,2.3,22,-99.99,,,0.00,436.1,rob ver 1B,2013-03-11 16:08:00,
2013-03-11 09:09:00,68.1,27.8,29.56,NNW,345,1.9,3.0,21,-99.99,,,0.00,438.7,rob ver 1B,2013-03-11 16:09:00,
2013-03-11 09:10:00,68.4,28.2,29.56,NNW,340,2.3,3.0,22,-99.99,,,0.00,442,rob ver 1B,2013-03-11 16:10:00,
2013-03-11 09:11:00,61.4,25.9,29.65,NE,51,4.5,6.7,25,-99.99,,,0.00,439.8,rob ver 1A,2013-03-11 16:11:00,
2013-03-11 09:12:00,68.5,28.0,29.56,North,359,1.4,1.9,21,-99.99,,,0.00,448.9,rob ver 1B,2013-03-11 16:12:00,
2013-03-11 09:13:00,68.8,28.1,29.56,NNW,339,2.0,3.0,21,-99.99,,,0.00,452.5,rob ver 1B,2013-03-11 16:13:00,
2013-03-11 09:14:00,68.9,28.0,29.56,North,354,2.0,3.1,21,-99.99,,,0.00,455.8,rob ver 1B,2013-03-11 16:14:00,
2013-03-11 09:15:00,69.0,28.1,29.56,NNW,342,1.3,1.7,21,-99.99,,,0.00,459.1,rob ver 1B,2013-03-11 16:15:00,
2013-03-11 09:16:00,69.3,28.2,29.56,NW,318,1.8,3.3,20,-99.99,,,0.00,463.5,rob ver 1B,2013-03-11 16:16:00,
2013-03-11 09:17:00,62.1,26.1,29.65,NE,52,4.5,6.1,24,-99.99,,,0.00,462.3,rob ver 1A,2013-03-11 16:17:00,
2013-03-11 09:18:00,69.1,27.4,29.56,NNE,15,2.6,3.9,21,-99.99,,,0.00,469.4,rob ver 1B,2013-03-11 16:18:00,
2013-03-11 09:19:00,69.1,27.5,29.56,North,0,2.2,3.0,20,-99.99,,,0.00,472.8,rob ver 1B,2013-03-11 16:19:00,
2013-03-11 09:20:00,69.3,27.4,29.56,North,10,1.6,2.6,20,-99.99,,,0.00,476.1,rob ver 1B,2013-03-11 16:20:00,
2013-03-11 09:21:00,69.6,27.4,29.56,NE,35,1.0,1.4,20,-99.99,,,0.00,479.5,rob ver 1B,2013-03-11 16:21:00,
2013-03-11 09:22:00,62.7,25.8,29.65,NE,50,4.1,6.1,24,-99.99,,,0.00,479.5,rob ver 1A,2013-03-11 16:22:00,
2013-03-11 09:23:00,70.2,27.2,29.56,NW,317,1.4,2.6,20,-99.99,,,0.00,485.8,rob ver 1B,2013-03-11 16:23:00,
2013-03-11 09:24:00,70.4,27.8,29.56,NNW,334,1.5,3.4,20,-99.99,,,0.00,489.2,rob ver 1B,2013-03-11 16:24:00,
2013-03-11 09:25:00,70.5,28.1,29.56,NE,36,2.4,3.2,20,-99.99,,,0.00,493.2,rob ver 1B,2013-03-11 16:25:00,
2013-03-11 09:26:00,70.3,28.2,29.56,North,8,1.9,2.8,20,-99.99,,,0.00,495.9,rob ver 1B,2013-03-11 16:26:00,
2013-03-11 09:27:00,62.8,25.2,29.65,ENE,63,3.7,4.7,23,-99.99,,,0.00,495.9,rob ver 1A,2013-03-11 16:27:00,
2013-03-11 09:28:00,70.4,28.4,29.56,NNE,22,2.4,3.3,20,-99.99,,,0.00,502.6,rob ver 1B,2013-03-11 16:28:00,
2013-03-11 09:29:00,70.4,28.1,29.56,NNE,31,2.5,3.7,20,-99.99,,,0.00,505.4,rob ver 1B,2013-03-11 16:29:00,
2013-03-11 09:30:00,70.3,28.3,29.56,North,359,2.5,3.2,20,-99.99,,,0.00,509.2,rob ver 1B,2013-03-11 16:30:00,
2013-03-11 09:31:00,70.3,28.2,29.56,North,6,1.4,2.7,20,-99.99,,,0.00,512.1,rob ver 1B,2013-03-11 16:31:00,
2013-03-11 09:32:00,63.2,25.5,29.65,ENE,69,3.4,4.8,23,-99.99,,,0.00,513,rob ver 1A,2013-03-11 16:32:00,
2013-03-11 09:33:00,71.0,28.7,29.56,North,4,2.2,3.8,20,-99.99,,,0.00,518.5,rob ver 1B,2013-03-11 16:33:00,
2013-03-11 09:34:00,71.1,28.3,29.56,NNE,29,1.9,3.4,20,-99.99,,,0.00,521.9,rob ver 1B,2013-03-11 16:34:00,
2013-03-11 09:35:00,71.2,28.5,29.56,North,7,1.8,3.1,20,-99.99,,,0.00,524.1,rob ver 1B,2013-03-11 16:35:00,
2013-03-11 09:36:00,71.3,28.6,29.56,North,359,2.6,3.8,20,-99.99,,,0.00,528.2,rob ver 1B,2013-03-11 16:36:00,
2013-03-11 09:37:00,63.8,25.1,29.65,NE,50,4.3,6.1,22,-99.99,,,0.00,528.9,rob ver 1A,2013-03-11 16:37:00,
2013-03-11 09:38:00,71.3,28.8,29.56,North,4,1.9,3.7,21,-99.99,,,0.00,533.7,rob ver 1B,2013-03-11 16:38:00,
2013-03-11 09:39:00,71.5,28.4,29.56,NNE,13,2.0,3.1,19,-99.99,,,0.00,537.2,rob ver 1B,2013-03-11 16:39:00,
2013-03-11 09:40:00,71.7,28.6,29.56,NNW,338,0.8,2.5,20,-99.99,,,0.00,540.1,rob ver 1B,2013-03-11 16:40:00,
2013-03-11 09:41:00,71.8,28.9,29.56,ESE,104,1.5,2.2,20,-99.99,,,0.00,543.6,rob ver 1B,2013-03-11 16:41:00,
2013-03-11 09:42:00,64.2,24.8,29.65,NE,46,5.0,6.8,22,-99.99,,,0.00,544.5,rob ver 1A,2013-03-11 16:42:00,
2013-03-11 09:43:00,71.8,28.2,29.56,NNE,22,2.7,4.4,19,-99.99,,,0.00,550.5,rob ver 1B,2013-03-11 16:43:00,
2013-03-11 09:44:00,71.9,28.8,29.56,NE,47,4.4,6.5,19,-99.99,,,0.00,551.9,rob ver 1B,2013-03-11 16:44:00,
2013-03-11 09:45:00,71.3,28.8,29.56,ENE,64,4.2,5.7,20,-99.99,,,0.00,556,rob ver 1B,2013-03-11 16:45:00,
2013-03-11 09:46:00,71.1,28.7,29.56,ENE,59,3.8,4.9,20,-99.99,,,0.00,559.3,rob ver 1B,2013-03-11 16:46:00,
2013-03-11 09:47:00,64.7,24.8,29.65,NE,39,5.0,6.9,21,-99.99,,,0.00,559.9,rob ver 1A,2013-03-11 16:47:00,
2013-03-11 09:48:00,70.4,27.8,29.56,NNE,12,1.1,3.3,20,-99.99,,,0.00,564.9,rob ver 1B,2013-03-11 16:48:00,
2013-03-11 09:49:00,70.9,27.9,29.56,North,1,1.4,4.6,19,-99.99,,,0.00,568,rob ver 1B,2013-03-11 16:49:00,
2013-03-11 09:50:00,71.5,27.9,29.56,ENE,60,2.3,4.0,19,-99.99,,,0.00,570.7,rob ver 1B,2013-03-11 16:50:00,
2013-03-11 09:51:00,71.9,27.9,29.56,ENE,64,1.8,2.6,18,-99.99,,,0.00,573.5,rob ver 1B,2013-03-11 16:51:00,
2013-03-11 09:52:00,65.2,24.4,29.65,NE,46,6.1,8.1,21,-99.99,,,0.00,575.7,rob ver 1A,2013-03-11 16:52:00,
2013-03-11 09:53:00,71.6,28.2,29.56,East,96,3.4,4.4,19,-99.99,,,0.00,579.3,rob ver 1B,2013-03-11 16:53:00,
2013-03-11 09:54:00,71.3,27.7,29.56,NE,45,1.7,2.5,19,-99.99,,,0.00,581.7,rob ver 1B,2013-03-11 16:54:00,
2013-03-11 09:55:00,71.5,28.0,29.56,East,87,2.9,4.6,19,-99.99,,,0.00,585.1,rob ver 1B,2013-03-11 16:55:00,
2013-03-11 09:56:00,71.3,27.6,29.56,ENE,58,4.5,5.9,19,-99.99,,,0.00,588.3,rob ver 1B,2013-03-11 16:56:00,
2013-03-11 09:57:00,65.4,24.1,29.65,NE,37,5.6,7.3,20,-99.99,,,0.00,590.6,rob ver 1A,2013-03-11 16:57:00,
2013-03-11 09:58:00,71.3,26.5,29.56,NNE,16,1.8,2.9,19,-99.99,,,0.00,593.7,rob ver 1B,2013-03-11 16:58:00,
2013-03-11 09:59:00,71.7,27.6,29.56,North,352,0.6,1.1,19,-99.99,,,0.00,596.4,rob ver 1B,2013-03-11 16:59:00,
2013-03-11 10:00:00,72.5,27.8,29.56,SSE,160,0.7,1.1,18,-99.99,,,0.00,599.6,rob ver 1B,2013-03-11 17:00:00,
2013-03-11 10:01:00,72.8,28.1,29.56,ESE,105,1.1,1.9,19,-99.99,,,0.00,602.2,rob ver 1B,2013-03-11 17:01:00,
2013-03-11 10:02:00,66.2,24.0,29.65,NE,55,4.4,5.8,19,-99.99,,,0.00,604.8,rob ver 1A,2013-03-11 17:02:00,
2013-03-11 10:03:00,73.3,28.0,29.56,SE,138,1.2,1.9,18,-99.99,,,0.00,608.4,rob ver 1B,2013-03-11 17:03:00,
2013-03-11 10:04:00,73.4,28.1,29.56,ESE,102,1.0,2.5,18,-99.99,,,0.00,611.3,rob ver 1B,2013-03-11 17:04:00,
2013-03-11 10:05:00,73.8,27.6,29.56,NE,52,2.8,4.3,17,-99.99,,,0.00,614.1,rob ver 1B,2013-03-11 17:05:00,
2013-03-11 10:06:00,73.6,27.5,29.56,North,7,3.9,4.9,18,-99.99,,,0.00,616.6,rob ver 1B,2013-03-11 17:06:00,
2013-03-11 10:07:00,66.3,24.1,29.65,ENE,77,4.8,6.4,19,-99.99,,,0.00,621.5,rob ver 1A,2013-03-11 17:07:00,
2013-03-11 10:08:00,72.6,27.0,29.56,NNE,12,3.2,5.2,18,-99.99,,,0.00,622.5,rob ver 1B,2013-03-11 17:08:00,
2013-03-11 10:09:00,72.5,27.3,29.56,NNE,17,2.0,3.1,18,-99.99,,,0.00,624.8,rob ver 1B,2013-03-11 17:09:00,
2013-03-11 10:10:00,72.7,27.7,29.59,NNE,25,1.3,1.8,18,-99.99,,,0.00,627.9,rob ver 1B,2013-03-11 17:10:00,
2013-03-11 10:11:00,73.1,27.8,29.59,NE,34,1.4,2.5,18,-99.99,,,0.00,630.7,rob ver 1B,2013-03-11 17:11:00,
2013-03-11 10:12:00,73.3,27.7,29.56,East,94,2.3,3.4,18,-99.99,,,0.00,633.3,rob ver 1B,2013-03-11 17:12:00,
2013-03-11 10:13:00,67.1,23.8,29.65,ENE,74,4.5,6.8,19,-99.99,,,0.00,635.5,rob ver 1A,2013-03-11 17:13:00,
2013-03-11 10:14:00,72.1,26.9,29.56,SE,130,1.9,2.9,18,-99.99,,,0.00,638.7,rob ver 1B,2013-03-11 17:14:00,
2013-03-11 10:15:00,72.0,26.9,29.56,SSE,152,1.9,2.8,18,-99.99,,,0.00,641.6,rob ver 1B,2013-03-11 17:15:00,
2013-03-11 10:16:00,72.1,26.9,29.56,SSE,165,2.0,2.4,18,-99.99,,,0.00,644.1,rob ver 1B,2013-03-11 17:16:00,
2013-03-11 10:17:00,72.3,27.0,29.56,SSE,163,1.8,2.6,18,-99.99,,,0.00,646.7,rob ver 1B,2013-03-11 17:17:00,
2013-03-11 10:18:00,67.4,23.7,29.65,East,87,5.9,7.9,18,-99.99,,,0.00,648.3,rob ver 1A,2013-03-11 17:18:00,
2013-03-11 10:19:00,73.0,27.3,29.56,SSW,203,1.2,1.9,18,-99.99,,,0.00,651.8,rob ver 1B,2013-03-11 17:19:00,
2013-03-11 10:20:00,73.6,27.5,29.56,South,189,1.7,2.6,17,-99.99,,,0.00,654.2,rob ver 1B,2013-03-11 17:20:00,
2013-03-11 10:21:00,73.6,27.3,29.56,South,181,2.2,3.0,17,-99.99,,,0.00,656.5,rob ver 1B,2013-03-11 17:21:00,
2013-03-11 10:22:00,73.7,26.8,29.56,WSW,256,1.4,2.7,17,-99.99,,,0.00,657.8,rob ver 1B,2013-03-11 17:22:00,
2013-03-11 10:23:00,67.4,23.6,29.65,ESE,114,6.2,7.6,18,-99.99,,,0.00,661.4,rob ver 1A,2013-03-11 17:23:00,
2013-03-11 10:24:00,74.0,26.1,29.56,NNW,328,2.4,4.1,16,-99.99,,,0.00,664,rob ver 1B,2013-03-11 17:24:00,
2013-03-11 10:25:00,73.7,26.2,29.56,North,2,2.7,3.9,17,-99.99,,,0.00,665.5,rob ver 1B,2013-03-11 17:25:00,
2013-03-11 10:26:00,73.7,26.7,29.56,North,355,2.1,4.3,17,-99.99,,,0.00,669.6,rob ver 1B,2013-03-11 17:26:00,
2013-03-11 10:27:00,74.0,26.6,29.56,North,3,3.1,4.0,16,-99.99,,,0.00,670.7,rob ver 1B,2013-03-11 17:27:00,
2013-03-11 10:28:00,67.7,23.5,29.65,East,100,6.7,9.4,18,-99.99,,,0.00,673.2,rob ver 1A,2013-03-11 17:28:00,
2013-03-11 10:29:00,73.6,26.4,29.56,NNW,332,4.8,5.9,17,-99.99,,,0.00,676.1,rob ver 1B,2013-03-11 17:29:00,
2013-03-11 10:30:00,73.1,26.4,29.59,NNW,339,2.9,4.7,17,-99.99,,,0.00,678.1,rob ver 1B,2013-03-11 17:30:00,
2013-03-11 10:31:00,73.1,26.7,29.56,NNW,347,1.8,4.0,17,-99.99,,,0.00,680.5,rob ver 1B,2013-03-11 17:31:00,
2013-03-11 10:32:00,73.3,26.4,29.56,NNW,339,2.8,3.8,17,-99.99,,,0.00,683.6,rob ver 1B,2013-03-11 17:32:00,
2013-03-11 10:33:00,68.7,23.7,29.65,East,90,5.0,6.7,17,-99.99,,,0.00,688,rob ver 1A,2013-03-11 17:33:00,
2013-03-11 10:34:00,73.3,26.1,29.56,NNW,329,2.5,4.0,17,-99.99,,,0.00,688.2,rob ver 1B,2013-03-11 17:34:00,
2013-03-11 10:35:00,73.4,26.3,29.56,NW,318,1.6,2.6,17,-99.99,,,0.00,690.8,rob ver 1B,2013-03-11 17:35:00,
2013-03-11 10:36:00,73.6,26.6,29.59,WNW,285,3.2,5.7,17,-99.99,,,0.00,693.9,rob ver 1B,2013-03-11 17:36:00,
2013-03-11 10:37:00,73.6,26.2,29.59,NNE,15,2.6,4.7,17,-99.99,,,0.00,694.8,rob ver 1B,2013-03-11 17:37:00,
2013-03-11 10:38:00,68.8,23.9,29.65,East,98,4.0,4.8,18,-99.99,,,0.00,700,rob ver 1A,2013-03-11 17:38:00,
2013-03-11 10:39:00,73.8,26.5,29.56,NNE,33,3.3,4.5,17,-99.99,,,0.00,699.7,rob ver 1B,2013-03-11 17:39:00,
2013-03-11 10:40:00,73.8,26.4,29.56,NE,49,1.6,2.9,17,-99.99,,,0.00,702,rob ver 1B,2013-03-11 17:40:00,
2013-03-11 10:41:00,74.3,26.7,29.56,ENE,61,0.8,1.6,16,-99.99,,,0.00,704,rob ver 1B,2013-03-11 17:41:00,
2013-03-11 10:42:00,75.1,26.2,29.59,NE,39,1.4,3.4,15,-99.99,,,0.00,706,rob ver 1B,2013-03-11 17:42:00,
2013-03-11 10:43:00,69.6,24.0,29.65,ESE,105,4.7,6.6,18,-99.99,,,0.00,711,rob ver 1A,2013-03-11 17:43:00,
2013-03-11 10:44:00,75.1,25.8,29.59,NNE,14,3.2,4.1,16,-99.99,,,0.00,711,rob ver 1B,2013-03-11 17:44:00,
2013-03-11 10:45:00,74.7,25.8,29.59,NE,37,2.8,4.3,15,-99.99,,,0.00,713,rob ver 1B,2013-03-11 17:45:00,
2013-03-11 10:46:00,74.6,25.6,29.56,NNE,28,2.4,3.6,15,-99.99,,,0.00,716,rob ver 1B,2013-03-11 17:46:00,
2013-03-11 10:47:00,74.7,25.7,29.59,NNW,328,1.7,3.3,16,-99.99,,,0.00,717,rob ver 1B,2013-03-11 17:47:00,
2013-03-11 10:48:00,74.8,25.5,29.59,WSW,244,2.4,3.5,15,-99.99,,,0.00,720,rob ver 1B,2013-03-11 17:48:00,
2013-03-11 10:49:00,69.5,23.9,29.65,East,95,2.1,3.4,17,-99.99,,,0.00,722,rob ver 1A,2013-03-11 17:49:00,
2013-03-11 10:50:00,74.0,25.5,29.59,SE,139,2.2,3.1,16,-99.99,,,0.00,723,rob ver 1B,2013-03-11 17:50:00,
2013-03-11 10:51:00,73.8,25.7,29.59,ESE,120,1.9,2.7,16,-99.99,,,0.00,726,rob ver 1B,2013-03-11 17:51:00,
2013-03-11 10:52:00,74.1,26.1,29.59,SE,131,2.1,3.6,16,-99.99,,,0.00,728,rob ver 1B,2013-03-11 17:52:00,
2013-03-11 10:53:00,74.4,25.3,29.56,ESE,120,4.3,5.6,15,-99.99,,,0.00,730,rob ver 1B,2013-03-11 17:53:00,
2013-03-11 10:54:00,71.4,23.9,29.65,East,87,3.0,4.0,16,-99.99,,,0.00,733,rob ver 1A,2013-03-11 17:54:00,
2013-03-11 10:55:00,73.8,24.9,29.59,SE,140,3.6,5.5,16,-99.99,,,0.00,735,rob ver 1B,2013-03-11 17:55:00,
2013-03-11 10:56:00,73.8,25.0,29.59,East,92,3.0,5.2,16,-99.99,,,0.00,737,rob ver 1B,2013-03-11 17:56:00,
2013-03-11 10:57:00,74.2,25.3,29.59,East,81,0.9,1.7,16,-99.99,,,0.00,738,rob ver 1B,2013-03-11 17:57:00,
2013-03-11 10:58:00,75.1,26.2,29.59,NE,45,0.8,1.7,16,-99.99,,,0.00,741,rob ver 1B,2013-03-11 17:58:00,
2013-03-11 10:59:00,72.4,24.0,29.65,NNE,20,1.4,2.9,16,-99.99,,,0.00,743,rob ver 1A,2013-03-11 17:59:00,
2013-03-11 11:00:00,76.2,25.8,29.56,East,101,1.7,3.6,15,-99.99,,,0.00,745,rob ver 1B,2013-03-11 18:00:00,
2013-03-11 11:01:00,75.8,25.3,29.59,ESE,115,2.3,4.2,15,-99.99,,,0.00,747,rob ver 1B,2013-03-11 18:01:00,
2013-03-11 11:02:00,75.2,25.0,29.59,SSE,148,3.4,5.7,15,-99.99,,,0.00,749,rob ver 1B,2013-03-11 18:02:00,
2013-03-11 11:03:00,74.7,24.9,29.59,SSW,197,1.9,3.4,15,-99.99,,,0.00,750,rob ver 1B,2013-03-11 18:03:00,
2013-03-11 11:04:00,72.8,24.0,29.65,NNE,27,1.9,3.6,15,-99.99,,,0.00,753,rob ver 1A,2013-03-11 18:04:00,
2013-03-11 11:05:00,75.7,25.4,29.59,SW,223,2.2,4.3,15,-99.99,,,0.00,754,rob ver 1B,2013-03-11 18:05:00,
2013-03-11 11:06:00,75.7,25.2,29.59,South,178,2.8,4.4,15,-99.99,,,0.00,756,rob ver 1B,2013-03-11 18:06:00,
2013-03-11 11:07:00,75.6,24.6,29.56,ESE,109,1.1,2.0,14,-99.99,,,0.00,759,rob ver 1B,2013-03-11 18:07:00,
2013-03-11 11:08:00,76.3,23.6,29.59,East,94,1.3,2.4,13,-99.99,,,0.00,759,rob ver 1B,2013-03-11 18:08:00,
2013-03-11 11:09:00,73.0,24.2,29.65,North,9,4.7,6.0,15,-99.99,,,0.00,762,rob ver 1A,2013-03-11 18:09:00,
2013-03-11 11:10:00,77.1,24.8,29.59,ENE,76,2.4,3.5,14,-99.99,,,0.00,764,rob ver 1B,2013-03-11 18:10:00,
2013-03-11 11:11:00,76.7,24.0,29.59,ESE,122,4.9,6.4,13,-99.99,,,0.00,765,rob ver 1B,2013-03-11 18:11:00,
2013-03-11 11:12:00,75.4,23.6,29.56,SE,134,5.2,7.1,15,-99.99,,,0.00,766,rob ver 1B,2013-03-11 18:12:00,
2013-03-11 11:13:00,74.9,24.4,29.56,ESE,108,5.0,6.7,14,-99.99,,,0.00,769,rob ver 1B,2013-03-11 18:13:00,
2013-03-11 11:14:00,71.8,23.8,29.65,ENE,64,4.0,5.3,16,-99.99,,,0.00,771,rob ver 1A,2013-03-11 18:14:00,
2013-03-11 11:15:00,74.7,23.6,29.56,ESE,112,4.4,6.3,15,-99.99,,,0.00,735,rob ver 1B,2013-03-11 18:15:00,
2013-03-11 11:16:00,74.5,23.8,29.56,ESE,117,4.6,6.3,15,-99.99,,,0.00,774,rob ver 1B,2013-03-11 18:16:00,
2013-03-11 11:17:00,74.4,24.1,29.56,East,98,4.4,6.8,15,-99.99,,,0.00,776,rob ver 1B,2013-03-11 18:17:00,
2013-03-11 11:18:00,74.3,23.6,29.56,East,99,3.7,5.8,14,-99.99,,,0.00,778,rob ver 1B,2013-03-11 18:18:00,
2013-03-11 11:19:00,73.1,24.4,29.65,NW,316,3.6,5.3,16,-99.99,,,0.00,782,rob ver 1A,2013-03-11 18:19:00,
2013-03-11 11:20:00,74.9,24.5,29.56,East,83,4.1,5.3,15,-99.99,,,0.00,780,rob ver 1B,2013-03-11 18:20:00,
2013-03-11 11:21:00,75.2,24.8,29.56,ENE,78,2.9,4.1,14,-99.99,,,0.00,778,rob ver 1B,2013-03-11 18:21:00,
2013-03-11 11:22:00,75.6,25.1,29.56,ESE,120,2.6,3.8,15,-99.99,,,0.00,784,rob ver 1B,2013-03-11 18:22:00,
2013-03-11 11:23:00,75.5,25.1,29.56,SE,131,4.4,9.8,15,-99.99,,,0.00,785,rob ver 1B,2013-03-11 18:23:00,
2013-03-11 11:24:00,73.0,24.0,29.65,West,272,2.8,5.7,15,-99.99,,,0.00,788,rob ver 1A,2013-03-11 18:24:00,
2013-03-11 11:25:00,75.0,25.0,29.56,SE,146,5.7,7.9,15,-99.99,,,0.00,788,rob ver 1B,2013-03-11 18:25:00,
2013-03-11 11:26:00,74.8,25.0,29.56,SSE,164,3.6,4.6,15,-99.99,,,0.00,790,rob ver 1B,2013-03-11 18:26:00,
2013-03-11 11:27:00,74.9,24.7,29.56,South,174,4.1,5.0,15,-99.99,,,0.00,793,rob ver 1B,2013-03-11 18:27:00,
2013-03-11 11:28:00,75.2,25.1,29.56,SE,129,4.0,5.5,15,-99.99,,,0.00,782,rob ver 1B,2013-03-11 18:28:00,
2013-03-11 11:29:00,75.1,24.5,29.56,East,94,3.7,5.0,15,-99.99,,,0.00,794,rob ver 1B,2013-03-11 18:29:00,
2013-03-11 11:30:00,72.2,23.9,29.65,SW,221,4.7,5.5,16,-99.99,,,0.00,795,rob ver 1A,2013-03-11 18:30:00,
2013-03-11 11:31:00,75.6,24.6,29.56,South,176,1.1,1.8,14,-99.99,,,0.00,795,rob ver 1B,2013-03-11 18:31:00,
2013-03-11 11:32:00,76.4,24.1,29.56,East,90,0.6,2.0,13,-99.99,,,0.00,798,rob ver 1B,2013-03-11 18:32:00,
2013-03-11 11:33:00,77.1,24.3,29.56,SSE,166,2.5,4.9,14,-99.99,,,0.00,798,rob ver 1B,2013-03-11 18:33:00,
2013-03-11 11:34:00,76.9,23.8,29.56,South,177,4.1,5.4,14,-99.99,,,0.00,801,rob ver 1B,2013-03-11 18:34:00,
2013-03-11 11:35:00,72.3,24.1,29.65,WSW,240,5.5,8.5,16,-99.99,,,0.00,802,rob ver 1A,2013-03-11 18:35:00,
2013-03-11 11:36:00,76.4,23.7,29.56,SSE,165,3.3,4.3,13,-99.99,,,0.00,804,rob ver 1B,2013-03-11 18:36:00,
2013-03-11 11:37:00,76.2,23.8,29.56,South,175,2.6,4.4,14,-99.99,,,0.00,804,rob ver 1B,2013-03-11 18:37:00,
2013-03-11 11:38:00,76.5,24.0,29.56,SSW,210,3.2,4.4,13,-99.99,,,0.00,805,rob ver 1B,2013-03-11 18:38:00,
2013-03-11 11:39:00,76.6,23.7,29.56,SW,228,2.9,4.3,13,-99.99,,,0.00,808,rob ver 1B,2013-03-11 18:39:00,
2013-03-11 11:40:00,72.1,24.1,29.65,SW,230,3.8,6.8,16,-99.99,,,0.00,811,rob ver 1A,2013-03-11 18:40:00,
2013-03-11 11:41:00,76.7,23.8,29.56,SW,222,3.2,5.4,14,-99.99,,,0.00,810,rob ver 1B,2013-03-11 18:41:00,
2013-03-11 11:42:00,76.6,23.6,29.56,WSW,243,2.6,3.6,14,-99.99,,,0.00,811,rob ver 1B,2013-03-11 18:42:00,
2013-03-11 11:43:00,76.5,24.4,29.56,WSW,249,2.4,3.2,14,-99.99,,,0.00,813,rob ver 1B,2013-03-11 18:43:00,
2013-03-11 11:44:00,76.7,24.6,29.56,WNW,294,1.5,2.3,14,-99.99,,,0.00,813,rob ver 1B,2013-03-11 18:44:00,
2013-03-11 11:45:00,71.8,23.7,29.65,SW,236,4.4,6.0,16,-99.99,,,0.00,817,rob ver 1A,2013-03-11 18:45:00,
2013-03-11 11:46:00,77.6,25.0,29.56,SSE,154,3.0,4.7,14,-99.99,,,0.00,817,rob ver 1B,2013-03-11 18:46:00,
2013-03-11 11:47:00,77.4,24.3,29.56,SW,214,3.9,6.8,14,-99.99,,,0.00,817,rob ver 1B,2013-03-11 18:47:00,
2013-03-11 11:48:00,77.2,24.2,29.56,South,174,6.2,7.6,13,-99.99,,,0.00,818,rob ver 1B,2013-03-11 18:48:00,
2013-03-11 11:49:00,76.5,23.8,29.56,South,176,4.8,5.8,13,-99.99,,,0.00,819,rob ver 1B,2013-03-11 18:49:00,
2013-03-11 11:50:00,73.6,23.9,29.65,West,266,3.2,5.4,15,-99.99,,,0.00,821,rob ver 1A,2013-03-11 18:50:00,
2013-03-11 11:51:00,76.1,23.7,29.56,ESE,123,2.7,4.5,14,-99.99,,,0.00,822,rob ver 1B,2013-03-11 18:51:00,
2013-03-11 11:52:00,76.2,23.8,29.56,ENE,60,2.9,7.5,14,-99.99,,,0.00,822,rob ver 1B,2013-03-11 18:52:00,
2013-03-11 11:53:00,76.4,23.9,29.56,East,85,2.0,3.9,14,-99.99,,,0.00,825,rob ver 1B,2013-03-11 18:53:00,
2013-03-11 11:54:00,76.7,24.1,29.56,WSW,244,4.2,7.2,13,-99.99,,,0.00,824,rob ver 1B,2013-03-11 18:54:00,
2013-03-11 11:55:00,72.6,23.6,29.65,SW,224,5.0,8.1,15,-99.99,,,0.00,828,rob ver 1A,2013-03-11 18:55:00,
2013-03-11 11:56:00,76.3,23.4,29.56,West,264,3.3,5.7,13,-99.99,,,0.00,826,rob ver 1B,2013-03-11 18:56:00,
2013-03-11 11:57:00,76.4,23.6,29.56,SSE,164,2.4,4.8,13,-99.99,,,0.00,827,rob ver 1B,2013-03-11 18:57:00,
2013-03-11 11:58:00,76.6,23.5,29.56,South,180,3.3,5.7,13,-99.99,,,0.00,829,rob ver 1B,2013-03-11 18:58:00,
2013-03-11 11:59:00,76.7,23.3,29.56,SSW,203,3.5,4.5,13,-99.99,,,0.00,830,rob ver 1B,2013-03-11 18:59:00,
2013-03-11 12:00:00,73.4,23.2,29.65,SW,226,4.0,7.3,15,-99.99,,,0.00,834,rob ver 1A,2013-03-11 19:00:00,
2013-03-11 12:01:00,77.4,23.3,29.56,ESE,108,1.0,1.6,13,-99.99,,,0.00,832,rob ver 1B,2013-03-11 19:01:00,
2013-03-11 12:02:00,77.8,23.6,29.56,NE,54,1.1,1.8,13,-99.99,,,0.00,832,rob ver 1B,2013-03-11 19:02:00,
2013-03-11 12:03:00,78.5,23.8,29.56,ENE,74,0.5,1.3,12,-99.99,,,0.00,834,rob ver 1B,2013-03-11 19:03:00,
2013-03-11 12:04:00,79.2,24.0,29.56,South,180,0.8,3.6,12,-99.99,,,0.00,835,rob ver 1B,2013-03-11 19:04:00,
2013-03-11 12:05:00,79.7,24.1,29.56,SSW,208,2.3,5.5,13,-99.99,,,0.00,836,rob ver 1B,2013-03-11 19:05:00,
2013-03-11 12:06:00,72.7,23.3,29.65,WNW,288,4.2,6.5,15,-99.99,,,0.00,837,rob ver 1A,2013-03-11 19:06:00,
2013-03-11 12:07:00,78.6,23.7,29.56,SSW,206,7.8,11.3,13,-99.99,,,0.00,838,rob ver 1B,2013-03-11 19:07:00,
2013-03-11 12:08:00,77.7,23.4,29.56,SW,221,5.0,7.9,13,-99.99,,,0.00,839,rob ver 1B,2013-03-11 19:08:00,
2013-03-11 12:09:00,77.5,23.6,29.56,ESE,106,1.2,3.6,13,-99.99,,,0.00,840,rob ver 1B,2013-03-11 19:09:00,
2013-03-11 12:10:00,77.7,23.7,29.56,ESE,113,3.3,4.8,13,-99.99,,,0.00,839,rob ver 1B,2013-03-11 19:10:00,
2013-03-11 12:11:00,74.5,23.3,29.62,WNW,289,5.9,8.0,14,-99.99,,,0.00,844,rob ver 1A,2013-03-11 19:11:00,
2013-03-11 12:12:00,77.4,23.4,29.56,East,88,3.9,5.8,13,-99.99,,,0.00,841,rob ver 1B,2013-03-11 19:12:00,
2013-03-11 12:13:00,77.4,23.6,29.56,East,82,3.4,5.1,13,-99.99,,,0.00,844,rob ver 1B,2013-03-11 19:13:00,
2013-03-11 12:14:00,77.7,24.0,29.56,SE,131,3.1,4.6,13,-99.99,,,0.00,843,rob ver 1B,2013-03-11 19:14:00,
2013-03-11 12:15:00,77.8,23.7,29.56,SSE,147,3.7,5.1,13,-99.99,,,0.00,844,rob ver 1B,2013-03-11 19:15:00,
2013-03-11 12:16:00,73.9,23.0,29.65,WNW,292,3.2,5.0,14,-99.99,,,0.00,846,rob ver 1A,2013-03-11 19:16:00,
2013-03-11 12:17:00,77.4,23.8,29.56,South,189,3.4,5.8,13,-99.99,,,0.00,843,rob ver 1B,2013-03-11 19:17:00,
2013-03-11 12:18:00,77.6,24.1,29.56,South,171,4.6,5.6,13,-99.99,,,0.00,845,rob ver 1B,2013-03-11 19:18:00,
2013-03-11 12:19:00,77.6,24.1,29.56,SSW,204,3.1,4.5,13,-99.99,,,0.00,846,rob ver 1B,2013-03-11 19:19:00,
2013-03-11 12:20:00,78.0,24.2,29.56,WNW,293,1.3,2.1,13,-99.99,,,0.00,847,rob ver 1B,2013-03-11 19:20:00,
2013-03-11 12:21:00,73.7,22.8,29.62,NW,318,4.3,7.2,15,-99.99,,,0.00,849,rob ver 1A,2013-03-11 19:21:00,
2013-03-11 12:22:00,78.5,24.3,29.56,SSE,165,3.8,5.2,13,-99.99,,,0.00,846,rob ver 1B,2013-03-11 19:22:00,
2013-03-11 12:23:00,78.3,24.4,29.56,SSE,155,3.4,4.5,13,-99.99,,,0.00,846,rob ver 1B,2013-03-11 19:23:00,
2013-03-11 12:24:00,78.5,24.0,29.56,SE,135,2.7,4.4,13,-99.99,,,0.00,849,rob ver 1B,2013-03-11 19:24:00,
2013-03-11 12:25:00,78.5,24.0,29.56,East,85,2.0,3.5,13,-99.99,,,0.00,848,rob ver 1B,2013-03-11 19:25:00,
2013-03-11 12:26:00,74.1,22.6,29.62,West,279,2.6,4.6,14,-99.99,,,0.00,851,rob ver 1A,2013-03-11 19:26:00,
2013-03-11 12:27:00,79.4,24.3,29.56,SSE,148,3.1,4.5,12,-99.99,,,0.00,850,rob ver 1B,2013-03-11 19:27:00,
2013-03-11 12:28:00,78.9,23.7,29.56,SSE,162,3.7,4.7,12,-99.99,,,0.00,850,rob ver 1B,2013-03-11 19:28:00,
2013-03-11 12:29:00,78.6,23.7,29.56,SSE,148,2.0,3.9,13,-99.99,,,0.00,851,rob ver 1B,2013-03-11 19:29:00,
2013-03-11 12:30:00,78.9,23.8,29.56,SW,220,2.2,4.7,12,-99.99,,,0.00,851,rob ver 1B,2013-03-11 19:30:00,
2013-03-11 12:31:00,74.4,22.5,29.62,NE,37,4.5,6.2,14,-99.99,,,0.00,854,rob ver 1A,2013-03-11 19:31:00,
2013-03-11 12:32:00,79.3,23.8,29.56,South,186,3.9,6.5,12,-99.99,,,0.00,852,rob ver 1B,2013-03-11 19:32:00,
2013-03-11 12:33:00,79.1,23.7,29.56,SW,215,4.9,6.6,12,-99.99,,,0.00,852,rob ver 1B,2013-03-11 19:33:00,
2013-03-11 12:34:00,79.0,23.8,29.56,SSW,201,1.7,2.9,12,-99.99,,,0.00,852,rob ver 1B,2013-03-11 19:34:00,
2013-03-11 12:35:00,79.3,23.8,29.56,ESE,107,1.1,2.2,12,-99.99,,,0.00,853,rob ver 1B,2013-03-11 19:35:00,
2013-03-11 12:36:00,75.3,22.8,29.62,NW,315,3.5,5.1,14,-99.99,,,0.00,856,rob ver 1A,2013-03-11 19:36:00,
2013-03-11 12:37:00,80.4,24.2,29.56,West,265,3.7,5.7,12,-99.99,,,0.00,855,rob ver 1B,2013-03-11 19:37:00,
2013-03-11 12:38:00,80.0,24.0,29.56,West,278,2.8,5.5,12,-99.99,,,0.00,853,rob ver 1B,2013-03-11 19:38:00,
2013-03-11 12:39:00,79.7,23.9,29.56,West,268,4.4,6.8,12,-99.99,,,0.00,853,rob ver 1B,2013-03-11 19:39:00,
2013-03-11 12:40:00,79.4,23.9,29.56,West,260,4.2,8.0,12,-99.99,,,0.00,854,rob ver 1B,2013-03-11 19:40:00,
2013-03-11 12:41:00,75.1,22.7,29.62,SW,216,1.5,3.4,13,-99.99,,,0.00,856,rob ver 1A,2013-03-11 19:41:00,
2013-03-11 12:42:00,78.9,23.5,29.56,West,271,5.4,7.4,12,-99.99,,,0.00,854,rob ver 1B,2013-03-11 19:42:00,
2013-03-11 12:43:00,78.7,23.6,29.56,WSW,252,4.1,6.5,12,-99.99,,,0.00,855,rob ver 1B,2013-03-11 19:43:00,
2013-03-11 12:44:00,78.8,23.6,29.56,WSW,239,3.5,6.0,12,-99.99,,,0.00,854,rob ver 1B,2013-03-11 19:44:00,
2013-03-11 12:45:00,79.1,23.7,29.56,West,277,4.0,5.5,12,-99.99,,,0.00,855,rob ver 1B,2013-03-11 19:45:00,
2013-03-11 12:46:00,75.1,22.3,29.62,SSE,160,3.9,4.9,13,-99.99,,,0.00,857,rob ver 1A,2013-03-11 19:46:00,
2013-03-11 12:47:00,79.5,23.6,29.53,WSW,256,3.9,5.3,12,-99.99,,,0.00,855,rob ver 1B,2013-03-11 19:47:00,
2013-03-11 12:48:00,79.2,23.5,29.53,West,274,2.8,5.0,12,-99.99,,,0.00,855,rob ver 1B,2013-03-11 19:48:00,
2013-03-11 12:49:00,79.4,23.5,29.53,West,280,1.6,3.2,12,-99.99,,,0.00,855,rob ver 1B,2013-03-11 19:49:00,
2013-03-11 12:50:00,79.6,23.6,29.56,SW,215,5.7,11.2,12,-99.99,,,0.00,855,rob ver 1B,2013-03-11 19:50:00,
2013-03-11 12:51:00,75.4,22.6,29.62,South,176,3.5,5.5,13,-99.99,,,0.00,857,rob ver 1A,2013-03-11 19:51:00,
2013-03-11 12:52:00,79.0,23.4,29.56,WSW,248,2.6,4.4,12,-99.99,,,0.00,854,rob ver 1B,2013-03-11 19:52:00,
2013-03-11 12:53:00,79.2,23.6,29.56,WSW,258,3.0,4.9,12,-99.99,,,0.00,856,rob ver 1B,2013-03-11 19:53:00,
2013-03-11 12:54:00,79.2,23.6,29.53,WNW,296,4.2,5.5,12,-99.99,,,0.00,854,rob ver 1B,2013-03-11 19:54:00,
2013-03-11 12:55:00,79.4,23.9,29.53,West,270,4.0,6.6,12,-99.99,,,0.00,856,rob ver 1B,2013-03-11 19:55:00,
2013-03-11 12:56:00,75.8,22.6,29.62,South,183,3.6,6.1,13,-99.99,,,0.00,857,rob ver 1A,2013-03-11 19:56:00,
2013-03-11 12:57:00,79.4,23.5,29.53,South,188,6.3,7.7,12,-99.99,,,0.00,855,rob ver 1B,2013-03-11 19:57:00,
2013-03-11 12:58:00,79.0,23.5,29.53,South,181,3.8,6.3,12,-99.99,,,0.00,855,rob ver 1B,2013-03-11 19:58:00,
2013-03-11 12:59:00,79.3,23.6,29.53,South,190,3.0,5.0,12,-99.99,,,0.00,855,rob ver 1B,2013-03-11 19:59:00,
2013-03-11 13:00:00,79.6,23.8,29.53,South,180,1.6,2.3,12,-99.99,,,0.00,854,rob ver 1B,2013-03-11 20:00:00,
2013-03-11 13:01:00,80.1,23.8,29.53,South,184,4.8,9.3,12,-99.99,,,0.00,854,rob ver 1B,2013-03-11 20:01:00,
2013-03-11 13:02:00,76.4,22.8,29.62,SSE,163,2.6,5.0,13,-99.99,,,0.00,857,rob ver 1A,2013-03-11 20:02:00,
2013-03-11 13:03:00,80.1,23.5,29.53,SW,230,4.5,7.0,12,-99.99,,,0.00,852,rob ver 1B,2013-03-11 20:03:00,
2013-03-11 13:04:00,80.0,23.9,29.53,South,185,3.2,4.7,12,-99.99,,,0.00,854,rob ver 1B,2013-03-11 20:04:00,
2013-03-11 13:05:00,80.2,23.8,29.53,SSW,193,4.7,7.1,12,-99.99,,,0.00,853,rob ver 1B,2013-03-11 20:05:00,
2013-03-11 13:06:00,80.1,23.4,29.53,SW,221,4.3,7.1,12,-99.99,,,0.00,852,rob ver 1B,2013-03-11 20:06:00,
2013-03-11 13:07:00,76.8,23.2,29.59,SSW,198,2.8,4.0,13,-99.99,,,0.00,856,rob ver 1A,2013-03-11 20:07:00,
2013-03-11 13:08:00,79.6,23.3,29.53,SW,217,4.4,7.5,12,-99.99,,,0.00,852,rob ver 1B,2013-03-11 20:08:00,
2013-03-11 13:09:00,79.7,23.7,29.53,SSW,211,3.6,5.7,12,-99.99,,,0.00,854,rob ver 1B,2013-03-11 20:09:00,
2013-03-11 13:10:00,79.9,23.7,29.53,WSW,239,4.4,7.5,12,-99.99,,,0.00,852,rob ver 1B,2013-03-11 20:10:00,
2013-03-11 13:11:00,79.8,23.8,29.53,SSE,153,4.1,5.8,12,-99.99,,,0.00,852,rob ver 1B,2013-03-11 20:11:00,
2013-03-11 13:12:00,77.0,22.9,29.59,SSE,165,1.4,2.7,13,-99.99,,,0.00,856,rob ver 1A,2013-03-11 20:12:00,
2013-03-11 13:13:00,79.8,23.9,29.53,SE,128,5.8,8.0,12,-99.99,,,0.00,850,rob ver 1B,2013-03-11 20:13:00,
2013-03-11 13:14:00,79.8,23.6,29.53,SE,134,4.4,7.2,12,-99.99,,,0.00,848,rob ver 1B,2013-03-11 20:14:00,
2013-03-11 13:15:00,79.8,23.7,29.53,SE,135,5.2,7.3,12,-99.99,,,0.00,849,rob ver 1B,2013-03-11 20:15:00,
2013-03-11 13:16:00,79.7,23.5,29.53,ESE,122,4.3,7.0,12,-99.99,,,0.00,849,rob ver 1B,2013-03-11 20:16:00,
2013-03-11 13:17:00,77.8,23.4,29.59,North,2,5.4,8.8,13,-99.99,,,0.00,853,rob ver 1A,2013-03-11 20:17:00,
2013-03-11 13:18:00,79.4,23.5,29.53,SSE,149,5.0,6.3,12,-99.99,,,0.00,848,rob ver 1B,2013-03-11 20:18:00,
2013-03-11 13:19:00,79.4,23.6,29.53,SSE,159,4.7,6.4,12,-99.99,,,0.00,848,rob ver 1B,2013-03-11 20:19:00,
2013-03-11 13:20:00,79.6,23.5,29.53,SE,134,5.9,7.9,12,-99.99,,,0.00,848,rob ver 1B,2013-03-11 20:20:00,
2013-03-11 13:21:00,79.4,23.2,29.53,ESE,112,5.5,8.8,12,-99.99,,,0.00,847,rob ver 1B,2013-03-11 20:21:00,
2013-03-11 13:22:00,77.5,23.6,29.59,NE,38,3.8,9.6,13,-99.99,,,0.00,850,rob ver 1A,2013-03-11 20:22:00,
2013-03-11 13:23:00,79.8,24.0,29.53,SE,125,4.0,8.1,12,-99.99,,,0.00,845,rob ver 1B,2013-03-11 20:23:00,
2013-03-11 13:24:00,80.2,23.7,29.53,East,98,5.8,7.2,12,-99.99,,,0.00,845,rob ver 1B,2013-03-11 20:24:00,
2013-03-11 13:25:00,79.9,23.5,29.53,East,98,4.8,6.6,12,-99.99,,,0.00,844,rob ver 1B,2013-03-11 20:25:00,
2013-03-11 13:26:00,79.8,23.5,29.53,ESE,110,4.9,6.5,12,-99.99,,,0.00,845,rob ver 1B,2013-03-11 20:26:00,
2013-03-11 13:27:00,77.0,23.5,29.59,North,354,6.5,8.1,13,-99.99,,,0.00,846,rob ver 1A,2013-03-11 20:27:00,
2013-03-11 13:28:00,80.0,23.6,29.53,SSW,202,5.9,8.6,12,-99.99,,,0.00,843,rob ver 1B,2013-03-11 20:28:00,
2013-03-11 13:29:00,80.2,23.7,29.53,South,173,5.4,7.4,12,-99.99,,,0.00,842,rob ver 1B,2013-03-11 20:29:00,
2013-03-11 13:30:00,80.0,23.5,29.53,SSE,155,4.6,6.2,12,-99.99,,,0.00,841,rob ver 1B,2013-03-11 20:30:00,
2013-03-11 13:31:00,79.9,23.4,29.53,SE,130,4.0,5.1,12,-99.99,,,0.00,841,rob ver 1B,2013-03-11 20:31:00,
2013-03-11 13:32:00,77.1,23.4,29.59,ENE,62,4.4,6.8,13,-99.99,,,0.00,841,rob ver 1A,2013-03-11 20:32:00,
2013-03-11 13:33:00,79.9,23.4,29.53,East,100,3.2,4.0,12,-99.99,,,0.00,838,rob ver 1B,2013-03-11 20:33:00,
2013-03-11 13:34:00,80.0,23.4,29.53,SE,125,4.1,5.4,12,-99.99,,,0.00,838,rob ver 1B,2013-03-11 20:34:00,
2013-03-11 13:35:00,80.0,23.5,29.53,SE,126,2.1,3.5,12,-99.99,,,0.00,838,rob ver 1B,2013-03-11 20:35:00,
2013-03-11 13:36:00,80.4,23.7,29.53,ESE,110,2.0,5.6,12,-99.99,,,0.00,836,rob ver 1B,2013-03-11 20:36:00,
2013-03-11 13:37:00,80.8,23.9,29.53,SE,128,4.6,5.7,12,-99.99,,,0.00,836,rob ver 1B,2013-03-11 20:37:00,
2013-03-11 13:38:00,76.7,23.4,29.59,ENE,57,3.7,5.1,13,-99.99,,,0.00,839,rob ver 1A,2013-03-11 20:38:00,
2013-03-11 13:39:00,80.7,23.4,29.53,SSE,162,2.9,4.3,11,-99.99,,,0.00,834,rob ver 1B,2013-03-11 20:39:00,
2013-03-11 13:40:00,80.8,23.6,29.53,East,92,3.9,5.8,11,-99.99,,,0.00,833,rob ver 1B,2013-03-11 20:40:00,
2013-03-11 13:41:00,81.1,23.5,29.53,East,85,4.0,6.6,11,-99.99,,,0.00,832,rob ver 1B,2013-03-11 20:41:00,
2013-03-11 13:42:00,81.0,23.6,29.53,NE,56,3.1,4.5,11,-99.99,,,0.00,832,rob ver 1B,2013-03-11 20:42:00,
2013-03-11 13:43:00,77.5,23.6,29.59,NNW,348,2.8,4.9,13,-99.99,,,0.00,832,rob ver 1A,2013-03-11 20:43:00,
2013-03-11 13:44:00,81.1,23.5,29.53,NNE,14,0.8,2.8,11,-99.99,,,0.00,830,rob ver 1B,2013-03-11 20:44:00,
2013-03-11 13:45:00,81.8,24.0,29.53,East,86,1.7,5.1,11,-99.99,,,0.00,828,rob ver 1B,2013-03-11 20:45:00,
2013-03-11 13:46:00,82.1,24.0,29.53,ENE,61,4.4,6.7,11,-99.99,,,0.00,827,rob ver 1B,2013-03-11 20:46:00,
2013-03-11 13:47:00,82.0,23.8,29.53,East,92,4.9,7.3,11,-99.99,,,0.00,826,rob ver 1B,2013-03-11 20:47:00,
2013-03-11 13:48:00,76.8,23.5,29.56,West,267,3.2,6.2,13,-99.99,,,0.00,828,rob ver 1A,2013-03-11 20:48:00,
2013-03-11 13:49:00,81.1,23.5,29.53,ENE,75,3.2,4.7,11,-99.99,,,0.00,824,rob ver 1B,2013-03-11 20:49:00,
2013-03-11 13:50:00,81.2,23.5,29.53,ESE,123,3.6,6.0,11,-99.99,,,0.00,822,rob ver 1B,2013-03-11 20:50:00,
2013-03-11 13:51:00,81.0,23.5,29.53,SE,130,4.1,6.9,11,-99.99,,,0.00,822,rob ver 1B,2013-03-11 20:51:00,
2013-03-11 13:52:00,81.1,23.5,29.53,SE,129,3.4,6.0,11,-99.99,,,0.00,822,rob ver 1B,2013-03-11 20:52:00,
2013-03-11 13:53:00,77.1,23.2,29.56,SSW,210,3.9,6.4,13,-99.99,,,0.00,822,rob ver 1A,2013-03-11 20:53:00,
2013-03-11 13:54:00,81.8,23.8,29.53,SE,124,1.4,3.5,11,-99.99,,,0.00,818,rob ver 1B,2013-03-11 20:54:00,
2013-03-11 13:55:00,82.1,23.7,29.53,SSE,162,3.2,4.5,11,-99.99,,,0.00,818,rob ver 1B,2013-03-11 20:55:00,
2013-03-11 13:56:00,82.0,23.6,29.53,South,170,1.8,3.4,11,-99.99,,,0.00,818,rob ver 1B,2013-03-11 20:56:00,
2013-03-11 13:57:00,82.3,23.9,29.53,South,171,3.4,4.6,11,-99.99,,,0.00,816,rob ver 1B,2013-03-11 20:57:00,
2013-03-11 13:58:00,78.6,23.6,29.56,WNW,302,10.0,11.9,12,-99.99,,,0.00,816,rob ver 1A,2013-03-11 20:58:00,
2013-03-11 13:59:00,82.3,23.6,29.50,ESE,116,1.3,2.1,11,-99.99,,,0.00,812,rob ver 1B,2013-03-11 20:59:00,
2013-03-11 14:00:00,82.5,23.9,29.50,South,172,2.7,4.0,11,-99.99,,,0.00,812,rob ver 1B,2013-03-11 21:00:00,
2013-03-11 14:01:00,82.7,23.9,29.50,SSW,202,3.4,5.1,11,-99.99,,,0.00,809,rob ver 1B,2013-03-11 21:01:00,
2013-03-11 14:02:00,82.8,23.7,29.50,WSW,240,4.9,6.5,11,-99.99,,,0.00,809,rob ver 1B,2013-03-11 21:02:00,
2013-03-11 14:03:00,77.8,23.4,29.56,WNW,288,8.7,10.8,13,-99.99,,,0.00,811,rob ver 1A,2013-03-11 21:03:00,
2013-03-11 14:04:00,82.2,23.7,29.50,SSW,197,3.2,5.5,11,-99.99,,,0.00,809,rob ver 1B,2013-03-11 21:04:00,
2013-03-11 14:05:00,82.3,23.8,29.50,WNW,299,2.7,4.8,11,-99.99,,,0.00,807,rob ver 1B,2013-03-11 21:05:00,
2013-03-11 14:06:00,82.6,24.0,29.50,North,4,2.1,3.0,11,-99.99,,,0.00,805,rob ver 1B,2013-03-11 21:06:00,
2013-03-11 14:07:00,82.9,24.5,29.50,SSW,210,3.8,5.7,11,-99.99,,,0.00,803,rob ver 1B,2013-03-11 21:07:00,
2013-03-11 14:08:00,77.4,23.6,29.56,NW,305,4.4,7.5,13,-99.99,,,0.00,803,rob ver 1A,2013-03-11 21:08:00,
2013-03-11 14:09:00,82.8,23.9,29.50,South,169,3.8,6.1,11,-99.99,,,0.00,800,rob ver 1B,2013-03-11 21:09:00,
2013-03-11 14:10:00,82.8,23.8,29.50,South,184,4.0,5.4,11,-99.99,,,0.00,799,rob ver 1B,2013-03-11 21:10:00,
2013-03-11 14:11:00,82.8,23.7,29.50,South,191,5.5,7.7,11,-99.99,,,0.00,797,rob ver 1B,2013-03-11 21:11:00,
2013-03-11 14:12:00,82.7,23.7,29.50,SW,220,5.1,7.8,11,-99.99,,,0.00,796,rob ver 1B,2013-03-11 21:12:00,
2013-03-11 14:13:00,77.7,24.0,29.56,West,265,9.0,13.0,13,-99.99,,,0.00,797,rob ver 1A,2013-03-11 21:13:00,
2013-03-11 14:14:00,82.4,23.8,29.50,SSE,153,3.9,5.9,11,-99.99,,,0.00,794,rob ver 1B,2013-03-11 21:14:00,
2013-03-11 14:15:00,82.5,23.8,29.50,SE,134,4.3,6.0,11,-99.99,,,0.00,792,rob ver 1B,2013-03-11 21:15:00,
2013-03-11 14:16:00,82.2,23.6,29.50,ESE,106,3.3,4.9,11,-99.99,,,0.00,791,rob ver 1B,2013-03-11 21:16:00,
2013-03-11 14:17:00,82.1,23.5,29.50,SE,138,4.5,6.5,11,-99.99,,,0.00,789,rob ver 1B,2013-03-11 21:17:00,
2013-03-11 14:18:00,77.8,23.8,29.56,West,261,6.5,8.8,13,-99.99,,,0.00,789,rob ver 1A,2013-03-11 21:18:00,
2013-03-11 14:19:00,82.3,23.8,29.50,NE,43,2.0,2.9,11,-99.99,,,0.00,785,rob ver 1B,2013-03-11 21:19:00,
2013-03-11 14:20:00,82.8,24.3,29.50,East,99,2.5,5.6,11,-99.99,,,0.00,783,rob ver 1B,2013-03-11 21:20:00,
2013-03-11 14:21:00,83.1,23.8,29.50,SW,223,5.8,8.0,11,-99.99,,,0.00,782,rob ver 1B,2013-03-11 21:21:00,
2013-03-11 14:22:00,82.7,23.7,29.50,SW,226,3.9,5.7,11,-99.99,,,0.00,781,rob ver 1B,2013-03-11 21:22:00,
2013-03-11 14:23:00,77.5,23.8,29.56,WSW,255,6.3,11.5,13,-99.99,,,0.00,781,rob ver 1A,2013-03-11 21:23:00,
2013-03-11 14:24:00,82.7,23.6,29.50,West,269,2.4,5.3,11,-99.99,,,0.00,776,rob ver 1B,2013-03-11 21:24:00,
2013-03-11 14:25:00,83.0,23.7,29.50,WSW,240,1.0,3.0,11,-99.99,,,0.00,775,rob ver 1B,2013-03-11 21:25:00,
2013-03-11 14:26:00,83.3,23.8,29.50,SSW,213,3.7,5.9,11,-99.99,,,0.00,773,rob ver 1B,2013-03-11 21:26:00,
2013-03-11 14:27:00,83.2,23.9,29.50,SSW,207,3.4,5.6,11,-99.99,,,0.00,772,rob ver 1B,2013-03-11 21:27:00,
2013-03-11 14:28:00,77.6,23.7,29.56,WSW,247,4.3,9.2,13,-99.99,,,0.00,771,rob ver 1A,2013-03-11 21:28:00,
2013-03-11 14:29:00,83.8,24.3,29.50,SSW,207,1.8,3.6,11,-99.99,,,0.00,770,rob ver 1B,2013-03-11 21:29:00,
2013-03-11 14:30:00,84.3,24.4,29.50,ESE,120,2.0,3.0,11,-99.99,,,0.00,768,rob ver 1B,2013-03-11 21:30:00,
2013-03-11 14:31:00,84.5,24.0,29.50,NNE,26,5.2,8.2,10,-99.99,,,0.00,766,rob ver 1B,2013-03-11 21:31:00,
2013-03-11 14:32:00,84.0,23.9,29.50,NNE,16,4.6,7.8,11,-99.99,,,0.00,764,rob ver 1B,2013-03-11 21:32:00,
2013-03-11 14:33:00,77.9,23.7,29.56,SW,231,7.2,9.7,13,-99.99,,,0.00,762,rob ver 1A,2013-03-11 21:33:00,
2013-03-11 14:34:00,83.5,23.8,29.50,NNE,26,2.2,5.0,11,-99.99,,,0.00,758,rob ver 1B,2013-03-11 21:34:00,
2013-03-11 14:35:00,83.7,24.1,29.50,ENE,71,1.4,2.7,11,-99.99,,,0.00,757,rob ver 1B,2013-03-11 21:35:00,
2013-03-11 14:36:00,84.2,24.1,29.50,North,0,2.2,4.6,10,-99.99,,,0.00,756,rob ver 1B,2013-03-11 21:36:00,
2013-03-11 14:37:00,84.4,24.3,29.50,NNE,21,4.1,5.6,11,-99.99,,,0.00,755,rob ver 1B,2013-03-11 21:37:00,
2013-03-11 14:38:00,84.5,24.3,29.50,NE,44,4.9,6.6,10,-99.99,,,0.00,752,rob ver 1B,2013-03-11 21:38:00,
2013-03-11 14:39:00,77.4,23.6,29.56,SSE,149,3.0,4.9,13,-99.99,,,0.00,752,rob ver 1A,2013-03-11 21:39:00,
2013-03-11 14:40:00,83.9,23.7,29.50,SW,229,2.3,3.8,10,-99.99,,,0.00,749,rob ver 1B,2013-03-11 21:40:00,
2013-03-11 14:41:00,83.6,23.8,29.50,SW,219,3.0,5.0,11,-99.99,,,0.00,746,rob ver 1B,2013-03-11 21:41:00,
2013-03-11 14:42:00,83.4,23.7,29.50,SSW,200,4.6,5.8,11,-99.99,,,0.00,745,rob ver 1B,2013-03-11 21:42:00,
2013-03-11 14:43:00,83.2,23.6,29.50,SSW,212,3.3,4.5,11,-99.99,,,0.00,742,rob ver 1B,2013-03-11 21:43:00,
2013-03-11 14:44:00,79.3,24.4,29.53,West,280,4.5,6.8,13,-99.99,,,0.00,744,rob ver 1A,2013-03-11 21:44:00,
2013-03-11 14:45:00,83.4,23.7,29.50,SSW,201,4.2,5.1,11,-99.99,,,0.00,739,rob ver 1B,2013-03-11 21:45:00,
2013-03-11 14:46:00,83.3,23.6,29.50,South,190,3.0,4.9,11,-99.99,,,0.00,737,rob ver 1B,2013-03-11 21:46:00,
2013-03-11 14:47:00,83.3,23.6,29.50,South,184,4.3,6.0,11,-99.99,,,0.00,735,rob ver 1B,2013-03-11 21:47:00,
2013-03-11 14:48:00,83.3,23.6,29.50,SW,227,3.3,6.2,11,-99.99,,,0.00,733,rob ver 1B,2013-03-11 21:48:00,
2013-03-11 14:49:00,78.3,23.7,29.56,WSW,252,7.1,10.4,13,-99.99,,,0.00,733,rob ver 1A,2013-03-11 21:49:00,
2013-03-11 14:50:00,83.1,23.6,29.50,South,177,3.1,4.9,11,-99.99,,,0.00,728,rob ver 1B,2013-03-11 21:50:00,
2013-03-11 14:51:00,83.0,23.7,29.50,SE,132,2.4,4.6,11,-99.99,,,0.00,726,rob ver 1B,2013-03-11 21:51:00,
2013-03-11 14:52:00,83.1,23.8,29.50,ESE,110,3.2,5.1,11,-99.99,,,0.00,725,rob ver 1B,2013-03-11 21:52:00,
2013-03-11 14:53:00,83.2,23.7,29.50,SE,131,3.5,5.9,11,-99.99,,,0.00,723,rob ver 1B,2013-03-11 21:53:00,
2013-03-11 14:54:00,78.6,23.8,29.53,SW,230,8.3,9.7,12,-99.99,,,0.00,721,rob ver 1A,2013-03-11 21:54:00,
2013-03-11 14:55:00,83.5,23.8,29.50,SW,229,7.6,9.4,11,-99.99,,,0.00,718,rob ver 1B,2013-03-11 21:55:00,
2013-03-11 14:56:00,83.2,23.6,29.50,SW,230,6.3,8.1,11,-99.99,,,0.00,715,rob ver 1B,2013-03-11 21:56:00,
2013-03-11 14:57:00,83.2,23.7,29.50,NW,318,3.5,5.2,11,-99.99,,,0.00,714,rob ver 1B,2013-03-11 21:57:00,
2013-03-11 14:58:00,83.4,23.8,29.50,NW,306,3.3,4.4,11,-99.99,,,0.00,711,rob ver 1B,2013-03-11 21:58:00,
2013-03-11 14:59:00,78.7,23.9,29.53,SW,233,10.4,13.8,12,-99.99,,,0.00,709,rob ver 1A,2013-03-11 21:59:00,
2013-03-11 15:00:00,83.7,23.9,29.50,NNW,344,1.6,2.8,11,-99.99,,,0.00,707,rob ver 1B,2013-03-11 22:00:00,
2013-03-11 15:01:00,84.0,24.1,29.47,ENE,67,1.9,3.9,11,-99.99,,,0.00,705,rob ver 1B,2013-03-11 22:01:00,
2013-03-11 15:02:00,84.3,24.3,29.50,SSW,200,2.8,5.7,11,-99.99,,,0.00,702,rob ver 1B,2013-03-11 22:02:00,
2013-03-11 15:03:00,84.3,23.8,29.50,South,189,5.8,7.7,10,-99.99,,,0.00,699.9,rob ver 1B,2013-03-11 22:03:00,
2013-03-11 15:04:00,77.9,23.6,29.53,WSW,237,5.0,7.5,13,-99.99,,,0.00,697.2,rob ver 1A,2013-03-11 22:04:00,
2013-03-11 15:05:00,83.9,24.0,29.50,SW,225,1.4,2.8,10,-99.99,,,0.00,696.2,rob ver 1B,2013-03-11 22:05:00,
2013-03-11 15:06:00,84.4,24.2,29.50,SSW,193,4.3,5.9,11,-99.99,,,0.00,693.4,rob ver 1B,2013-03-11 22:06:00,
2013-03-11 15:07:00,84.5,24.0,29.47,SSE,159,6.2,8.1,10,-99.99,,,0.00,691.3,rob ver 1B,2013-03-11 22:07:00,
2013-03-11 15:08:00,83.8,23.6,29.47,SE,145,3.2,4.3,11,-99.99,,,0.00,688.8,rob ver 1B,2013-03-11 22:08:00,
2013-03-11 15:09:00,78.2,23.5,29.53,SW,224,6.1,9.3,13,-99.99,,,0.00,684.6,rob ver 1A,2013-03-11 22:09:00,
2013-03-11 15:10:00,84.3,23.9,29.47,East,91,1.8,3.4,10,-99.99,,,0.00,683.7,rob ver 1B,2013-03-11 22:10:00,
2013-03-11 15:11:00,84.8,24.2,29.47,East,92,2.4,3.5,10,-99.99,,,0.00,681.3,rob ver 1B,2013-03-11 22:11:00,
2013-03-11 15:12:00,84.9,24.1,29.47,SE,144,3.6,4.7,10,-99.99,,,0.00,679.3,rob ver 1B,2013-03-11 22:12:00,
2013-03-11 15:13:00,84.7,24.1,29.47,SSW,204,4.1,5.4,10,-99.99,,,0.00,677,rob ver 1B,2013-03-11 22:13:00,
2013-03-11 15:14:00,78.8,23.6,29.53,WSW,254,6.7,9.3,12,-99.99,,,0.00,673.7,rob ver 1A,2013-03-11 22:14:00,
2013-03-11 15:15:00,84.7,23.9,29.47,SSW,209,7.2,9.8,10,-99.99,,,0.00,672.6,rob ver 1B,2013-03-11 22:15:00,
2013-03-11 15:16:00,84.4,23.8,29.47,SSW,197,5.5,7.4,10,-99.99,,,0.00,670.4,rob ver 1B,2013-03-11 22:16:00,
2013-03-11 15:17:00,84.1,23.8,29.47,South,178,5.4,7.3,10,-99.99,,,0.00,667.5,rob ver 1B,2013-03-11 22:17:00,
2013-03-11 15:18:00,84.0,23.7,29.47,SSE,167,4.5,6.8,10,-99.99,,,0.00,665.4,rob ver 1B,2013-03-11 22:18:00,
2013-03-11 15:19:00,78.9,24.0,29.53,West,280,7.3,10.2,12,-99.99,,,0.00,661.1,rob ver 1A,2013-03-11 22:19:00,
2013-03-11 15:20:00,83.9,23.6,29.47,SSE,150,3.8,6.4,10,-99.99,,,0.00,660.3,rob ver 1B,2013-03-11 22:20:00,
2013-03-11 15:21:00,83.8,23.7,29.47,ESE,111,3.2,4.9,10,-99.99,,,0.00,657.2,rob ver 1B,2013-03-11 22:21:00,
2013-03-11 15:22:00,83.9,23.8,29.47,ESE,111,6.1,8.3,10,-99.99,,,0.00,655.4,rob ver 1B,2013-03-11 22:22:00,
2013-03-11 15:23:00,83.8,23.9,29.47,SSE,163,3.7,7.3,11,-99.99,,,0.00,653.1,rob ver 1B,2013-03-11 22:23:00,
2013-03-11 15:24:00,84.3,24.2,29.47,SW,230,6.9,9.9,10,-99.99,,,0.00,650.8,rob ver 1B,2013-03-11 22:24:00,
2013-03-11 15:25:00,79.1,23.7,29.53,WSW,256,3.5,6.9,12,-99.99,,,0.00,648.5,rob ver 1A,2013-03-11 22:25:00,
2013-03-11 15:26:00,84.3,23.9,29.47,WSW,241,4.6,6.8,10,-99.99,,,0.00,645,rob ver 1B,2013-03-11 22:26:00,
2013-03-11 15:27:00,84.2,24.0,29.47,West,277,3.1,4.9,10,-99.99,,,0.00,641.8,rob ver 1B,2013-03-11 22:27:00,
2013-03-11 15:28:00,84.4,24.1,29.47,WNW,290,3.0,4.9,10,-99.99,,,0.00,638.5,rob ver 1B,2013-03-11 22:28:00,
2013-03-11 15:29:00,84.6,24.3,29.47,SSW,192,4.1,6.4,10,-99.99,,,0.00,637,rob ver 1B,2013-03-11 22:29:00,
2013-03-11 15:30:00,78.9,23.2,29.53,West,271,5.6,8.8,12,-99.99,,,0.00,634.1,rob ver 1A,2013-03-11 22:30:00,
2013-03-11 15:31:00,84.9,24.1,29.47,WSW,242,5.3,7.5,10,-99.99,,,0.00,631.8,rob ver 1B,2013-03-11 22:31:00,
2013-03-11 15:32:00,84.5,24.1,29.47,WSW,246,5.1,8.2,11,-99.99,,,0.00,628.5,rob ver 1B,2013-03-11 22:32:00,
2013-03-11 15:33:00,84.9,24.2,29.47,West,266,6.8,9.5,10,-99.99,,,0.00,626.2,rob ver 1B,2013-03-11 22:33:00,
2013-03-11 15:34:00,84.7,24.1,29.47,WSW,258,6.5,9.6,10,-99.99,,,0.00,622.4,rob ver 1B,2013-03-11 22:34:00,
2013-03-11 15:35:00,79.4,23.3,29.53,WSW,240,10.4,13.3,12,-99.99,,,0.00,622.3,rob ver 1A,2013-03-11 22:35:00,
2013-03-11 15:36:00,84.7,24.1,29.47,WSW,256,4.2,6.2,11,-99.99,,,0.00,617.4,rob ver 1B,2013-03-11 22:36:00,
2013-03-11 15:37:00,84.7,24.3,29.47,WSW,253,2.2,3.9,10,-99.99,,,0.00,615.6,rob ver 1B,2013-03-11 22:37:00,
2013-03-11 15:38:00,85.2,24.5,29.47,NE,47,1.2,2.6,10,-99.99,,,0.00,611.5,rob ver 1B,2013-03-11 22:38:00,
2013-03-11 15:39:00,85.9,24.6,29.47,West,272,2.1,4.7,10,-99.99,,,0.00,609.2,rob ver 1B,2013-03-11 22:39:00,
2013-03-11 15:40:00,79.2,23.5,29.53,SW,231,7.6,10.1,12,-99.99,,,0.00,606.6,rob ver 1A,2013-03-11 22:40:00,
2013-03-11 15:41:00,86.4,24.5,29.47,West,272,1.7,2.7,10,-99.99,,,0.00,602.9,rob ver 1B,2013-03-11 22:41:00,
2013-03-11 15:42:00,86.7,24.8,29.47,West,265,2.0,4.0,10,-99.99,,,0.00,600.6,rob ver 1B,2013-03-11 22:42:00,
2013-03-11 15:43:00,86.9,24.9,29.47,WSW,237,4.1,5.6,10,-99.99,,,0.00,597,rob ver 1B,2013-03-11 22:43:00,
2013-03-11 15:44:00,86.5,24.6,29.47,West,275,5.0,7.6,10,-99.99,,,0.00,594.6,rob ver 1B,2013-03-11 22:44:00,
2013-03-11 15:45:00,79.5,23.2,29.53,SSW,205,5.9,8.9,12,-99.99,,,0.00,592.6,rob ver 1A,2013-03-11 22:45:00,
2013-03-11 15:46:00,86.4,24.7,29.47,SW,223,4.7,7.5,10,-99.99,,,0.00,589,rob ver 1B,2013-03-11 22:46:00,
2013-03-11 15:47:00,86.0,24.3,29.47,SSW,208,5.4,7.1,10,-99.99,,,0.00,584.6,rob ver 1B,2013-03-11 22:47:00,
2013-03-11 15:48:00,85.6,24.2,29.47,SSW,208,4.8,8.2,10,-99.99,,,0.00,583.4,rob ver 1B,2013-03-11 22:48:00,
2013-03-11 15:49:00,85.8,24.5,29.47,NW,325,11.9,24.9,10,-99.99,,,0.00,580.8,rob ver 1B,2013-03-11 22:49:00,
2013-03-11 15:50:00,80.1,23.6,29.53,North,2,1.4,2.9,12,-99.99,,,0.00,578.5,rob ver 1A,2013-03-11 22:50:00,
2013-03-11 15:51:00,86.0,24.3,29.47,WNW,302,5.5,8.1,10,-99.99,,,0.00,573.6,rob ver 1B,2013-03-11 22:51:00,
2013-03-11 15:52:00,85.8,24.3,29.47,NNW,334,5.9,8.1,10,-99.99,,,0.00,572.3,rob ver 1B,2013-03-11 22:52:00,
2013-03-11 15:53:00,85.7,24.3,29.47,NW,326,5.5,7.4,10,-99.99,,,0.00,568.4,rob ver 1B,2013-03-11 22:53:00,
2013-03-11 15:54:00,85.6,24.2,29.47,NNW,336,5.8,8.8,10,-99.99,,,0.00,566.6,rob ver 1B,2013-03-11 22:54:00,
2013-03-11 15:55:00,79.8,22.6,29.53,NNW,327,6.9,8.2,12,-99.99,,,0.00,564.4,rob ver 1A,2013-03-11 22:55:00,
2013-03-11 15:56:00,85.6,24.2,29.47,NNW,336,6.6,8.7,10,-99.99,,,0.00,560.2,rob ver 1B,2013-03-11 22:56:00,
2013-03-11 15:57:00,85.6,24.2,29.47,NNW,331,7.1,8.9,10,-99.99,,,0.00,556.7,rob ver 1B,2013-03-11 22:57:00,
2013-03-11 15:58:00,85.6,23.9,29.47,NNW,334,6.6,9.6,10,-99.99,,,0.00,553.6,rob ver 1B,2013-03-11 22:58:00,
2013-03-11 15:59:00,85.6,24.3,29.47,NNW,337,8.6,11.8,10,-99.99,,,0.00,552.2,rob ver 1B,2013-03-11 22:59:00,
2013-03-11 16:00:00,80.2,23.0,29.50,WSW,256,10.1,12.2,12,-99.99,,,0.00,548.9,rob ver 1A,2013-03-11 23:00:00,
2013-03-11 16:01:00,85.9,24.2,29.47,NNW,336,7.9,10.2,10,-99.99,,,0.00,544.8,rob ver 1B,2013-03-11 23:01:00,
2013-03-11 16:02:00,85.8,24.2,29.47,NNW,334,6.8,8.5,10,-99.99,,,0.00,542.2,rob ver 1B,2013-03-11 23:02:00,
2013-03-11 16:03:00,85.7,24.1,29.47,North,356,5.2,7.2,10,-99.99,,,0.00,538.2,rob ver 1B,2013-03-11 23:03:00,
2013-03-11 16:04:00,85.7,24.2,29.47,NNE,15,4.2,6.7,10,-99.99,,,0.00,535,rob ver 1B,2013-03-11 23:04:00,
2013-03-11 16:05:00,85.8,24.2,29.47,NNW,341,5.1,7.2,10,-99.99,,,0.00,532.5,rob ver 1B,2013-03-11 23:05:00,
2013-03-11 16:06:00,79.5,22.7,29.50,NW,318,3.4,5.7,12,-99.99,,,0.00,530.4,rob ver 1A,2013-03-11 23:06:00,
2013-03-11 16:07:00,85.5,24.7,29.47,WNW,293,6.0,9.0,10,-99.99,,,0.00,524.8,rob ver 1B,2013-03-11 23:07:00,
2013-03-11 16:08:00,85.5,24.5,29.47,West,272,8.0,10.9,10,-99.99,,,0.00,523.8,rob ver 1B,2013-03-11 23:08:00,
2013-03-11 16:09:00,85.1,24.4,29.47,WNW,283,8.1,11.4,10,-99.99,,,0.00,519.6,rob ver 1B,2013-03-11 23:09:00,
2013-03-11 16:10:00,84.6,24.2,29.47,West,263,7.9,11.7,11,-99.99,,,0.00,516.8,rob ver 1B,2013-03-11 23:10:00,
2013-03-11 16:11:00,79.7,22.0,29.50,WNW,298,4.7,6.4,11,-99.99,,,0.00,516.3,rob ver 1A,2013-03-11 23:11:00,
2013-03-11 16:12:00,84.8,24.4,29.47,WSW,257,7.8,9.8,10,-99.99,,,0.00,510.4,rob ver 1B,2013-03-11 23:12:00,
2013-03-11 16:13:00,85.0,24.2,29.47,WSW,250,8.3,11.9,10,-99.99,,,0.00,507.6,rob ver 1B,2013-03-11 23:13:00,
2013-03-11 16:14:00,84.6,24.2,29.47,WSW,240,4.4,6.3,11,-99.99,,,0.00,504.6,rob ver 1B,2013-03-11 23:14:00,
2013-03-11 16:15:00,84.6,24.1,29.47,SW,236,3.3,5.2,10,-99.99,,,0.00,500.2,rob ver 1B,2013-03-11 23:15:00,
2013-03-11 16:16:00,79.6,22.0,29.50,WNW,290,4.8,5.9,11,-99.99,,,0.00,500.2,rob ver 1A,2013-03-11 23:16:00,
2013-03-11 16:17:00,84.8,24.3,29.47,WSW,237,7.4,10.6,10,-99.99,,,0.00,493.8,rob ver 1B,2013-03-11 23:17:00,
2013-03-11 16:18:00,84.7,24.2,29.47,SW,225,5.7,8.4,11,-99.99,,,0.00,491.2,rob ver 1B,2013-03-11 23:18:00,
2013-03-11 16:19:00,84.6,24.2,29.47,SSW,210,3.8,5.7,10,-99.99,,,0.00,488.1,rob ver 1B,2013-03-11 23:19:00,
2013-03-11 16:20:00,84.7,24.3,29.47,SW,223,4.6,6.9,10,-99.99,,,0.00,484.5,rob ver 1B,2013-03-11 23:20:00,
2013-03-11 16:21:00,80.2,21.4,29.50,WNW,285,12.8,15.3,11,-99.99,,,0.00,483.8,rob ver 1A,2013-03-11 23:21:00,
2013-03-11 16:22:00,84.9,24.2,29.47,SW,232,8.5,11.0,10,-99.99,,,0.00,477.5,rob ver 1B,2013-03-11 23:22:00,
2013-03-11 16:23:00,84.7,24.2,29.47,SW,226,4.8,6.6,10,-99.99,,,0.00,473.7,rob ver 1B,2013-03-11 23:23:00,
2013-03-11 16:24:00,84.8,24.2,29.47,SW,236,8.2,12.6,10,-99.99,,,0.00,470.7,rob ver 1B,2013-03-11 23:24:00,
2013-03-11 16:25:00,84.6,24.1,29.47,WSW,238,7.2,9.5,10,-99.99,,,0.00,467.5,rob ver 1B,2013-03-11 23:25:00,
2013-03-11 16:26:00,80.1,21.5,29.50,NW,320,5.7,7.8,11,-99.99,,,0.00,467,rob ver 1A,2013-03-11 23:26:00,
2013-03-11 16:27:00,84.6,24.2,29.47,SW,233,6.9,8.6,10,-99.99,,,0.00,461.1,rob ver 1B,2013-03-11 23:27:00,
2013-03-11 16:28:00,84.8,24.2,29.47,SW,223,6.3,7.9,10,-99.99,,,0.00,458.1,rob ver 1B,2013-03-11 23:28:00,
2013-03-11 16:29:00,84.7,24.3,29.47,WSW,241,4.4,5.9,10,-99.99,,,0.00,454,rob ver 1B,2013-03-11 23:29:00,
2013-03-11 16:30:00,84.8,24.5,29.47,WSW,251,6.5,11.1,10,-99.99,,,0.00,451.9,rob ver 1B,2013-03-11 23:30:00,
2013-03-11 16:31:00,80.6,21.8,29.50,SW,233,8.2,11.1,11,-99.99,,,0.00,451.1,rob ver 1A,2013-03-11 23:31:00,
2013-03-11 16:32:00,84.9,24.5,29.47,West,277,8.3,10.0,10,-99.99,,,0.00,444.9,rob ver 1B,2013-03-11 23:32:00,
2013-03-11 16:33:00,85.1,24.6,29.47,West,263,8.7,10.3,10,-99.99,,,0.00,440.3,rob ver 1B,2013-03-11 23:33:00,
2013-03-11 16:34:00,85.3,24.5,29.47,WSW,256,8.7,10.1,10,-99.99,,,0.00,437.8,rob ver 1B,2013-03-11 23:34:00,
2013-03-11 16:35:00,85.3,24.3,29.47,West,278,9.1,13.3,10,-99.99,,,0.00,435,rob ver 1B,2013-03-11 23:35:00,
2013-03-11 16:36:00,80.6,20.0,29.50,NW,322,12.4,16.6,10,-99.99,,,0.00,434.7,rob ver 1A,2013-03-11 23:36:00,
2013-03-11 16:37:00,84.9,24.4,29.47,West,272,6.7,8.9,10,-99.99,,,0.00,426.9,rob ver 1B,2013-03-11 23:37:00,
2013-03-11 16:38:00,84.9,24.3,29.47,WSW,255,8.8,12.1,10,-99.99,,,0.00,423.9,rob ver 1B,2013-03-11 23:38:00,
2013-03-11 16:39:00,84.6,24.3,29.47,SW,235,4.4,7.0,11,-99.99,,,0.00,421,rob ver 1B,2013-03-11 23:39:00,
2013-03-11 16:40:00,84.6,24.4,29.47,SSW,211,5.5,7.5,11,-99.99,,,0.00,417.7,rob ver 1B,2013-03-11 23:40:00,
2013-03-11 16:41:00,80.0,19.6,29.50,NNW,327,9.4,11.2,10,-99.99,,,0.00,414.2,rob ver 1A,2013-03-11 23:41:00,
2013-03-11 16:42:00,84.7,24.3,29.47,WSW,241,4.4,7.7,11,-99.99,,,0.00,410.6,rob ver 1B,2013-03-11 23:42:00,
2013-03-11 16:43:00,84.8,24.5,29.47,WSW,241,5.9,12.1,11,-99.99,,,0.00,407.2,rob ver 1B,2013-03-11 23:43:00,
2013-03-11 16:44:00,84.9,24.5,29.47,WSW,252,9.0,13.6,11,-99.99,,,0.00,403.3,rob ver 1B,2013-03-11 23:44:00,
2013-03-11 16:45:00,84.9,24.4,29.47,SW,235,8.9,11.0,10,-99.99,,,0.00,400,rob ver 1B,2013-03-11 23:45:00,
2013-03-11 16:46:00,84.9,24.4,29.47,SW,236,7.2,12.6,10,-99.99,,,0.00,396.6,rob ver 1B,2013-03-11 23:46:00,
2013-03-11 16:47:00,80.5,20.4,29.50,NW,319,8.4,10.1,10,-99.99,,,0.00,395.5,rob ver 1A,2013-03-11 23:47:00,
2013-03-11 16:48:00,84.5,24.2,29.47,WSW,239,6.0,8.2,10,-99.99,,,0.00,389.2,rob ver 1B,2013-03-11 23:48:00,
2013-03-11 16:49:00,84.8,24.4,29.47,WSW,254,6.7,11.3,10,-99.99,,,0.00,386.1,rob ver 1B,2013-03-11 23:49:00,
2013-03-11 16:50:00,84.8,24.4,29.47,WSW,248,8.0,10.3,10,-99.99,,,0.00,382.5,rob ver 1B,2013-03-11 23:50:00,
2013-03-11 16:51:00,84.6,24.4,29.47,WSW,239,7.2,9.4,10,-99.99,,,0.00,379,rob ver 1B,2013-03-11 23:51:00,
2013-03-11 16:52:00,80.0,20.1,29.50,NW,320,11.5,13.6,10,-99.99,,,0.00,378,rob ver 1A,2013-03-11 23:52:00,
2013-03-11 16:53:00,84.5,24.3,29.47,WSW,237,2.7,3.9,11,-99.99,,,0.00,371.5,rob ver 1B,2013-03-11 23:53:00,
2013-03-11 16:54:00,84.8,24.4,29.47,SW,236,4.5,7.9,10,-99.99,,,0.00,368.2,rob ver 1B,2013-03-11 23:54:00,
2013-03-11 16:55:00,85.0,24.6,29.47,WSW,248,8.9,11.1,10,-99.99,,,0.00,364.9,rob ver 1B,2013-03-11 23:55:00,
2013-03-11 16:56:00,85.3,24.6,29.47,West,261,8.3,10.2,10,-99.99,,,0.00,361.5,rob ver 1B,2013-03-11 23:56:00,
2013-03-11 16:57:00,80.2,20.4,29.50,NW,313,11.1,14.2,10,-99.99,,,0.00,361,rob ver 1A,2013-03-11 23:57:00,
2013-03-11 16:58:00,85.0,24.4,29.47,WSW,256,9.2,11.9,10,-99.99,,,0.00,354.3,rob ver 1B,2013-03-11 23:58:00,
2013-03-11 16:59:00,85.1,24.6,29.47,WSW,240,7.1,9.8,10,-99.99,,,0.00,350.5,rob ver 1B,2013-03-11 23:59:00,
2013-03-11 17:00:00,85.3,24.4,29.47,WSW,252,8.5,11.2,10,-99.99,,,0.00,346.4,rob ver 1B,2013-03-12 00:00:00,
2013-03-11 17:01:00,85.1,24.2,29.47,West,263,6.2,8.8,10,-99.99,,,0.00,343,rob ver 1B,2013-03-12 00:01:00,
2013-03-11 17:02:00,80.3,20.5,29.50,NW,316,9.9,11.5,10,-99.99,,,0.00,341.8,rob ver 1A,2013-03-12 00:02:00,
2013-03-11 17:03:00,84.9,24.3,29.47,SW,235,5.2,7.2,10,-99.99,,,0.00,335.8,rob ver 1B,2013-03-12 00:03:00,
2013-03-11 17:04:00,84.9,24.3,29.47,WSW,248,7.2,9.4,10,-99.99,,,0.00,331.4,rob ver 1B,2013-03-12 00:04:00,
2013-03-11 17:05:00,85.1,24.4,29.47,West,260,7.0,8.5,10,-99.99,,,0.00,327.8,rob ver 1B,2013-03-12 00:05:00,
2013-03-11 17:06:00,85.2,24.3,29.47,WSW,249,8.2,10.5,10,-99.99,,,0.00,324.3,rob ver 1B,2013-03-12 00:06:00,
2013-03-11 17:07:00,80.2,20.2,29.47,WNW,302,14.3,17.6,10,-99.99,,,0.00,323.6,rob ver 1A,2013-03-12 00:07:00,
2013-03-11 17:08:00,85.2,24.2,29.47,WSW,248,6.8,9.4,10,-99.99,,,0.00,317.4,rob ver 1B,2013-03-12 00:08:00,
2013-03-11 17:09:00,85.2,24.3,29.47,WSW,249,9.7,12.2,10,-99.99,,,0.00,314.2,rob ver 1B,2013-03-12 00:09:00,
2013-03-11 17:10:00,84.9,24.2,29.47,WSW,250,7.5,9.9,10,-99.99,,,0.00,310.6,rob ver 1B,2013-03-12 00:10:00,
2013-03-11 17:11:00,84.8,24.2,29.47,SW,235,4.9,7.5,10,-99.99,,,0.00,306.3,rob ver 1B,2013-03-12 00:11:00,
2013-03-11 17:12:00,80.1,20.2,29.47,NW,320,10.8,13.9,10,-99.99,,,0.00,304.8,rob ver 1A,2013-03-12 00:12:00,
2013-03-11 17:13:00,84.8,24.3,29.47,West,261,7.6,9.5,10,-99.99,,,0.00,299.6,rob ver 1B,2013-03-12 00:13:00,
2013-03-11 17:14:00,84.9,24.4,29.47,West,269,8.7,11.8,10,-99.99,,,0.00,295.5,rob ver 1B,2013-03-12 00:14:00,
2013-03-11 17:15:00,85.0,24.5,29.47,WSW,247,7.9,10.0,10,-99.99,,,0.00,292.2,rob ver 1B,2013-03-12 00:15:00,
2013-03-11 17:16:00,85.0,24.4,29.47,WSW,254,8.4,11.2,10,-99.99,,,0.00,288.9,rob ver 1B,2013-03-12 00:16:00,
2013-03-11 17:17:00,79.9,19.8,29.47,NW,308,11.0,13.6,10,-99.99,,,0.00,282.8,rob ver 1A,2013-03-12 00:17:00,
2013-03-11 17:18:00,84.9,24.5,29.47,WSW,255,6.8,9.4,10,-99.99,,,0.00,281.4,rob ver 1B,2013-03-12 00:18:00,
2013-03-11 17:19:00,85.2,24.5,29.47,West,268,8.9,10.4,10,-99.99,,,0.00,278,rob ver 1B,2013-03-12 00:19:00,
2013-03-11 17:20:00,85.1,24.3,29.47,WNW,282,9.1,11.4,10,-99.99,,,0.00,273.7,rob ver 1B,2013-03-12 00:20:00,
2013-03-11 17:21:00,84.8,24.2,29.47,WNW,287,7.9,9.8,10,-99.99,,,0.00,270.3,rob ver 1B,2013-03-12 00:21:00,
2013-03-11 17:22:00,84.8,24.3,29.47,WNW,301,6.9,8.7,10,-99.99,,,0.00,266.3,rob ver 1B,2013-03-12 00:22:00,
2013-03-11 17:23:00,79.8,20.0,29.47,NW,309,12.0,14.0,10,-99.99,,,0.00,264.3,rob ver 1A,2013-03-12 00:23:00,
2013-03-11 17:24:00,84.9,24.3,29.47,WNW,282,5.7,8.0,10,-99.99,,,0.00,259.2,rob ver 1B,2013-03-12 00:24:00,
2013-03-11 17:25:00,85.0,24.3,29.47,West,265,8.4,10.8,10,-99.99,,,0.00,255.9,rob ver 1B,2013-03-12 00:25:00,
2013-03-11 17:26:00,85.0,24.3,29.47,WSW,256,8.8,10.7,10,-99.99,,,0.00,252.1,rob ver 1B,2013-03-12 00:26:00,
2013-03-11 17:27:00,85.0,24.2,29.47,West,263,8.2,10.3,10,-99.99,,,0.00,248.7,rob ver 1B,2013-03-12 00:27:00,
2013-03-11 17:28:00,79.7,20.1,29.47,NW,305,12.1,14.9,10,-99.99,,,0.00,246,rob ver 1A,2013-03-12 00:28:00,
2013-03-11 17:29:00,84.7,24.1,29.47,West,266,9.5,11.0,10,-99.99,,,0.00,241,rob ver 1B,2013-03-12 00:29:00,
2013-03-11 17:30:00,84.6,24.1,29.47,WSW,255,7.8,10.6,11,-99.99,,,0.00,237.5,rob ver 1B,2013-03-12 00:30:00,
2013-03-11 17:31:00,84.5,24.1,29.47,WSW,252,8.4,10.2,10,-99.99,,,0.00,233.9,rob ver 1B,2013-03-12 00:31:00,
2013-03-11 17:32:00,84.5,24.1,29.47,WSW,250,7.6,9.0,10,-99.99,,,0.00,230.3,rob ver 1B,2013-03-12 00:32:00,
2013-03-11 17:33:00,79.1,19.5,29.47,WNW,288,12.8,14.9,10,-99.99,,,0.00,228,rob ver 1A,2013-03-12 00:33:00,
2013-03-11 17:34:00,84.7,24.3,29.47,WSW,249,8.1,10.5,10,-99.99,,,0.00,223.1,rob ver 1B,2013-03-12 00:34:00,
2013-03-11 17:35:00,84.6,24.3,29.47,WSW,254,7.3,9.2,10,-99.99,,,0.00,219.9,rob ver 1B,2013-03-12 00:35:00,
2013-03-11 17:36:00,84.5,24.3,29.47,West,272,9.6,11.9,10,-99.99,,,0.00,216.1,rob ver 1B,2013-03-12 00:36:00,
2013-03-11 17:37:00,84.5,24.2,29.47,West,265,11.0,13.2,10,-99.99,,,0.00,212.6,rob ver 1B,2013-03-12 00:37:00,
2013-03-11 17:38:00,79.1,19.4,29.50,West,281,11.6,13.5,10,-99.99,,,0.00,209.9,rob ver 1A,2013-03-12 00:38:00,
2013-03-11 17:39:00,84.3,24.2,29.47,West,259,9.7,12.0,11,-99.99,,,0.00,205.3,rob ver 1B,2013-03-12 00:39:00,
2013-03-11 17:40:00,84.3,24.2,29.47,West,268,8.6,10.6,11,-99.99,,,0.00,201.5,rob ver 1B,2013-03-12 00:40:00,
2013-03-11 17:41:00,84.3,24.2,29.47,West,269,10.4,12.2,10,-99.99,,,0.00,198.6,rob ver 1B,2013-03-12 00:41:00,
2013-03-11 17:42:00,84.2,24.1,29.47,West,263,9.4,11.3,10,-99.99,,,0.00,194.6,rob ver 1B,2013-03-12 00:42:00,
2013-03-11 17:43:00,79.1,20.1,29.47,WNW,292,11.3,13.9,11,-99.99,,,0.00,191.4,rob ver 1A,2013-03-12 00:43:00,
2013-03-11 17:44:00,84.3,24.2,29.47,WSW,245,7.3,9.0,11,-99.99,,,0.00,187.6,rob ver 1B,2013-03-12 00:44:00,
2013-03-11 17:45:00,84.4,24.2,29.47,WSW,247,7.6,9.8,11,-99.99,,,0.00,184,rob ver 1B,2013-03-12 00:45:00,
2013-03-11 17:46:00,84.5,24.2,29.47,WSW,251,7.9,10.4,11,-99.99,,,0.00,180.2,rob ver 1B,2013-03-12 00:46:00,
2013-03-11 17:47:00,84.5,24.2,29.47,West,259,9.3,11.3,10,-99.99,,,0.00,176.9,rob ver 1B,2013-03-12 00:47:00,
2013-03-11 17:48:00,78.8,20.6,29.47,WNW,303,13.5,16.8,11,-99.99,,,0.00,173.7,rob ver 1A,2013-03-12 00:48:00,
2013-03-11 17:49:00,84.3,24.0,29.47,WSW,245,5.9,8.2,10,-99.99,,,0.00,169.7,rob ver 1B,2013-03-12 00:49:00,
2013-03-11 17:50:00,84.3,24.2,29.47,WSW,239,6.4,8.9,11,-99.99,,,0.00,166.1,rob ver 1B,2013-03-12 00:50:00,
2013-03-11 17:51:00,84.4,24.2,29.47,WSW,241,8.4,10.1,10,-99.99,,,0.00,162.8,rob ver 1B,2013-03-12 00:51:00,
2013-03-11 17:52:00,84.4,24.1,29.47,WSW,249,9.4,10.6,11,-99.99,,,0.00,159.2,rob ver 1B,2013-03-12 00:52:00,
2013-03-11 17:53:00,78.8,21.0,29.50,WNW,283,10.1,13.0,11,-99.99,,,0.00,156.7,rob ver 1A,2013-03-12 00:53:00,
2013-03-11 17:54:00,84.3,24.1,29.47,WSW,254,8.8,10.6,11,-99.99,,,0.00,152.5,rob ver 1B,2013-03-12 00:54:00,
2013-03-11 17:55:00,84.3,24.2,29.47,West,264,9.5,11.9,11,-99.99,,,0.00,149.1,rob ver 1B,2013-03-12 00:55:00,
2013-03-11 17:56:00,84.2,24.3,29.47,West,269,10.3,11.6,11,-99.99,,,0.00,145.6,rob ver 1B,2013-03-12 00:56:00,
2013-03-11 17:57:00,84.2,24.3,29.47,West,272,9.9,12.0,11,-99.99,,,0.00,142.5,rob ver 1B,2013-03-12 00:57:00,
2013-03-11 17:58:00,78.6,20.8,29.47,NW,304,11.9,14.6,11,-99.99,,,0.00,139.3,rob ver 1A,2013-03-12 00:58:00,
2013-03-11 17:59:00,84.1,24.2,29.47,WSW,258,9.8,11.2,11,-99.99,,,0.00,135.7,rob ver 1B,2013-03-12 00:59:00,
2013-03-11 18:00:00,84.0,24.1,29.47,WSW,257,10.9,13.8,11,-99.99,,,0.00,132.5,rob ver 1B,2013-03-12 01:00:00,
2013-03-11 18:01:00,83.8,24.0,29.47,WSW,255,9.1,10.4,11,-99.99,,,0.00,129.1,rob ver 1B,2013-03-12 01:01:00,
2013-03-11 18:02:00,83.8,24.2,29.47,WSW,251,8.7,10.4,11,-99.99,,,0.00,125.8,rob ver 1B,2013-03-12 01:02:00,
2013-03-11 18:03:00,78.4,21.0,29.47,WNW,283,11.9,14.9,11,-99.99,,,0.00,119.7,rob ver 1A,2013-03-12 01:03:00,
2013-03-11 18:04:00,83.7,24.1,29.47,WSW,251,10.4,12.3,11,-99.99,,,0.00,119.3,rob ver 1B,2013-03-12 01:04:00,
2013-03-11 18:05:00,83.7,24.1,29.47,WSW,252,10.5,11.8,11,-99.99,,,0.00,116,rob ver 1B,2013-03-12 01:05:00,
2013-03-11 18:06:00,83.6,24.0,29.47,WSW,253,8.9,10.8,11,-99.99,,,0.00,112.7,rob ver 1B,2013-03-12 01:06:00,
2013-03-11 18:07:00,83.6,24.0,29.47,WSW,241,9.8,12.6,11,-99.99,,,0.00,109.4,rob ver 1B,2013-03-12 01:07:00,
2013-03-11 18:08:00,78.3,21.0,29.47,WNW,297,10.3,12.4,11,-99.99,,,0.00,102.9,rob ver 1A,2013-03-12 01:08:00,
2013-03-11 18:09:00,83.7,24.2,29.47,WSW,240,9.5,11.0,11,-99.99,,,0.00,103.4,rob ver 1B,2013-03-12 01:09:00,
2013-03-11 18:10:00,83.6,24.3,29.47,WSW,251,7.5,10.1,11,-99.99,,,0.00,100.3,rob ver 1B,2013-03-12 01:10:00,
2013-03-11 18:11:00,83.7,24.3,29.47,West,259,8.3,10.5,11,-99.99,,,0.00,97.2,rob ver 1B,2013-03-12 01:11:00,
2013-03-11 18:12:00,83.7,24.3,29.47,WSW,255,8.6,12.2,11,-99.99,,,0.00,94,rob ver 1B,2013-03-12 01:12:00,
2013-03-11 18:13:00,83.6,24.2,29.47,WSW,258,10.0,12.0,11,-99.99,,,0.00,91.4,rob ver 1B,2013-03-12 01:13:00,
2013-03-11 18:14:00,78.3,21.1,29.47,NW,304,11.3,14.1,11,-99.99,,,0.00,87.2,rob ver 1A,2013-03-12 01:14:00,
2013-03-11 18:15:00,83.4,24.3,29.47,West,260,9.2,11.2,11,-99.99,,,0.00,85,rob ver 1B,2013-03-12 01:15:00,
2013-03-11 18:16:00,83.4,24.4,29.47,West,259,9.8,12.5,11,-99.99,,,0.00,82.2,rob ver 1B,2013-03-12 01:16:00,
2013-03-11 18:17:00,83.3,24.4,29.47,West,267,10.7,12.5,11,-99.99,,,0.00,79.3,rob ver 1B,2013-03-12 01:17:00,
2013-03-11 18:18:00,83.2,24.3,29.47,West,266,9.6,11.3,11,-99.99,,,0.00,76,rob ver 1B,2013-03-12 01:18:00,
2013-03-11 18:19:00,78.0,21.3,29.47,WNW,295,9.2,11.3,11,-99.99,,,0.00,72.1,rob ver 1A,2013-03-12 01:19:00,
2013-03-11 18:20:00,83.1,24.3,29.47,West,264,8.7,10.3,11,-99.99,,,0.00,70.1,rob ver 1B,2013-03-12 01:20:00,
2013-03-11 18:21:00,83.1,24.3,29.47,West,268,9.3,10.8,11,-99.99,,,0.00,67.17,rob ver 1B,2013-03-12 01:21:00,
2013-03-11 18:22:00,83.0,24.3,29.47,West,270,8.1,10.0,11,-99.99,,,0.00,64.22,rob ver 1B,2013-03-12 01:22:00,
2013-03-11 18:23:00,83.0,24.4,29.47,West,265,8.2,10.1,11,-99.99,,,0.00,61.28,rob ver 1B,2013-03-12 01:23:00,
2013-03-11 18:24:00,77.8,21.1,29.47,WNW,291,8.8,10.4,12,-99.99,,,0.00,57.37,rob ver 1A,2013-03-12 01:24:00,
2013-03-11 18:25:00,82.9,24.5,29.47,West,264,7.7,8.9,11,-99.99,,,0.00,55.38,rob ver 1B,2013-03-12 01:25:00,
2013-03-11 18:26:00,82.8,24.5,29.47,West,266,8.0,10.0,11,-99.99,,,0.00,52.43,rob ver 1B,2013-03-12 01:26:00,
2013-03-11 18:27:00,82.7,24.4,29.47,West,266,8.9,10.6,11,-99.99,,,0.00,49.48,rob ver 1B,2013-03-12 01:27:00,
2013-03-11 18:28:00,82.6,24.4,29.47,West,266,8.6,10.1,11,-99.99,,,0.00,46.53,rob ver 1B,2013-03-12 01:28:00,
2013-03-11 18:29:00,77.4,21.1,29.47,WNW,290,9.8,11.0,12,-99.99,,,0.00,42.95,rob ver 1A,2013-03-12 01:29:00,
2013-03-11 18:30:00,82.4,24.5,29.47,West,263,8.2,10.3,11,-99.99,,,0.00,40.63,rob ver 1B,2013-03-12 01:30:00,
2013-03-11 18:31:00,82.3,24.4,29.47,West,263,8.3,10.1,11,-99.99,,,0.00,38.34,rob ver 1B,2013-03-12 01:31:00,
2013-03-11 18:32:00,82.2,24.4,29.47,West,266,9.3,11.0,11,-99.99,,,0.00,35.39,rob ver 1B,2013-03-12 01:32:00,
2013-03-11 18:33:00,82.1,24.4,29.47,West,263,8.3,9.8,11,-99.99,,,0.00,32.44,rob ver 1B,2013-03-12 01:33:00,
2013-03-11 18:34:00,77.1,21.2,29.47,WNW,291,9.2,10.8,12,-99.99,,,0.00,28.85,rob ver 1A,2013-03-12 01:34:00,
2013-03-11 18:35:00,81.9,24.4,29.47,West,261,7.8,9.8,11,-99.99,,,0.00,26.87,rob ver 1B,2013-03-12 01:35:00,
2013-03-11 18:36:00,81.8,24.4,29.47,West,262,8.3,10.7,12,-99.99,,,0.00,24.25,rob ver 1B,2013-03-12 01:36:00,
2013-03-11 18:37:00,81.7,24.4,29.47,West,261,8.0,9.7,12,-99.99,,,0.00,21.63,rob ver 1B,2013-03-12 01:37:00,
2013-03-11 18:38:00,81.6,24.4,29.47,West,259,7.7,9.1,12,-99.99,,,0.00,15.73,rob ver 1B,2013-03-12 01:38:00,
2013-03-11 18:39:00,76.7,21.2,29.47,WNW,285,8.8,11.1,12,-99.99,,,0.00,8.36,rob ver 1A,2013-03-12 01:39:00,
2013-03-11 18:40:00,81.4,24.4,29.47,WSW,258,7.0,8.1,12,-99.99,,,0.00,8.52,rob ver 1B,2013-03-12 01:40:00,
2013-03-11 18:41:00,81.2,24.4,29.47,WSW,258,6.7,8.7,12,-99.99,,,0.00,7.86,rob ver 1B,2013-03-12 01:41:00,
2013-03-11 18:42:00,81.1,24.4,29.47,West,259,6.5,7.9,12,-99.99,,,0.00,7.21,rob ver 1B,2013-03-12 01:42:00,
2013-03-11 18:43:00,80.9,24.4,29.47,WSW,258,6.1,7.2,12,-99.99,,,0.00,6.554,rob ver 1B,2013-03-12 01:43:00,
2013-03-11 18:44:00,76.2,21.3,29.47,WNW,302,7.0,8.4,12,-99.99,,,0.00,5.245,rob ver 1A,2013-03-12 01:44:00,
2013-03-11 18:45:00,80.6,24.4,29.47,WSW,258,5.9,7.0,12,-99.99,,,0.00,5.243,rob ver 1B,2013-03-12 01:45:00,
2013-03-11 18:46:00,80.5,24.4,29.47,WSW,257,5.5,6.5,12,-99.99,,,0.00,4.588,rob ver 1B,2013-03-12 01:46:00,
2013-03-11 18:47:00,80.4,24.4,29.47,WSW,257,6.1,7.4,12,-99.99,,,0.00,3.932,rob ver 1B,2013-03-12 01:47:00,
2013-03-11 18:48:00,80.3,24.4,29.47,WSW,258,5.7,7.3,12,-99.99,,,0.00,3.277,rob ver 1B,2013-03-12 01:48:00,
2013-03-11 18:49:00,76.0,21.4,29.47,WNW,299,7.5,9.5,12,-99.99,,,0.00,2.623,rob ver 1A,2013-03-12 01:49:00,
2013-03-11 18:50:00,80.2,24.4,29.47,West,259,5.6,7.1,12,-99.99,,,0.00,2.949,rob ver 1B,2013-03-12 01:50:00,
2013-03-11 18:51:00,80.1,24.5,29.47,West,259,5.4,6.4,12,-99.99,,,0.00,2.294,rob ver 1B,2013-03-12 01:51:00,
2013-03-11 18:52:00,79.9,24.5,29.47,West,260,5.6,6.9,12,-99.99,,,0.00,2.13,rob ver 1B,2013-03-12 01:52:00,
2013-03-11 18:53:00,79.8,24.5,29.47,West,260,5.5,6.4,12,-99.99,,,0.00,1.639,rob ver 1B,2013-03-12 01:53:00,
2013-03-11 18:54:00,75.6,21.4,29.47,NW,304,6.4,7.9,13,-99.99,,,0.00,1.147,rob ver 1A,2013-03-12 01:54:00,
2013-03-11 18:55:00,79.6,24.5,29.47,West,259,4.7,5.7,13,-99.99,,,0.00,1.311,rob ver 1B,2013-03-12 01:55:00,
2013-03-11 18:56:00,79.5,24.5,29.47,WSW,258,5.0,5.8,13,-99.99,,,0.00,.983,rob ver 1B,2013-03-12 01:56:00,
2013-03-11 18:57:00,79.4,24.5,29.47,WSW,258,5.1,5.7,13,-99.99,,,0.00,.819,rob ver 1B,2013-03-12 01:57:00,
2013-03-11 18:58:00,79.3,24.6,29.47,WSW,256,4.5,5.1,13,-99.99,,,0.00,.656,rob ver 1B,2013-03-12 01:58:00,
2013-03-11 18:59:00,79.2,24.5,29.47,WSW,253,4.7,5.5,13,-99.99,,,0.00,.328,rob ver 1B,2013-03-12 01:59:00,
2013-03-11 19:00:00,75.4,21.4,29.47,WNW,303,6.1,7.3,13,-99.99,,,0.00,.328,rob ver 1A,2013-03-12 02:00:00,
2013-03-11 19:01:00,78.9,24.4,29.47,WSW,251,4.6,5.7,13,-99.99,,,0.00,.328,rob ver 1B,2013-03-12 02:01:00,
2013-03-11 19:02:00,78.7,24.4,29.47,WSW,252,5.0,5.9,13,-99.99,,,0.00,.328,rob ver 1B,2013-03-12 02:02:00,
2013-03-11 19:03:00,78.6,24.4,29.47,WSW,254,4.9,5.5,13,-99.99,,,0.00,.164,rob ver 1B,2013-03-12 02:03:00,
2013-03-11 19:04:00,78.5,24.4,29.47,WSW,253,4.9,5.5,13,-99.99,,,0.00,0,rob ver 1B,2013-03-12 02:04:00,
2013-03-11 19:05:00,75.0,21.4,29.47,NW,304,6.4,7.9,13,-99.99,,,0.00,0,rob ver 1A,2013-03-12 02:05:00,
2013-03-11 19:06:00,78.3,24.3,29.47,WSW,255,4.3,5.1,13,-99.99,,,0.00,0,rob ver 1B,2013-03-12 02:06:00,
2013-03-11 19:07:00,78.1,24.3,29.47,WSW,255,4.1,5.0,13,-99.99,,,0.00,0,rob ver 1B,2013-03-12 02:07:00,
2013-03-11 19:08:00,78.0,24.3,29.47,WSW,254,4.1,4.7,13,-99.99,,,0.00,0,rob ver 1B,2013-03-12 02:08:00,
2013-03-11 19:09:00,77.9,24.3,29.47,WSW,254,4.2,5.0,13,-99.99,,,0.00,0,rob ver 1B,2013-03-12 02:09:00,
2013-03-11 19:10:00,74.5,21.4,29.47,WNW,294,5.9,7.0,13,-99.99,,,0.00,0,rob ver 1A,2013-03-12 02:10:00,
2013-03-11 19:11:00,77.8,24.3,29.47,WSW,255,3.8,4.3,13,-99.99,,,0.00,0,rob ver 1B,2013-03-12 02:11:00,
2013-03-11 19:12:00,77.7,24.3,29.47,WSW,255,3.4,3.9,13,-99.99,,,0.00,0,rob ver 1B,2013-03-12 02:12:00,
2013-03-11 19:13:00,77.6,24.3,29.47,WSW,256,3.6,4.5,13,-99.99,,,0.00,0,rob ver 1B,2013-03-12 02:13:00,
2013-03-11 19:14:00,77.6,24.3,29.47,WSW,258,3.6,4.2,13,-99.99,,,0.00,0,rob ver 1B,2013-03-12 02:14:00,
2013-03-11 19:15:00,74.0,21.4,29.47,WNW,294,5.3,6.3,13,-99.99,,,0.00,0,rob ver 1A,2013-03-12 02:15:00,
2013-03-11 19:16:00,77.5,24.3,29.47,West,259,3.4,3.8,13,-99.99,,,0.00,0,rob ver 1B,2013-03-12 02:16:00,
2013-03-11 19:17:00,77.4,24.3,29.47,WSW,258,3.3,3.8,13,-99.99,,,0.00,0,rob ver 1B,2013-03-12 02:17:00,
2013-03-11 19:18:00,77.3,24.3,29.47,West,259,3.4,3.8,14,-99.99,,,0.00,0,rob ver 1B,2013-03-12 02:18:00,
2013-03-11 19:19:00,77.2,24.3,29.47,West,261,3.3,3.7,14,-99.99,,,0.00,0,rob ver 1B,2013-03-12 02:19:00,
2013-03-11 19:20:00,73.4,21.4,29.47,WNW,303,4.8,5.7,14,-99.99,,,0.00,0,rob ver 1A,2013-03-12 02:20:00,
2013-03-11 19:21:00,77.0,24.4,29.47,WSW,257,3.3,4.2,14,-99.99,,,0.00,0,rob ver 1B,2013-03-12 02:21:00,
2013-03-11 19:22:00,76.9,24.4,29.47,WSW,258,3.6,4.0,14,-99.99,,,0.00,0,rob ver 1B,2013-03-12 02:22:00,
2013-03-11 19:23:00,76.9,24.4,29.47,West,261,3.7,4.3,14,-99.99,,,0.00,0,rob ver 1B,2013-03-12 02:23:00,
2013-03-11 19:24:00,76.8,24.5,29.47,West,261,3.7,4.3,14,-99.99,,,0.00,0,rob ver 1B,2013-03-12 02:24:00,
2013-03-11 19:25:00,72.9,21.9,29.47,NW,307,4.6,5.3,14,-99.99,,,0.00,0,rob ver 1A,2013-03-12 02:25:00,
2013-03-11 19:26:00,76.7,24.8,29.47,West,261,3.4,3.8,14,-99.99,,,0.00,0,rob ver 1B,2013-03-12 02:26:00,
2013-03-11 19:27:00,76.6,25.0,29.47,West,260,3.5,3.9,14,-99.99,,,0.00,0,rob ver 1B,2013-03-12 02:27:00,
2013-03-11 19:28:00,76.5,25.1,29.47,West,259,3.5,4.2,14,-99.99,,,0.00,0,rob ver 1B,2013-03-12 02:28:00,
2013-03-11 19:29:00,76.5,25.2,29.47,WSW,257,3.6,4.0,14,-99.99,,,0.00,0,rob ver 1B,2013-03-12 02:29:00,
2013-03-11 19:30:00,72.7,22.2,29.50,WNW,303,3.9,4.7,14,-99.99,,,0.00,0,rob ver 1A,2013-03-12 02:30:00,
2013-03-11 19:31:00,76.4,25.3,29.47,West,260,3.5,4.0,15,-99.99,,,0.00,0,rob ver 1B,2013-03-12 02:31:00,
2013-03-11 19:32:00,76.3,25.4,29.47,West,259,3.5,4.0,15,-99.99,,,0.00,0,rob ver 1B,2013-03-12 02:32:00,
2013-03-11 19:33:00,76.3,25.4,29.47,WSW,258,3.3,3.7,15,-99.99,,,0.00,0,rob ver 1B,2013-03-12 02:33:00,
2013-03-11 19:34:00,76.2,25.3,29.47,WSW,256,3.4,3.7,15,-99.99,,,0.00,0,rob ver 1B,2013-03-12 02:34:00,
2013-03-11 19:35:00,76.1,25.3,29.47,WSW,253,3.3,3.5,15,-99.99,,,0.00,0,rob ver 1B,2013-03-12 02:35:00,
2013-03-11 19:36:00,72.3,22.5,29.50,NW,311,3.5,3.9,15,-99.99,,,0.00,0,rob ver 1A,2013-03-12 02:36:00,
2013-03-11 19:37:00,76.0,25.3,29.47,WSW,257,3.4,3.7,15,-99.99,,,0.00,0,rob ver 1B,2013-03-12 02:37:00,
2013-03-11 19:38:00,75.9,25.3,29.47,WSW,255,3.4,3.7,15,-99.99,,,0.00,0,rob ver 1B,2013-03-12 02:38:00,
2013-03-11 19:39:00,75.9,25.4,29.47,WSW,256,3.3,3.5,15,-99.99,,,0.00,0,rob ver 1B,2013-03-12 02:39:00,
2013-03-11 19:40:00,75.8,25.4,29.47,WSW,255,3.1,3.3,15,-99.99,,,0.00,0,rob ver 1B,2013-03-12 02:40:00,
2013-03-11 19:41:00,72.0,22.6,29.50,NW,322,3.5,4.0,15,-99.99,,,0.00,0,rob ver 1A,2013-03-12 02:41:00,
2013-03-11 19:42:00,75.7,25.4,29.47,WSW,258,3.1,3.2,15,-99.99,,,0.00,0,rob ver 1B,2013-03-12 02:42:00,
2013-03-11 19:43:00,75.7,25.5,29.47,West,260,3.1,3.4,15,-99.99,,,0.00,0,rob ver 1B,2013-03-12 02:43:00,
2013-03-11 19:44:00,75.7,25.5,29.47,West,264,3.3,3.7,15,-99.99,,,0.00,0,rob ver 1B,2013-03-12 02:44:00,
2013-03-11 19:45:00,75.7,25.5,29.47,West,264,3.4,3.6,15,-99.99,,,0.00,0,rob ver 1B,2013-03-12 02:45:00,
2013-03-11 19:46:00,71.8,22.6,29.50,NW,311,3.4,4.0,15,-99.99,,,0.00,0,rob ver 1A,2013-03-12 02:46:00,
2013-03-11 19:47:00,75.7,25.5,29.47,West,275,3.5,3.7,15,-99.99,,,0.00,0,rob ver 1B,2013-03-12 02:47:00,
2013-03-11 19:48:00,75.7,25.5,29.47,West,278,3.5,3.7,15,-99.99,,,0.00,0,rob ver 1B,2013-03-12 02:48:00,
2013-03-11 19:49:00,75.6,25.5,29.47,West,279,3.1,3.4,15,-99.99,,,0.00,0,rob ver 1B,2013-03-12 02:49:00,
2013-03-11 19:50:00,75.5,25.6,29.47,NW,304,2.7,3.0,15,-99.99,,,0.00,0,rob ver 1B,2013-03-12 02:50:00,
2013-03-11 19:51:00,71.7,22.8,29.50,NW,312,3.5,4.0,15,-99.99,,,0.00,0,rob ver 1A,2013-03-12 02:51:00,
2013-03-11 19:52:00,75.2,25.8,29.50,WNW,289,2.9,3.2,15,-99.99,,,0.00,0,rob ver 1B,2013-03-12 02:52:00,
2013-03-11 19:53:00,75.1,25.8,29.50,WNW,299,2.7,3.3,16,-99.99,,,0.00,0,rob ver 1B,2013-03-12 02:53:00,
2013-03-11 19:54:00,75.1,25.9,29.50,WNW,285,3.1,3.3,16,-99.99,,,0.00,0,rob ver 1B,2013-03-12 02:54:00,
2013-03-11 19:55:00,75.1,26.0,29.50,WNW,283,3.2,3.3,16,-99.99,,,0.00,0,rob ver 1B,2013-03-12 02:55:00,
2013-03-11 19:56:00,71.1,22.8,29.50,NW,325,3.2,3.9,16,-99.99,,,0.00,0,rob ver 1A,2013-03-12 02:56:00,
2013-03-11 19:57:00,75.2,26.1,29.50,WNW,289,3.0,3.2,16,-99.99,,,0.00,0,rob ver 1B,2013-03-12 02:57:00,
2013-03-11 19:58:00,75.2,26.1,29.50,WNW,301,2.7,3.0,16,-99.99,,,0.00,0,rob ver 1B,2013-03-12 02:58:00,
2013-03-11 19:59:00,75.1,26.1,29.50,WNW,303,2.7,3.2,16,-99.99,,,0.00,0,rob ver 1B,2013-03-12 02:59:00,
2013-03-11 20:00:00,75.0,26.2,29.50,WNW,301,3.0,3.3,16,-99.99,,,0.00,0,rob ver 1B,2013-03-12 03:00:00,
2013-03-11 20:01:00,70.8,22.9,29.50,NW,321,4.1,4.8,16,-99.99,,,0.00,0,rob ver 1A,2013-03-12 03:01:00,
2013-03-11 20:02:00,74.9,26.1,29.50,WNW,301,3.2,3.4,16,-99.99,,,0.00,0,rob ver 1B,2013-03-12 03:02:00,
2013-03-11 20:03:00,74.9,26.1,29.50,NW,310,3.3,3.4,16,-99.99,,,0.00,0,rob ver 1B,2013-03-12 03:03:00,
2013-03-11 20:04:00,74.9,25.9,29.50,NW,318,3.2,3.5,16,-99.99,,,0.00,0,rob ver 1B,2013-03-12 03:04:00,
2013-03-11 20:05:00,74.7,25.6,29.50,NW,313,3.3,3.5,15,-99.99,,,0.00,0,rob ver 1B,2013-03-12 03:05:00,
2013-03-11 20:06:00,70.6,22.9,29.50,NW,319,4.4,5.1,16,-99.99,,,0.00,0,rob ver 1A,2013-03-12 03:06:00,
2013-03-11 20:07:00,74.5,25.2,29.50,WNW,301,3.4,4.1,15,-99.99,,,0.00,0,rob ver 1B,2013-03-12 03:07:00,
2013-03-11 20:08:00,74.5,25.3,29.50,NW,317,3.6,3.9,15,-99.99,,,0.00,0,rob ver 1B,2013-03-12 03:08:00,
2013-03-11 20:09:00,74.5,25.1,29.50,NW,311,4.0,4.2,15,-99.99,,,0.00,0,rob ver 1B,2013-03-12 03:09:00,
2013-03-11 20:10:00,74.6,25.0,29.50,NW,307,3.9,4.1,15,-99.99,,,0.00,0,rob ver 1B,2013-03-12 03:10:00,
2013-03-11 20:11:00,70.3,22.9,29.50,NW,321,4.4,4.7,16,-99.99,,,0.00,0,rob ver 1A,2013-03-12 03:11:00,
2013-03-11 20:12:00,74.8,24.9,29.50,WNW,299,3.5,3.8,15,-99.99,,,0.00,0,rob ver 1B,2013-03-12 03:12:00,
2013-03-11 20:13:00,74.8,24.9,29.50,WNW,297,3.3,3.7,15,-99.99,,,0.00,0,rob ver 1B,2013-03-12 03:13:00,
2013-03-11 20:14:00,74.9,24.9,29.50,WNW,290,3.3,3.6,15,-99.99,,,0.00,0,rob ver 1B,2013-03-12 03:14:00,
2013-03-11 20:15:00,74.8,24.9,29.50,WNW,286,3.6,3.9,15,-99.99,,,0.00,0,rob ver 1B,2013-03-12 03:15:00,
2013-03-11 20:16:00,71.0,22.9,29.50,NW,325,3.9,4.5,16,-99.99,,,0.00,0,rob ver 1A,2013-03-12 03:16:00,
2013-03-11 20:17:00,75.0,24.7,29.50,West,281,3.6,3.8,15,-99.99,,,0.00,0,rob ver 1B,2013-03-12 03:17:00,
2013-03-11 20:18:00,75.0,24.7,29.50,WNW,282,3.6,3.8,15,-99.99,,,0.00,0,rob ver 1B,2013-03-12 03:18:00,
2013-03-11 20:19:00,75.1,24.6,29.50,WNW,284,3.8,4.0,15,-99.99,,,0.00,0,rob ver 1B,2013-03-12 03:19:00,
2013-03-11 20:20:00,75.1,24.6,29.50,WNW,285,3.7,4.1,15,-99.99,,,0.00,0,rob ver 1B,2013-03-12 03:20:00,
2013-03-11 20:21:00,70.6,22.9,29.50,NW,326,3.4,4.0,16,-99.99,,,0.00,0,rob ver 1A,2013-03-12 03:21:00,
2013-03-11 20:22:00,75.2,24.6,29.50,WNW,287,3.7,3.9,15,-99.99,,,0.00,0,rob ver 1B,2013-03-12 03:22:00,
2013-03-11 20:23:00,75.2,24.6,29.50,WNW,289,3.7,3.8,15,-99.99,,,0.00,0,rob ver 1B,2013-03-12 03:23:00,
2013-03-11 20:24:00,75.1,24.6,29.50,WNW,289,3.7,3.9,15,-99.99,,,0.00,0,rob ver 1B,2013-03-12 03:24:00,
2013-03-11 20:25:00,75.1,24.6,29.50,WNW,291,3.7,4.0,15,-99.99,,,0.00,0,rob ver 1B,2013-03-12 03:25:00,
2013-03-11 20:26:00,69.5,23.5,29.50,NNW,337,3.0,3.3,17,-99.99,,,0.00,0,rob ver 1A,2013-03-12 03:26:00,
2013-03-11 20:27:00,74.8,24.7,29.50,WNW,292,3.3,3.5,15,-99.99,,,0.00,0,rob ver 1B,2013-03-12 03:27:00,
2013-03-11 20:28:00,74.6,24.7,29.50,WNW,290,3.1,3.4,15,-99.99,,,0.00,0,rob ver 1B,2013-03-12 03:28:00,
2013-03-11 20:29:00,74.5,24.7,29.50,WNW,288,3.1,3.4,15,-99.99,,,0.00,0,rob ver 1B,2013-03-12 03:29:00,
2013-03-11 20:30:00,74.4,24.8,29.50,WNW,290,3.0,3.2,15,-99.99,,,0.00,0,rob ver 1B,2013-03-12 03:30:00,
2013-03-11 20:31:00,68.6,23.3,29.50,NW,316,2.6,2.8,17,-99.99,,,0.00,0,rob ver 1A,2013-03-12 03:31:00,
2013-03-11 20:32:00,74.1,24.9,29.50,WNW,286,2.6,3.0,15,-99.99,,,0.00,0,rob ver 1B,2013-03-12 03:32:00,
2013-03-11 20:33:00,74.0,24.8,29.50,WNW,286,2.7,2.9,15,-99.99,,,0.00,0,rob ver 1B,2013-03-12 03:33:00,
2013-03-11 20:34:00,73.8,24.8,29.50,WNW,282,2.7,3.1,15,-99.99,,,0.00,0,rob ver 1B,2013-03-12 03:34:00,
2013-03-11 20:35:00,73.8,24.9,29.50,West,280,2.6,2.9,15,-99.99,,,0.00,0,rob ver 1B,2013-03-12 03:35:00,
2013-03-11 20:36:00,73.8,24.9,29.50,West,280,2.6,3.1,16,-99.99,,,0.00,0,rob ver 1B,2013-03-12 03:36:00,
2013-03-11 20:37:00,67.9,23.2,29.50,WSW,255,3.0,3.6,18,-99.99,,,0.00,0,rob ver 1A,2013-03-12 03:37:00,
2013-03-11 20:38:00,73.8,24.9,29.50,West,271,2.5,2.8,15,-99.99,,,0.00,0,rob ver 1B,2013-03-12 03:38:00,
2013-03-11 20:39:00,73.8,24.9,29.50,West,259,2.5,2.9,16,-99.99,,,0.00,0,rob ver 1B,2013-03-12 03:39:00,
2013-03-11 20:40:00,73.7,25.0,29.50,WSW,248,2.4,2.7,16,-99.99,,,0.00,0,rob ver 1B,2013-03-12 03:40:00,
2013-03-11 20:41:00,73.5,25.0,29.50,WSW,245,2.6,2.7,16,-99.99,,,0.00,0,rob ver 1B,2013-03-12 03:41:00,
2013-03-11 20:42:00,68.5,23.4,29.50,WNW,285,3.3,3.6,18,-99.99,,,0.00,0,rob ver 1A,2013-03-12 03:42:00,
2013-03-11 20:43:00,73.0,25.0,29.50,WSW,242,3.0,3.3,16,-99.99,,,0.00,0,rob ver 1B,2013-03-12 03:43:00,
2013-03-11 20:44:00,72.9,25.0,29.50,SW,233,3.2,3.5,16,-99.99,,,0.00,0,rob ver 1B,2013-03-12 03:44:00,
2013-03-11 20:45:00,72.6,25.0,29.50,SW,232,3.3,3.8,16,-99.99,,,0.00,0,rob ver 1B,2013-03-12 03:45:00,
2013-03-11 20:46:00,72.4,25.1,29.50,WSW,242,3.4,3.9,17,-99.99,,,0.00,0,rob ver 1B,2013-03-12 03:46:00,
2013-03-11 20:47:00,68.8,23.6,29.50,WNW,296,3.1,3.3,18,-99.99,,,0.00,0,rob ver 1A,2013-03-12 03:47:00,
2013-03-11 20:48:00,72.4,25.3,29.50,West,265,3.7,4.6,17,-99.99,,,0.00,0,rob ver 1B,2013-03-12 03:48:00,
2013-03-11 20:49:00,72.7,25.4,29.50,West,274,4.3,5.1,16,-99.99,,,0.00,0,rob ver 1B,2013-03-12 03:49:00,
2013-03-11 20:50:00,73.1,25.4,29.50,West,276,4.1,5.1,16,-99.99,,,0.00,0,rob ver 1B,2013-03-12 03:50:00,
2013-03-11 20:51:00,73.4,25.4,29.50,West,273,4.3,4.9,16,-99.99,,,0.00,0,rob ver 1B,2013-03-12 03:51:00,
2013-03-11 20:52:00,68.2,23.6,29.50,WNW,286,2.9,3.2,18,-99.99,,,0.00,0,rob ver 1A,2013-03-12 03:52:00,
2013-03-11 20:53:00,73.4,25.3,29.50,West,275,4.5,5.1,16,-99.99,,,0.00,0,rob ver 1B,2013-03-12 03:53:00,
2013-03-11 20:54:00,73.2,25.3,29.50,West,280,5.0,5.3,16,-99.99,,,0.00,0,rob ver 1B,2013-03-12 03:54:00,
2013-03-11 20:55:00,73.3,25.3,29.50,WNW,282,4.8,5.2,16,-99.99,,,0.00,0,rob ver 1B,2013-03-12 03:55:00,
2013-03-11 20:56:00,73.4,25.3,29.50,WNW,285,5.1,5.3,16,-99.99,,,0.00,0,rob ver 1B,2013-03-12 03:56:00,
2013-03-11 20:57:00,68.0,23.6,29.50,West,279,2.6,3.3,18,-99.99,,,0.00,0,rob ver 1A,2013-03-12 03:57:00,
2013-03-11 20:58:00,73.4,25.4,29.50,WNW,287,4.5,4.9,16,-99.99,,,0.00,0,rob ver 1B,2013-03-12 03:58:00,
2013-03-11 20:59:00,73.2,25.4,29.50,WNW,289,4.1,4.4,16,-99.99,,,0.00,0,rob ver 1B,2013-03-12 03:59:00,
2013-03-11 21:00:00,67.7,23.7,29.50,WNW,299,2.6,2.8,18,-99.99,,,0.00,0,rob ver 1A,2013-03-12 04:00:00,
2013-03-11 21:01:00,67.6,23.7,29.50,NW,307,2.8,3.0,18,-99.99,,,0.00,0,rob ver 1A,2013-03-12 04:01:00,
2013-03-11 21:02:00,72.6,25.5,29.50,WNW,291,3.8,4.0,17,-99.99,,,0.00,0,rob ver 1B,2013-03-12 04:02:00,
2013-03-11 21:03:00,72.4,25.5,29.50,WNW,298,3.3,3.8,17,-99.99,,,0.00,0,rob ver 1B,2013-03-12 04:03:00,
2013-03-11 21:04:00,72.2,25.5,29.50,WNW,297,3.2,3.6,17,-99.99,,,0.00,0,rob ver 1B,2013-03-12 04:04:00,
2013-03-11 21:05:00,72.1,25.5,29.50,WNW,292,3.3,3.5,17,-99.99,,,0.00,0,rob ver 1B,2013-03-12 04:05:00,
2013-03-11 21:06:00,67.5,23.8,29.50,NW,324,3.3,3.8,19,-99.99,,,0.00,0,rob ver 1A,2013-03-12 04:06:00,
2013-03-11 21:07:00,72.1,25.6,29.50,WNW,287,3.4,3.6,17,-99.99,,,0.00,0,rob ver 1B,2013-03-12 04:07:00,
2013-03-11 21:08:00,72.1,25.6,29.50,WNW,287,3.5,3.8,17,-99.99,,,0.00,0,rob ver 1B,2013-03-12 04:08:00,
2013-03-11 21:09:00,72.1,25.7,29.50,WNW,289,3.5,3.6,17,-99.99,,,0.00,0,rob ver 1B,2013-03-12 04:09:00,
2013-03-11 21:10:00,72.2,25.7,29.50,WNW,295,3.2,3.6,17,-99.99,,,0.00,0,rob ver 1B,2013-03-12 04:10:00,
2013-03-11 21:11:00,67.9,23.7,29.50,NW,319,3.4,3.8,18,-99.99,,,0.00,0,rob ver 1A,2013-03-12 04:11:00,
2013-03-11 21:12:00,72.1,25.7,29.50,WNW,303,3.1,3.3,17,-99.99,,,0.00,0,rob ver 1B,2013-03-12 04:12:00,
2013-03-11 21:13:00,72.0,25.8,29.50,NW,305,3.3,3.4,17,-99.99,,,0.00,0,rob ver 1B,2013-03-12 04:13:00,
2013-03-11 21:14:00,71.9,25.9,29.50,NW,308,3.4,3.5,17,-99.99,,,0.00,0,rob ver 1B,2013-03-12 04:14:00,
2013-03-11 21:15:00,71.8,26.0,29.50,NW,308,3.4,3.5,17,-99.99,,,0.00,0,rob ver 1B,2013-03-12 04:15:00,
2013-03-11 21:16:00,68.4,23.6,29.50,NW,311,3.8,4.0,18,-99.99,,,0.00,0,rob ver 1A,2013-03-12 04:16:00,
2013-03-11 21:17:00,71.7,26.1,29.50,NW,308,3.4,3.5,18,-99.99,,,0.00,0,rob ver 1B,2013-03-12 04:17:00,
2013-03-11 21:18:00,71.7,26.1,29.50,NW,304,3.3,3.4,18,-99.99,,,0.00,0,rob ver 1B,2013-03-12 04:18:00,
2013-03-11 21:19:00,71.7,26.1,29.50,WNW,302,3.2,3.3,18,-99.99,,,0.00,0,rob ver 1B,2013-03-12 04:19:00,
2013-03-11 21:20:00,71.8,26.1,29.50,NW,305,3.1,3.2,18,-99.99,,,0.00,0,rob ver 1B,2013-03-12 04:20:00,
2013-03-11 21:21:00,68.5,23.5,29.50,NW,314,4.5,4.7,18,-99.99,,,0.00,0,rob ver 1A,2013-03-12 04:21:00,
2013-03-11 21:22:00,71.9,26.1,29.50,NW,312,3.0,3.1,18,-99.99,,,0.00,0,rob ver 1B,2013-03-12 04:22:00,
2013-03-11 21:23:00,72.0,26.1,29.50,NW,318,3.0,3.3,17,-99.99,,,0.00,0,rob ver 1B,2013-03-12 04:23:00,
2013-03-11 21:24:00,72.0,26.1,29.50,NW,322,3.1,3.3,17,-99.99,,,0.00,0,rob ver 1B,2013-03-12 04:24:00,
2013-03-11 21:25:00,72.0,26.1,29.50,NW,320,2.9,3.3,17,-99.99,,,0.00,0,rob ver 1B,2013-03-12 04:25:00,
2013-03-11 21:26:00,69.2,23.5,29.50,NW,312,4.4,4.5,17,-99.99,,,0.00,0,rob ver 1A,2013-03-12 04:26:00,
2013-03-11 21:27:00,72.1,26.2,29.50,NW,310,3.5,3.7,17,-99.99,,,0.00,0,rob ver 1B,2013-03-12 04:27:00,
2013-03-11 21:28:00,72.2,26.1,29.50,WNW,303,3.7,3.9,17,-99.99,,,0.00,0,rob ver 1B,2013-03-12 04:28:00,
2013-03-11 21:29:00,72.6,26.1,29.50,WNW,298,3.9,4.0,17,-99.99,,,0.00,0,rob ver 1B,2013-03-12 04:29:00,
2013-03-11 21:30:00,72.9,26.1,29.50,WNW,296,3.8,4.0,17,-99.99,,,0.00,0,rob ver 1B,2013-03-12 04:30:00,
2013-03-11 21:31:00,67.9,23.6,29.50,WNW,290,4.1,4.2,18,-99.99,,,0.00,0,rob ver 1A,2013-03-12 04:31:00,
2013-03-11 21:32:00,73.4,26.1,29.50,WNW,296,3.9,4.1,17,-99.99,,,0.00,0,rob ver 1B,2013-03-12 04:32:00,
2013-03-11 21:33:00,73.6,26.1,29.50,WNW,291,4.1,4.3,16,-99.99,,,0.00,0,rob ver 1B,2013-03-12 04:33:00,
2013-03-11 21:34:00,73.7,26.1,29.50,WNW,290,4.3,4.5,16,-99.99,,,0.00,0,rob ver 1B,2013-03-12 04:34:00,
2013-03-11 21:35:00,73.8,26.0,29.50,WNW,290,4.3,4.6,16,-99.99,,,0.00,0,rob ver 1B,2013-03-12 04:35:00,
2013-03-11 21:36:00,73.8,26.0,29.50,WNW,288,4.4,4.6,16,-99.99,,,0.00,0,rob ver 1B,2013-03-12 04:36:00,
2013-03-11 21:37:00,68.8,23.4,29.50,WNW,299,3.1,3.3,17,-99.99,,,0.00,0,rob ver 1A,2013-03-12 04:37:00,
2013-03-11 21:38:00,73.9,26.0,29.50,WNW,288,4.4,4.6,16,-99.99,,,0.00,0,rob ver 1B,2013-03-12 04:38:00,
2013-03-11 21:39:00,73.8,26.0,29.50,WNW,292,4.5,4.6,16,-99.99,,,0.00,0,rob ver 1B,2013-03-12 04:39:00,
2013-03-11 21:40:00,73.8,26.0,29.50,WNW,295,4.2,4.5,16,-99.99,,,0.00,0,rob ver 1B,2013-03-12 04:40:00,
2013-03-11 21:41:00,73.8,26.0,29.50,WNW,294,4.2,4.4,16,-99.99,,,0.00,0,rob ver 1B,2013-03-12 04:41:00,
2013-03-11 21:42:00,68.9,23.6,29.50,WNW,297,2.4,2.5,17,-99.99,,,0.00,0,rob ver 1A,2013-03-12 04:42:00,
2013-03-11 21:43:00,73.9,25.9,29.50,WNW,295,4.0,4.3,16,-99.99,,,0.00,0,rob ver 1B,2013-03-12 04:43:00,
2013-03-11 21:44:00,73.7,25.9,29.50,WNW,299,3.7,4.0,16,-99.99,,,0.00,0,rob ver 1B,2013-03-12 04:44:00,
2013-03-11 21:45:00,73.2,26.0,29.50,WNW,301,3.6,3.8,17,-99.99,,,0.00,0,rob ver 1B,2013-03-12 04:45:00,
2013-03-11 21:46:00,72.8,25.9,29.50,NW,307,3.6,3.8,17,-99.99,,,0.00,0,rob ver 1B,2013-03-12 04:46:00,
2013-03-11 21:47:00,68.6,23.5,29.50,NW,306,2.4,2.5,18,-99.99,,,0.00,0,rob ver 1A,2013-03-12 04:47:00,
2013-03-11 21:48:00,72.4,26.1,29.50,NW,317,3.3,3.6,17,-99.99,,,0.00,0,rob ver 1B,2013-03-12 04:48:00,
2013-03-11 21:49:00,72.2,26.0,29.50,NW,321,2.9,3.4,17,-99.99,,,0.00,0,rob ver 1B,2013-03-12 04:49:00,
2013-03-11 21:50:00,72.2,26.0,29.50,NW,320,3.0,3.3,17,-99.99,,,0.00,0,rob ver 1B,2013-03-12 04:50:00,
2013-03-11 21:51:00,72.2,26.1,29.53,NW,318,3.0,3.3,17,-99.99,,,0.00,0,rob ver 1B,2013-03-12 04:51:00,
2013-03-11 21:52:00,68.2,23.6,29.53,WNW,302,2.5,2.7,18,-99.99,,,0.00,0,rob ver 1A,2013-03-12 04:52:00,
2013-03-11 21:53:00,72.1,25.9,29.53,NW,308,3.3,3.5,17,-99.99,,,0.00,0,rob ver 1B,2013-03-12 04:53:00,
2013-03-11 21:54:00,72.1,25.9,29.53,WNW,302,3.4,3.5,17,-99.99,,,0.00,0,rob ver 1B,2013-03-12 04:54:00,
2013-03-11 21:55:00,72.2,25.8,29.50,WNW,297,3.3,3.5,17,-99.99,,,0.00,0,rob ver 1B,2013-03-12 04:55:00,
2013-03-11 21:56:00,72.2,25.8,29.53,WNW,294,3.5,3.8,17,-99.99,,,0.00,0,rob ver 1B,2013-03-12 04:56:00,
2013-03-11 21:57:00,67.9,23.6,29.53,WNW,301,2.6,2.9,18,-99.99,,,0.00,0,rob ver 1A,2013-03-12 04:57:00,
2013-03-11 21:58:00,72.4,25.8,29.53,WNW,287,4.1,4.3,17,-99.99,,,0.00,0,rob ver 1B,2013-03-12 04:58:00,
2013-03-11 21:59:00,72.5,25.8,29.53,WNW,287,4.4,4.6,17,-99.99,,,0.00,0,rob ver 1B,2013-03-12 04:59:00,
2013-03-11 22:00:00,72.7,25.8,29.50,WNW,287,4.6,4.9,17,-99.99,,,0.00,0,rob ver 1B,2013-03-12 05:00:00,
2013-03-11 22:01:00,72.9,25.8,29.50,WNW,288,4.5,4.7,17,-99.99,,,0.00,0,rob ver 1B,2013-03-12 05:01:00,
2013-03-11 22:02:00,68.0,24.2,29.53,West,261,1.4,2.1,19,-99.99,,,0.00,0,rob ver 1A,2013-03-12 05:02:00,
2013-03-11 22:03:00,73.1,25.8,29.53,WNW,290,4.5,4.7,16,-99.99,,,0.00,0,rob ver 1B,2013-03-12 05:03:00,
2013-03-11 22:04:00,73.1,25.7,29.53,WNW,292,4.3,4.4,17,-99.99,,,0.00,0,rob ver 1B,2013-03-12 05:04:00,
2013-03-11 22:05:00,73.1,25.8,29.50,WNW,291,4.0,4.2,17,-99.99,,,0.00,0,rob ver 1B,2013-03-12 05:05:00,
2013-03-11 22:06:00,73.0,25.8,29.50,WNW,290,3.8,4.1,17,-99.99,,,0.00,0,rob ver 1B,2013-03-12 05:06:00,
2013-03-11 22:07:00,66.4,23.9,29.53,North,350,2.4,3.0,19,-99.99,,,0.00,0,rob ver 1A,2013-03-12 05:07:00,
2013-03-11 22:08:00,72.7,25.8,29.53,WNW,290,3.5,4.1,17,-99.99,,,0.00,0,rob ver 1B,2013-03-12 05:08:00,
2013-03-11 22:09:00,72.5,25.8,29.53,WNW,303,2.9,4.2,17,-99.99,,,0.00,0,rob ver 1B,2013-03-12 05:09:00,
2013-03-11 22:10:00,72.2,25.8,29.53,WNW,300,2.6,3.1,17,-99.99,,,0.00,0,rob ver 1B,2013-03-12 05:10:00,
2013-03-11 22:11:00,71.9,25.9,29.50,NW,309,3.0,3.4,17,-99.99,,,0.00,0,rob ver 1B,2013-03-12 05:11:00,
2013-03-11 22:12:00,66.1,24.4,29.53,NNE,29,3.1,3.5,20,-99.99,,,0.00,0,rob ver 1A,2013-03-12 05:12:00,
2013-03-11 22:13:00,71.4,25.8,29.53,WNW,295,3.3,4.0,18,-99.99,,,0.00,0,rob ver 1B,2013-03-12 05:13:00,
2013-03-11 22:14:00,71.3,25.8,29.53,WNW,292,3.5,4.3,18,-99.99,,,0.00,0,rob ver 1B,2013-03-12 05:14:00,
2013-03-11 22:15:00,71.4,25.7,29.53,WNW,282,4.1,4.7,17,-99.99,,,0.00,0,rob ver 1B,2013-03-12 05:15:00,
2013-03-11 22:16:00,71.7,25.7,29.53,WNW,282,3.6,4.5,17,-99.99,,,0.00,0,rob ver 1B,2013-03-12 05:16:00,
2013-03-11 22:17:00,65.0,24.4,29.53,SSE,152,0.5,0.8,21,-99.99,,,0.00,0,rob ver 1A,2013-03-12 05:17:00,
2013-03-11 22:18:00,71.6,25.8,29.53,West,270,3.0,3.4,18,-99.99,,,0.00,0,rob ver 1B,2013-03-12 05:18:00,
2013-03-11 22:19:00,71.4,25.8,29.53,West,264,2.8,3.1,18,-99.99,,,0.00,0,rob ver 1B,2013-03-12 05:19:00,
2013-03-11 22:20:00,71.1,25.8,29.53,West,262,2.6,3.0,18,-99.99,,,0.00,0,rob ver 1B,2013-03-12 05:20:00,
2013-03-11 22:21:00,70.8,25.8,29.53,West,265,2.3,2.9,18,-99.99,,,0.00,0,rob ver 1B,2013-03-12 05:21:00,
2013-03-11 22:22:00,64.7,24.4,29.53,NNE,25,1.6,1.7,21,-99.99,,,0.00,0,rob ver 1A,2013-03-12 05:22:00,
2013-03-11 22:23:00,70.4,25.8,29.53,West,264,1.5,1.7,18,-99.99,,,0.00,0,rob ver 1B,2013-03-12 05:23:00,
2013-03-11 22:24:00,70.1,25.8,29.53,West,264,1.5,1.7,18,-99.99,,,0.00,0,rob ver 1B,2013-03-12 05:24:00,
2013-03-11 22:25:00,69.8,25.8,29.53,WSW,254,2.1,2.5,19,-99.99,,,0.00,0,rob ver 1B,2013-03-12 05:25:00,
2013-03-11 22:26:00,69.6,25.9,29.53,WSW,251,2.6,2.8,19,-99.99,,,0.00,0,rob ver 1B,2013-03-12 05:26:00,
2013-03-11 22:27:00,64.8,24.4,29.53,North,4,1.7,1.8,21,-99.99,,,0.00,0,rob ver 1A,2013-03-12 05:27:00,
2013-03-11 22:28:00,69.1,26.0,29.53,WSW,252,1.7,1.9,19,-99.99,,,0.00,0,rob ver 1B,2013-03-12 05:28:00,
2013-03-11 22:29:00,68.8,26.0,29.53,West,265,1.5,1.6,19,-99.99,,,0.00,0,rob ver 1B,2013-03-12 05:29:00,
2013-03-11 22:30:00,68.6,25.9,29.53,WSW,258,1.4,1.9,20,-99.99,,,0.00,0,rob ver 1B,2013-03-12 05:30:00,
2013-03-11 22:31:00,68.4,26.0,29.53,West,264,1.5,2.3,20,-99.99,,,0.00,0,rob ver 1B,2013-03-12 05:31:00,
2013-03-11 22:32:00,64.8,24.5,29.53,NNE,18,1.0,1.1,21,-99.99,,,0.00,0,rob ver 1A,2013-03-12 05:32:00,
2013-03-11 22:33:00,68.0,26.0,29.53,WNW,293,1.3,1.7,20,-99.99,,,0.00,0,rob ver 1B,2013-03-12 05:33:00,
2013-03-11 22:34:00,67.7,26.1,29.53,WNW,293,1.6,2.6,20,-99.99,,,0.00,0,rob ver 1B,2013-03-12 05:34:00,
2013-03-11 22:35:00,67.6,26.2,29.53,West,279,2.1,2.7,21,-99.99,,,0.00,0,rob ver 1B,2013-03-12 05:35:00,
2013-03-11 22:36:00,67.4,26.1,29.53,West,275,2.6,3.2,21,-99.99,,,0.00,0,rob ver 1B,2013-03-12 05:36:00,
2013-03-11 22:37:00,64.6,24.6,29.53,North,1,0.6,0.8,21,-99.99,,,0.00,0,rob ver 1A,2013-03-12 05:37:00,
2013-03-11 22:38:00,67.2,26.2,29.53,West,272,2.7,3.0,21,-99.99,,,0.00,0,rob ver 1B,2013-03-12 05:38:00,
2013-03-11 22:39:00,67.2,26.3,29.53,West,267,2.4,2.9,21,-99.99,,,0.00,0,rob ver 1B,2013-03-12 05:39:00,
2013-03-11 22:40:00,67.2,26.3,29.53,West,269,2.3,2.9,21,-99.99,,,0.00,0,rob ver 1B,2013-03-12 05:40:00,
2013-03-11 22:41:00,67.1,26.2,29.53,West,267,2.1,2.7,21,-99.99,,,0.00,0,rob ver 1B,2013-03-12 05:41:00,
2013-03-11 22:42:00,64.1,24.7,29.53,SE,126,4.0,5.7,22,-99.99,,,0.00,0,rob ver 1A,2013-03-12 05:42:00,
2013-03-11 22:43:00,66.9,26.3,29.53,WNW,284,1.0,2.2,21,-99.99,,,0.00,0,rob ver 1B,2013-03-12 05:43:00,
2013-03-11 22:44:00,66.8,26.3,29.53,WNW,293,0.8,1.3,21,-99.99,,,0.00,0,rob ver 1B,2013-03-12 05:44:00,
2013-03-11 22:45:00,66.7,26.3,29.53,NW,315,0.7,1.2,21,-99.99,,,0.00,0,rob ver 1B,2013-03-12 05:45:00,
2013-03-11 22:46:00,66.6,26.3,29.53,West,272,0.4,0.6,21,-99.99,,,0.00,0,rob ver 1B,2013-03-12 05:46:00,
2013-03-11 22:47:00,62.3,25.4,29.53,ESE,102,4.0,4.4,24,-99.99,,,0.00,0,rob ver 1A,2013-03-12 05:47:00,
2013-03-11 22:48:00,66.3,26.4,29.53,North,350,0.5,1.1,22,-99.99,,,0.00,0,rob ver 1B,2013-03-12 05:48:00,
2013-03-11 22:49:00,66.2,26.3,29.53,NW,325,0.5,1.1,22,-99.99,,,0.00,0,rob ver 1B,2013-03-12 05:49:00,
2013-03-11 22:50:00,66.1,26.3,29.53,NNW,330,0.4,0.6,22,-99.99,,,0.00,0,rob ver 1B,2013-03-12 05:50:00,
2013-03-11 22:51:00,66.0,26.3,29.53,NW,319,0.4,0.7,22,-99.99,,,0.00,0,rob ver 1B,2013-03-12 05:51:00,
2013-03-11 22:52:00,61.8,25.4,29.53,SE,141,2.9,3.2,24,-99.99,,,0.00,0,rob ver 1A,2013-03-12 05:52:00,
2013-03-11 22:53:00,65.9,26.4,29.53,SW,214,0.7,1.3,22,-99.99,,,0.00,0,rob ver 1B,2013-03-12 05:53:00,
2013-03-11 22:54:00,65.8,26.4,29.53,SSE,157,0.6,1.1,22,-99.99,,,0.00,0,rob ver 1B,2013-03-12 05:54:00,
2013-03-11 22:55:00,65.7,26.5,29.53,SW,228,0.9,1.8,22,-99.99,,,0.00,0,rob ver 1B,2013-03-12 05:55:00,
2013-03-11 22:56:00,65.6,26.4,29.53,SW,226,0.7,1.2,22,-99.99,,,0.00,0,rob ver 1B,2013-03-12 05:56:00,
2013-03-11 22:57:00,65.6,26.4,29.53,SSE,149,0.3,0.4,22,-99.99,,,0.00,0,rob ver 1B,2013-03-12 05:57:00,
2013-03-11 22:58:00,61.0,25.4,29.53,SSE,157,2.6,2.8,25,-99.99,,,0.00,0,rob ver 1A,2013-03-12 05:58:00,
2013-03-11 22:59:00,65.4,26.5,29.53,East,97,0.4,0.5,22,-99.99,,,0.00,0,rob ver 1B,2013-03-12 05:59:00,
2013-03-11 23:00:00,65.4,26.5,29.53,SE,125,0.4,0.5,22,-99.99,,,0.00,0,rob ver 1B,2013-03-12 06:00:00,
2013-03-11 23:01:00,65.3,26.5,29.53,East,90,0.7,1.1,22,-99.99,,,0.00,0,rob ver 1B,2013-03-12 06:01:00,
2013-03-11 23:02:00,65.4,26.5,29.53,East,85,0.5,0.7,22,-99.99,,,0.00,0,rob ver 1B,2013-03-12 06:02:00,
2013-03-11 23:03:00,61.6,25.3,29.53,ESE,110,1.8,1.9,24,-99.99,,,0.00,0,rob ver 1A,2013-03-12 06:03:00,
2013-03-11 23:04:00,65.4,26.5,29.53,NE,34,0.2,0.5,22,-99.99,,,0.00,0,rob ver 1B,2013-03-12 06:04:00,
2013-03-11 23:05:00,65.3,26.4,29.53,NW,306,0.3,0.5,22,-99.99,,,0.00,0,rob ver 1B,2013-03-12 06:05:00,
2013-03-11 23:06:00,65.3,26.4,29.53,NNE,12,0.2,0.5,22,-99.99,,,0.00,0,rob ver 1B,2013-03-12 06:06:00,
2013-03-11 23:07:00,65.3,26.4,29.53,NW,313,0.4,0.8,22,-99.99,,,0.00,0,rob ver 1B,2013-03-12 06:07:00,
2013-03-11 23:08:00,62.7,24.8,29.53,East,99,1.1,1.2,23,-99.99,,,0.00,0,rob ver 1A,2013-03-12 06:08:00,
2013-03-11 23:09:00,65.2,26.4,29.53,SW,218,0.5,1.7,22,-99.99,,,0.00,0,rob ver 1B,2013-03-12 06:09:00,
2013-03-11 23:10:00,65.3,26.4,29.53,SSE,153,0.2,0.5,22,-99.99,,,0.00,0,rob ver 1B,2013-03-12 06:10:00,
2013-03-11 23:11:00,65.3,26.4,29.53,South,184,0.4,0.8,22,-99.99,,,0.00,0,rob ver 1B,2013-03-12 06:11:00,
2013-03-11 23:12:00,65.3,26.4,29.53,NE,40,0.7,1.0,22,-99.99,,,0.00,0,rob ver 1B,2013-03-12 06:12:00,
2013-03-11 23:13:00,63.4,24.9,29.53,South,174,0.9,1.2,22,-99.99,,,0.00,0,rob ver 1A,2013-03-12 06:13:00,
2013-03-11 23:14:00,65.4,26.5,29.53,East,81,0.4,0.6,22,-99.99,,,0.00,0,rob ver 1B,2013-03-12 06:14:00,
2013-03-11 23:15:00,65.5,26.4,29.53,West,280,0.5,0.8,22,-99.99,,,0.00,0,rob ver 1B,2013-03-12 06:15:00,
2013-03-11 23:16:00,65.6,26.4,29.53,NNW,348,0.4,0.9,22,-99.99,,,0.00,0,rob ver 1B,2013-03-12 06:16:00,
2013-03-11 23:17:00,65.6,26.4,29.53,NNW,329,0.6,1.0,22,-99.99,,,0.00,0,rob ver 1B,2013-03-12 06:17:00,
2013-03-11 23:18:00,62.9,24.9,29.53,ENE,72,0.4,0.5,23,-99.99,,,0.00,0,rob ver 1A,2013-03-12 06:18:00,
2013-03-11 23:19:00,65.6,26.3,29.53,NNW,347,1.0,1.5,22,-99.99,,,0.00,0,rob ver 1B,2013-03-12 06:19:00,
2013-03-11 23:20:00,65.7,26.3,29.53,North,0,1.4,1.7,22,-99.99,,,0.00,0,rob ver 1B,2013-03-12 06:20:00,
2013-03-11 23:21:00,65.9,26.2,29.53,North,8,1.2,1.6,22,-99.99,,,0.00,0,rob ver 1B,2013-03-12 06:21:00,
2013-03-11 23:22:00,66.1,26.3,29.53,NNW,340,1.3,1.7,22,-99.99,,,0.00,0,rob ver 1B,2013-03-12 06:22:00,
2013-03-11 23:23:00,63.0,24.7,29.53,ENE,73,1.0,1.2,23,-99.99,,,0.00,0,rob ver 1A,2013-03-12 06:23:00,
2013-03-11 23:24:00,66.4,26.2,29.53,North,11,1.4,1.6,21,-99.99,,,0.00,0,rob ver 1B,2013-03-12 06:24:00,
2013-03-11 23:25:00,66.5,26.1,29.53,NNW,335,1.4,1.9,21,-99.99,,,0.00,0,rob ver 1B,2013-03-12 06:25:00,
2013-03-11 23:26:00,66.6,26.1,29.53,NNW,336,0.8,1.3,21,-99.99,,,0.00,0,rob ver 1B,2013-03-12 06:26:00,
2013-03-11 23:27:00,66.7,26.1,29.53,NW,326,0.7,1.1,21,-99.99,,,0.00,0,rob ver 1B,2013-03-12 06:27:00,
2013-03-11 23:28:00,63.7,24.8,29.53,East,82,2.1,2.6,22,-99.99,,,0.00,0,rob ver 1A,2013-03-12 06:28:00,
2013-03-11 23:29:00,66.7,26.1,29.53,North,353,0.3,0.7,21,-99.99,,,0.00,0,rob ver 1B,2013-03-12 06:29:00,
2013-03-11 23:30:00,66.6,26.1,29.53,ENE,64,0.2,0.3,21,-99.99,,,0.00,0,rob ver 1B,2013-03-12 06:30:00,
2013-03-11 23:31:00,66.6,26.1,29.53,SE,144,0.2,0.3,21,-99.99,,,0.00,0,rob ver 1B,2013-03-12 06:31:00,
2013-03-11 23:32:00,66.6,26.1,29.53,East,96,0.4,0.8,21,-99.99,,,0.00,0,rob ver 1B,2013-03-12 06:32:00,
2013-03-11 23:33:00,62.2,25.1,29.53,ENE,70,4.4,4.8,24,-99.99,,,0.00,0,rob ver 1A,2013-03-12 06:33:00,
2013-03-11 23:34:00,66.7,26.1,29.53,ENE,57,1.3,1.5,21,-99.99,,,0.00,0,rob ver 1B,2013-03-12 06:34:00,
2013-03-11 23:35:00,66.7,26.2,29.53,ENE,58,1.0,1.5,21,-99.99,,,0.00,0,rob ver 1B,2013-03-12 06:35:00,
2013-03-11 23:36:00,66.7,26.2,29.53,NE,55,1.3,1.8,21,-99.99,,,0.00,0,rob ver 1B,2013-03-12 06:36:00,
2013-03-11 23:37:00,66.8,26.1,29.53,ENE,66,1.1,1.5,21,-99.99,,,0.00,0,rob ver 1B,2013-03-12 06:37:00,
2013-03-11 23:38:00,61.8,24.9,29.53,ENE,75,3.7,3.9,24,-99.99,,,0.00,0,rob ver 1A,2013-03-12 06:38:00,
2013-03-11 23:39:00,67.0,26.3,29.53,ENE,61,0.7,0.9,21,-99.99,,,0.00,0,rob ver 1B,2013-03-12 06:39:00,
2013-03-11 23:40:00,67.0,26.2,29.53,ENE,62,0.6,0.7,21,-99.99,,,0.00,0,rob ver 1B,2013-03-12 06:40:00,
2013-03-11 23:41:00,66.9,26.2,29.53,NE,47,0.5,0.9,21,-99.99,,,0.00,0,rob ver 1B,2013-03-12 06:41:00,
2013-03-11 23:42:00,67.0,26.1,29.53,NE,34,1.0,1.3,21,-99.99,,,0.00,0,rob ver 1B,2013-03-12 06:42:00,
2013-03-11 23:43:00,62.0,24.9,29.53,ENE,58,3.6,3.9,24,-99.99,,,0.00,0,rob ver 1A,2013-03-12 06:43:00,
2013-03-11 23:44:00,67.1,26.0,29.53,NE,36,1.6,2.0,20,-99.99,,,0.00,0,rob ver 1B,2013-03-12 06:44:00,
2013-03-11 23:45:00,67.2,25.9,29.53,NNE,21,2.5,3.4,20,-99.99,,,0.00,0,rob ver 1B,2013-03-12 06:45:00,
2013-03-11 23:46:00,67.3,25.9,29.53,NNE,20,3.3,3.6,20,-99.99,,,0.00,0,rob ver 1B,2013-03-12 06:46:00,
2013-03-11 23:47:00,67.4,25.9,29.53,North,11,3.3,3.6,20,-99.99,,,0.00,0,rob ver 1B,2013-03-12 06:47:00,
2013-03-11 23:48:00,61.7,25.2,29.53,NE,44,4.9,5.5,24,-99.99,,,0.00,0,rob ver 1A,2013-03-12 06:48:00,
2013-03-11 23:49:00,67.7,25.9,29.53,North,9,3.8,4.3,20,-99.99,,,0.00,0,rob ver 1B,2013-03-12 06:49:00,
2013-03-11 23:50:00,67.8,25.8,29.53,North,7,4.0,4.4,20,-99.99,,,0.00,0,rob ver 1B,2013-03-12 06:50:00,
2013-03-11 23:51:00,67.8,25.9,29.53,North,359,3.6,3.7,20,-99.99,,,0.00,0,rob ver 1B,2013-03-12 06:51:00,
2013-03-11 23:52:00,67.8,25.8,29.53,North,353,3.5,3.9,20,-99.99,,,0.00,0,rob ver 1B,2013-03-12 06:52:00,
2013-03-11 23:53:00,60.5,25.6,29.53,NE,44,5.2,5.9,26,-99.99,,,0.00,0,rob ver 1A,2013-03-12 06:53:00,
2013-03-11 23:54:00,67.8,25.8,29.53,NNW,348,3.0,3.1,20,-99.99,,,0.00,0,rob ver 1B,2013-03-12 06:54:00,
2013-03-11 23:55:00,67.8,25.8,29.53,NNW,346,2.8,3.0,20,-99.99,,,0.00,0,rob ver 1B,2013-03-12 06:55:00,
2013-03-11 23:56:00,67.8,25.8,29.53,NNW,341,2.7,3.0,20,-99.99,,,0.00,0,rob ver 1B,2013-03-12 06:56:00,
2013-03-11 23:57:00,67.8,25.8,29.53,NNW,341,2.5,3.2,20,-99.99,,,0.00,0,rob ver 1B,2013-03-12 06:57:00,
2013-03-11 23:58:00,60.5,25.7,29.53,NE,46,3.8,5.4,26,-99.99,,,0.00,0,rob ver 1A,2013-03-12 06:58:00,
2013-03-11 23:59:00,67.9,25.9,29.53,NNW,330,2.5,2.8,20,-99.99,,,0.00,0,rob ver 1B,2013-03-12 06:59:00,